Time,TemperatureF,DewpointF,PressureIn,WindDirection,WindDirectionDegrees,WindSpeedMPH,WindSpeedGustMPH,Humidity,HourlyPrecipIn,Conditions,Clouds,dailyrainin,SoftwareType,DateUTC
2013-05-25 00:00:00,51.6,37.8,29.94,NE,45,0.0,2.0,59,0.00,,---,0.00,VWS V14.01,2013-05-25 04:00:00,
2013-05-25 00:01:00,51.3,37.4,29.97,ESE,112,0.7,2.7,59,0.00,,---,0.00,VWS V14.01,2013-05-25 04:01:00,
2013-05-25 00:02:00,51.3,37.9,29.97,ESE,112,0.2,2.7,60,0.00,,---,0.00,VWS V14.01,2013-05-25 04:02:00,
2013-05-25 00:03:00,51.1,37.7,29.97,ESE,112,0.2,0.0,60,0.00,,---,0.00,VWS V14.01,2013-05-25 04:03:00,
2013-05-25 00:04:00,51.4,37.6,29.97,SE,135,0.0,1.1,59,0.00,,---,0.00,VWS V14.01,2013-05-25 04:04:00,
2013-05-25 00:05:00,51.4,37.2,29.97,East,90,0.0,2.0,58,0.00,,---,0.00,VWS V14.01,2013-05-25 04:05:00,
2013-05-25 00:06:00,51.4,37.2,29.97,ENE,68,0.0,2.0,58,0.00,,---,0.00,VWS V14.01,2013-05-25 04:06:00,
2013-05-25 00:07:00,51.4,37.2,29.97,ENE,68,0.0,1.6,58,0.00,,---,0.00,VWS V14.01,2013-05-25 04:07:00,
2013-05-25 00:08:00,50.9,37.5,29.97,East,90,0.0,2.0,60,0.00,,---,0.00,VWS V14.01,2013-05-25 04:08:00,
2013-05-25 00:09:00,50.9,37.5,29.97,East,90,0.0,2.0,60,0.00,,---,0.00,VWS V14.01,2013-05-25 04:09:00,
2013-05-25 00:10:00,51.3,37.9,29.97,ESE,112,0.2,1.1,60,0.00,,---,0.00,VWS V14.01,2013-05-25 04:10:00,
2013-05-25 00:11:00,51.1,37.7,29.97,ESE,112,0.2,0.0,60,0.00,,---,0.00,VWS V14.01,2013-05-25 04:11:00,
2013-05-25 00:12:00,50.9,37.5,29.97,SSE,158,0.0,1.6,60,0.00,,---,0.00,VWS V14.01,2013-05-25 04:12:00,
2013-05-25 00:13:00,51.1,37.7,29.97,ESE,112,0.0,2.0,60,0.00,,---,0.00,VWS V14.01,2013-05-25 04:13:00,
2013-05-25 00:14:00,50.9,37.1,29.97,ESE,112,0.0,0.0,59,0.00,,---,0.00,VWS V14.01,2013-05-25 04:14:00,
2013-05-25 00:15:00,50.7,36.9,29.97,ESE,112,0.0,0.0,59,0.00,,---,0.00,VWS V14.01,2013-05-25 04:15:00,
2013-05-25 00:16:00,50.9,37.5,29.97,East,90,0.0,2.0,60,0.00,,---,0.00,VWS V14.01,2013-05-25 04:16:00,
2013-05-25 00:17:00,50.9,37.5,29.97,East,90,0.0,2.0,60,0.00,,---,0.00,VWS V14.01,2013-05-25 04:17:00,
2013-05-25 00:18:00,50.7,37.4,29.97,NW,315,0.0,0.0,60,0.00,,---,0.00,VWS V14.01,2013-05-25 04:18:00,
2013-05-25 00:19:00,50.5,36.8,29.97,NW,315,0.0,0.0,59,0.00,,---,0.00,VWS V14.01,2013-05-25 04:19:00,
2013-05-25 00:20:00,50.9,37.1,29.97,SE,135,0.0,0.0,59,0.00,,---,0.00,VWS V14.01,2013-05-25 04:20:00,
2013-05-25 00:21:00,50.9,37.1,29.97,ESE,112,0.0,0.0,59,0.00,,---,0.00,VWS V14.01,2013-05-25 04:21:00,
2013-05-25 00:22:00,50.5,37.2,29.97,NE,45,0.0,0.0,60,0.00,,---,0.00,VWS V14.01,2013-05-25 04:22:00,
2013-05-25 00:23:00,50.4,37.0,29.94,NE,45,0.0,0.0,60,0.00,,---,0.00,VWS V14.01,2013-05-25 04:23:00,
2013-05-25 00:24:00,50.7,36.9,29.97,NW,315,0.0,0.0,59,0.00,,---,0.00,VWS V14.01,2013-05-25 04:24:00,
2013-05-25 00:25:00,50.7,37.3,29.97,NW,315,0.0,0.0,60,0.00,,---,0.00,VWS V14.01,2013-05-25 04:25:00,
2013-05-25 00:26:00,50.4,37.0,29.94,NE,45,0.0,0.0,60,0.00,,---,0.00,VWS V14.01,2013-05-25 04:26:00,
2013-05-25 00:27:00,50.4,37.8,29.94,NE,45,0.0,0.0,62,0.00,,---,0.00,VWS V14.01,2013-05-25 04:27:00,
2013-05-25 00:28:00,50.5,37.2,29.97,NE,45,0.0,0.0,60,0.00,,---,0.00,VWS V14.01,2013-05-25 04:28:00,
2013-05-25 00:29:00,50.4,37.4,29.94,NE,45,0.0,0.0,61,0.00,,---,0.00,VWS V14.01,2013-05-25 04:29:00,
2013-05-25 00:30:00,50.2,37.3,29.94,NE,45,0.0,0.0,61,0.00,,---,0.00,VWS V14.01,2013-05-25 04:30:00,
2013-05-25 00:31:00,50.4,37.0,29.94,NE,45,0.0,0.0,60,0.00,,---,0.00,VWS V14.01,2013-05-25 04:31:00,
2013-05-25 00:32:00,50.4,37.4,29.94,NE,45,0.0,0.0,61,0.00,,---,0.00,VWS V14.01,2013-05-25 04:32:00,
2013-05-25 00:33:00,50.2,37.3,29.94,NE,45,0.0,0.0,61,0.00,,---,0.00,VWS V14.01,2013-05-25 04:33:00,
2013-05-25 00:34:00,50.4,37.4,29.94,NE,45,0.0,0.0,61,0.00,,---,0.00,VWS V14.01,2013-05-25 04:34:00,
2013-05-25 00:35:00,50.4,37.8,29.94,NE,45,0.0,0.0,62,0.00,,---,0.00,VWS V14.01,2013-05-25 04:35:00,
2013-05-25 00:36:00,50.0,37.1,29.94,NE,45,0.0,0.0,61,0.00,,---,0.00,VWS V14.01,2013-05-25 04:36:00,
2013-05-25 00:37:00,50.0,37.9,29.94,ENE,68,0.2,2.2,63,0.00,,---,0.00,VWS V14.01,2013-05-25 04:37:00,
2013-05-25 00:38:00,50.2,37.3,29.94,NE,45,0.0,0.0,61,0.00,,---,0.00,VWS V14.01,2013-05-25 04:38:00,
2013-05-25 00:39:00,50.2,37.3,29.94,NE,45,0.0,0.0,61,0.00,,---,0.00,VWS V14.01,2013-05-25 04:39:00,
2013-05-25 00:40:00,49.8,38.5,29.97,WNW,292,0.0,2.0,65,0.00,,---,0.00,VWS V14.01,2013-05-25 04:40:00,
2013-05-25 00:41:00,50.2,37.3,29.94,NE,45,0.0,0.0,61,0.00,,---,0.00,VWS V14.01,2013-05-25 04:41:00,
2013-05-25 00:42:00,50.0,37.1,29.94,NE,45,0.0,0.0,61,0.00,,---,0.00,VWS V14.01,2013-05-25 04:42:00,
2013-05-25 00:43:00,49.8,38.9,29.97,South,180,0.0,1.6,66,0.00,,---,0.00,VWS V14.01,2013-05-25 04:43:00,
2013-05-25 00:44:00,49.8,38.9,29.97,East,90,0.2,2.2,66,0.00,,---,0.00,VWS V14.01,2013-05-25 04:44:00,
2013-05-25 00:45:00,50.0,38.3,29.97,ENE,68,0.0,2.2,64,0.00,,---,0.00,VWS V14.01,2013-05-25 04:45:00,
2013-05-25 00:46:00,50.0,38.7,29.97,ENE,68,0.0,2.0,65,0.00,,---,0.00,VWS V14.01,2013-05-25 04:46:00,
2013-05-25 00:47:00,49.6,38.8,29.97,North,0,0.0,0.0,66,0.00,,---,0.00,VWS V14.01,2013-05-25 04:47:00,
2013-05-25 00:48:00,49.6,39.2,29.97,West,270,0.0,0.0,67,0.00,,---,0.00,VWS V14.01,2013-05-25 04:48:00,
2013-05-25 00:49:00,49.8,38.9,29.97,SW,225,0.0,2.0,66,0.00,,---,0.00,VWS V14.01,2013-05-25 04:49:00,
2013-05-25 00:50:00,49.6,39.2,29.97,West,270,0.0,0.0,67,0.00,,---,0.00,VWS V14.01,2013-05-25 04:50:00,
2013-05-25 00:51:00,49.8,38.9,29.97,East,90,0.2,2.2,66,0.00,,---,0.00,VWS V14.01,2013-05-25 04:51:00,
2013-05-25 00:52:00,49.6,39.2,29.97,East,90,0.0,2.0,67,0.00,,---,0.00,VWS V14.01,2013-05-25 04:52:00,
2013-05-25 00:53:00,49.6,38.8,29.97,NNW,338,0.0,1.6,66,0.00,,---,0.00,VWS V14.01,2013-05-25 04:53:00,
2013-05-25 00:54:00,49.5,39.0,29.97,East,90,0.0,0.0,67,0.00,,---,0.00,VWS V14.01,2013-05-25 04:54:00,
2013-05-25 00:55:00,49.6,38.8,29.97,North,0,0.0,0.0,66,0.00,,---,0.00,VWS V14.01,2013-05-25 04:55:00,
2013-05-25 00:56:00,49.5,39.7,29.97,East,90,0.0,0.0,69,0.00,,---,0.00,VWS V14.01,2013-05-25 04:56:00,
2013-05-25 00:57:00,49.6,39.2,29.97,West,270,0.0,0.0,67,0.00,,---,0.00,VWS V14.01,2013-05-25 04:57:00,
2013-05-25 00:58:00,49.3,39.5,29.97,East,90,0.0,0.0,69,0.00,,---,0.00,VWS V14.01,2013-05-25 04:58:00,
2013-05-25 00:59:00,49.5,39.0,29.97,East,90,0.0,0.0,67,0.00,,---,0.00,VWS V14.01,2013-05-25 04:59:00,
2013-05-25 01:00:00,49.5,39.0,29.97,North,0,0.0,0.0,67,0.00,,---,0.00,VWS V14.01,2013-05-25 05:00:00,
2013-05-25 01:01:00,49.3,39.5,29.97,NNW,338,0.0,0.0,69,0.00,,---,0.00,VWS V14.01,2013-05-25 05:01:00,
2013-05-25 01:02:00,49.5,40.1,29.97,East,90,0.0,0.0,70,0.00,,---,0.00,VWS V14.01,2013-05-25 05:02:00,
2013-05-25 01:03:00,49.1,39.4,29.97,WNW,292,0.0,0.0,69,0.00,,---,0.00,VWS V14.01,2013-05-25 05:03:00,
2013-05-25 01:04:00,49.5,39.7,29.97,East,90,0.0,0.0,69,0.00,,---,0.00,VWS V14.01,2013-05-25 05:04:00,
2013-05-25 01:05:00,48.9,38.8,29.97,WNW,292,0.0,0.0,68,0.00,,---,0.00,VWS V14.01,2013-05-25 05:05:00,
2013-05-25 01:06:00,49.3,39.6,29.97,East,90,0.0,0.0,69,0.00,,---,0.00,VWS V14.01,2013-05-25 05:06:00,
2013-05-25 01:07:00,48.9,39.2,29.97,East,90,0.0,0.0,69,0.00,,---,0.00,VWS V14.01,2013-05-25 05:07:00,
2013-05-25 01:08:00,49.3,39.6,29.97,NNW,338,0.0,0.0,69,0.00,,---,0.00,VWS V14.01,2013-05-25 05:08:00,
2013-05-25 01:09:00,49.1,39.4,29.97,NNW,338,0.0,0.0,69,0.00,,---,0.00,VWS V14.01,2013-05-25 05:09:00,
2013-05-25 01:10:00,49.1,39.4,29.97,WNW,292,0.0,0.0,69,0.00,,---,0.00,VWS V14.01,2013-05-25 05:10:00,
2013-05-25 01:11:00,48.7,39.0,29.97,SSW,202,0.0,0.0,69,0.00,,---,0.00,VWS V14.01,2013-05-25 05:11:00,
2013-05-25 01:12:00,48.6,38.9,29.97,ESE,112,0.0,0.0,69,0.00,,---,0.00,VWS V14.01,2013-05-25 05:12:00,
2013-05-25 01:13:00,48.6,38.9,29.97,ENE,68,0.0,0.0,69,0.00,,---,0.00,VWS V14.01,2013-05-25 05:13:00,
2013-05-25 01:14:00,48.9,39.2,29.97,East,90,0.0,0.0,69,0.00,,---,0.00,VWS V14.01,2013-05-25 05:14:00,
2013-05-25 01:15:00,48.7,38.7,29.97,East,90,0.0,0.0,68,0.00,,---,0.00,VWS V14.01,2013-05-25 05:15:00,
2013-05-25 01:16:00,48.7,38.7,29.97,East,90,0.0,0.0,68,0.00,,---,0.00,VWS V14.01,2013-05-25 05:16:00,
2013-05-25 01:17:00,48.4,39.1,29.97,NW,315,0.0,0.0,70,0.00,,---,0.00,VWS V14.01,2013-05-25 05:17:00,
2013-05-25 01:18:00,48.4,39.1,29.97,NW,315,0.0,0.0,70,0.00,,---,0.00,VWS V14.01,2013-05-25 05:18:00,
2013-05-25 01:19:00,48.7,39.4,29.97,SSW,202,0.0,0.0,70,0.00,,---,0.00,VWS V14.01,2013-05-25 05:19:00,
2013-05-25 01:20:00,48.2,38.9,29.97,NW,315,0.0,0.0,70,0.00,,---,0.00,VWS V14.01,2013-05-25 05:20:00,
2013-05-25 01:21:00,48.6,38.9,29.97,ENE,68,0.0,0.0,69,0.00,,---,0.00,VWS V14.01,2013-05-25 05:21:00,
2013-05-25 01:22:00,48.0,38.7,29.97,NW,315,0.0,0.0,70,0.00,,---,0.00,VWS V14.01,2013-05-25 05:22:00,
2013-05-25 01:23:00,48.0,39.4,29.97,East,90,0.0,2.2,72,0.00,,---,0.00,VWS V14.01,2013-05-25 05:23:00,
2013-05-25 01:24:00,48.4,39.1,29.97,NW,315,0.0,0.0,70,0.00,,---,0.00,VWS V14.01,2013-05-25 05:24:00,
2013-05-25 01:25:00,48.4,39.1,29.97,NW,315,0.0,0.0,70,0.00,,---,0.00,VWS V14.01,2013-05-25 05:25:00,
2013-05-25 01:26:00,47.8,40.0,29.97,NNE,22,0.0,2.0,74,0.00,,---,0.00,VWS V14.01,2013-05-25 05:26:00,
2013-05-25 01:27:00,47.8,39.3,29.97,ESE,112,0.0,0.0,72,0.00,,---,0.00,VWS V14.01,2013-05-25 05:27:00,
2013-05-25 01:28:00,48.2,38.9,29.97,NW,315,0.0,0.0,70,0.00,,---,0.00,VWS V14.01,2013-05-25 05:28:00,
2013-05-25 01:29:00,47.8,40.3,29.97,East,90,1.4,3.4,75,0.00,,---,0.00,VWS V14.01,2013-05-25 05:29:00,
2013-05-25 01:30:00,48.0,39.1,29.97,ESE,112,0.2,2.2,71,0.00,,---,0.00,VWS V14.01,2013-05-25 05:30:00,
2013-05-25 01:31:00,47.7,39.8,29.97,ESE,112,0.5,1.6,74,0.00,,---,0.00,VWS V14.01,2013-05-25 05:31:00,
2013-05-25 01:32:00,48.0,39.4,29.97,East,90,0.0,1.6,72,0.00,,---,0.00,VWS V14.01,2013-05-25 05:32:00,
2013-05-25 01:33:00,47.5,39.3,29.97,ESE,112,0.5,1.6,73,0.00,,---,0.00,VWS V14.01,2013-05-25 05:33:00,
2013-05-25 01:34:00,47.8,40.0,29.97,NNE,22,0.0,2.0,74,0.00,,---,0.00,VWS V14.01,2013-05-25 05:34:00,
2013-05-25 01:35:00,47.8,39.3,29.97,ESE,112,0.0,0.0,72,0.00,,---,0.00,VWS V14.01,2013-05-25 05:35:00,
2013-05-25 01:36:00,47.3,38.7,29.97,ESE,112,0.5,0.0,72,0.00,,---,0.00,VWS V14.01,2013-05-25 05:36:00,
2013-05-25 01:37:00,47.3,39.1,29.97,NW,315,0.5,0.0,73,0.00,,---,0.00,VWS V14.01,2013-05-25 05:37:00,
2013-05-25 01:38:00,47.7,39.4,29.97,East,90,0.5,1.1,73,0.00,,---,0.00,VWS V14.01,2013-05-25 05:38:00,
2013-05-25 01:39:00,47.3,39.1,29.97,ESE,112,0.5,0.0,73,0.00,,---,0.00,VWS V14.01,2013-05-25 05:39:00,
2013-05-25 01:40:00,47.3,39.5,29.97,SE,135,0.5,0.0,74,0.00,,---,0.00,VWS V14.01,2013-05-25 05:40:00,
2013-05-25 01:41:00,47.5,39.3,29.97,ESE,112,0.5,0.0,73,0.00,,---,0.00,VWS V14.01,2013-05-25 05:41:00,
2013-05-25 01:42:00,47.1,40.0,29.97,SE,135,0.5,0.0,76,0.00,,---,0.00,VWS V14.01,2013-05-25 05:42:00,
2013-05-25 01:43:00,47.1,40.0,29.97,SE,135,0.5,0.0,76,0.00,,---,0.00,VWS V14.01,2013-05-25 05:43:00,
2013-05-25 01:44:00,47.3,38.7,29.97,ESE,112,0.5,0.0,72,0.00,,---,0.00,VWS V14.01,2013-05-25 05:44:00,
2013-05-25 01:45:00,47.3,39.1,29.97,NW,315,0.5,0.0,73,0.00,,---,0.00,VWS V14.01,2013-05-25 05:45:00,
2013-05-25 01:46:00,47.1,40.3,29.97,NW,315,0.5,0.0,77,0.00,,---,0.00,VWS V14.01,2013-05-25 05:46:00,
2013-05-25 01:47:00,47.1,40.0,29.97,NNW,338,0.5,0.9,76,0.00,,---,0.00,VWS V14.01,2013-05-25 05:47:00,
2013-05-25 01:48:00,47.3,39.4,29.97,SE,135,0.5,0.0,74,0.00,,---,0.00,VWS V14.01,2013-05-25 05:48:00,
2013-05-25 01:49:00,47.1,41.0,29.97,NW,315,0.5,1.6,79,0.00,,---,0.00,VWS V14.01,2013-05-25 05:49:00,
2013-05-25 01:50:00,46.9,40.8,29.97,NW,315,0.5,0.0,79,0.00,,---,0.00,VWS V14.01,2013-05-25 05:50:00,
2013-05-25 01:51:00,47.1,40.0,29.97,SE,135,0.5,0.0,76,0.00,,---,0.00,VWS V14.01,2013-05-25 05:51:00,
2013-05-25 01:52:00,47.1,39.6,29.97,WNW,292,0.5,0.0,75,0.00,,---,0.00,VWS V14.01,2013-05-25 05:52:00,
2013-05-25 01:53:00,47.1,41.3,29.97,SSE,158,0.2,2.5,80,0.00,,---,0.00,VWS V14.01,2013-05-25 05:53:00,
2013-05-25 01:54:00,46.9,41.4,29.97,SE,135,0.2,1.6,81,0.00,,---,0.00,VWS V14.01,2013-05-25 05:54:00,
2013-05-25 01:55:00,47.1,40.0,29.97,NNW,338,0.5,0.9,76,0.00,,---,0.00,VWS V14.01,2013-05-25 05:55:00,
2013-05-25 01:56:00,46.8,40.9,29.97,NE,45,0.2,1.1,80,0.00,,---,0.00,VWS V14.01,2013-05-25 05:56:00,
2013-05-25 01:57:00,46.8,40.6,29.97,North,0,0.2,0.9,79,0.00,,---,0.00,VWS V14.01,2013-05-25 05:57:00,
2013-05-25 01:58:00,46.8,39.9,29.97,East,90,0.2,0.0,77,0.00,,---,0.00,VWS V14.01,2013-05-25 05:58:00,
2013-05-25 01:59:00,47.1,41.3,29.97,SE,135,0.5,0.0,80,0.00,,---,0.00,VWS V14.01,2013-05-25 05:59:00,
2013-05-25 02:00:00,46.8,39.9,29.97,NNE,22,0.2,0.0,77,0.00,,---,0.00,VWS V14.01,2013-05-25 06:00:00,
2013-05-25 02:01:00,46.9,41.7,29.97,SSE,158,0.2,2.2,82,0.00,,---,0.00,VWS V14.01,2013-05-25 06:01:00,
2013-05-25 02:02:00,46.9,41.4,29.97,SE,135,0.2,1.6,81,0.00,,---,0.00,VWS V14.01,2013-05-25 06:02:00,
2013-05-25 02:03:00,46.8,40.9,29.97,NE,45,0.2,1.1,80,0.00,,---,0.00,VWS V14.01,2013-05-25 06:03:00,
2013-05-25 02:04:00,46.6,40.8,29.97,NNW,338,0.2,0.0,80,0.00,,---,0.00,VWS V14.01,2013-05-25 06:04:00,
2013-05-25 02:05:00,46.8,40.3,29.97,East,90,0.2,0.0,78,0.00,,---,0.00,VWS V14.01,2013-05-25 06:05:00,
2013-05-25 02:06:00,46.8,39.9,29.97,East,90,0.2,0.0,77,0.00,,---,0.00,VWS V14.01,2013-05-25 06:06:00,
2013-05-25 02:07:00,46.4,40.2,29.97,East,90,0.0,2.0,79,0.00,,---,0.00,VWS V14.01,2013-05-25 06:07:00,
2013-05-25 02:08:00,46.8,39.9,29.97,North,0,0.2,0.0,77,0.00,,---,0.00,VWS V14.01,2013-05-25 06:08:00,
2013-05-25 02:09:00,46.8,40.3,29.97,NW,315,0.2,0.0,78,0.00,,---,0.00,VWS V14.01,2013-05-25 06:09:00,
2013-05-25 02:10:00,46.4,40.9,29.97,SE,135,0.0,2.0,81,0.00,,---,0.00,VWS V14.01,2013-05-25 06:10:00,
2013-05-25 02:11:00,46.4,40.9,29.97,SE,135,0.5,2.5,81,0.00,,---,0.00,VWS V14.01,2013-05-25 06:11:00,
2013-05-25 02:12:00,46.2,41.0,29.97,SE,135,0.2,1.3,82,0.00,,---,0.00,VWS V14.01,2013-05-25 06:12:00,
2013-05-25 02:13:00,46.4,40.2,29.97,NNW,338,0.0,2.5,79,0.00,,---,0.00,VWS V14.01,2013-05-25 06:13:00,
2013-05-25 02:14:00,46.2,41.0,29.97,SE,135,0.2,1.1,82,0.00,,---,0.00,VWS V14.01,2013-05-25 06:14:00,
2013-05-25 02:15:00,46.4,40.2,29.97,East,90,0.0,2.0,79,0.00,,---,0.00,VWS V14.01,2013-05-25 06:15:00,
2013-05-25 02:16:00,46.4,40.6,29.97,SE,135,0.0,2.7,80,0.00,,---,0.00,VWS V14.01,2013-05-25 06:16:00,
2013-05-25 02:17:00,46.4,40.9,29.97,SE,135,0.0,2.0,81,0.00,,---,0.00,VWS V14.01,2013-05-25 06:17:00,
2013-05-25 02:18:00,46.0,40.2,29.97,SE,135,0.2,0.0,80,0.00,,---,0.00,VWS V14.01,2013-05-25 06:18:00,
2013-05-25 02:19:00,46.2,41.0,29.97,SE,135,0.2,2.5,82,0.00,,---,0.00,VWS V14.01,2013-05-25 06:19:00,
2013-05-25 02:20:00,46.2,41.0,29.97,SE,135,0.2,1.3,82,0.00,,---,0.00,VWS V14.01,2013-05-25 06:20:00,
2013-05-25 02:21:00,46.0,40.5,29.97,ESE,112,0.0,2.0,81,0.00,,---,0.00,VWS V14.01,2013-05-25 06:21:00,
2013-05-25 02:22:00,46.2,41.0,29.97,SE,135,0.2,0.0,82,0.00,,---,0.00,VWS V14.01,2013-05-25 06:22:00,
2013-05-25 02:23:00,45.9,40.7,29.97,ESE,112,0.0,1.6,82,0.00,,---,0.00,VWS V14.01,2013-05-25 06:23:00,
2013-05-25 02:24:00,46.0,40.5,29.97,NNE,22,0.2,0.0,81,0.00,,---,0.00,VWS V14.01,2013-05-25 06:24:00,
2013-05-25 02:25:00,45.9,41.0,29.97,ESE,112,0.0,0.0,83,0.00,,---,0.00,VWS V14.01,2013-05-25 06:25:00,
2013-05-25 02:26:00,45.9,41.0,29.97,ESE,112,0.5,2.5,83,0.00,,---,0.00,VWS V14.01,2013-05-25 06:26:00,
2013-05-25 02:27:00,45.5,41.0,29.97,ESE,112,0.2,2.5,84,0.00,,---,0.00,VWS V14.01,2013-05-25 06:27:00,
2013-05-25 02:28:00,46.0,40.5,29.97,ESE,112,0.0,2.0,81,0.00,,---,0.00,VWS V14.01,2013-05-25 06:28:00,
2013-05-25 02:29:00,45.5,41.6,29.97,WNW,292,0.2,1.6,86,0.00,,---,0.00,VWS V14.01,2013-05-25 06:29:00,
2013-05-25 02:30:00,45.9,40.7,29.97,ESE,112,0.0,1.6,82,0.00,,---,0.00,VWS V14.01,2013-05-25 06:30:00,
2013-05-25 02:31:00,45.9,41.3,29.97,ESE,112,0.0,2.0,84,0.00,,---,0.00,VWS V14.01,2013-05-25 06:31:00,
2013-05-25 02:32:00,45.5,41.3,29.97,ESE,112,0.2,0.0,85,0.00,,---,0.00,VWS V14.01,2013-05-25 06:32:00,
2013-05-25 02:33:00,45.3,41.1,29.97,ESE,112,0.2,0.0,85,0.00,,---,0.00,VWS V14.01,2013-05-25 06:33:00,
2013-05-25 02:34:00,45.9,41.0,29.97,ESE,112,0.5,2.5,83,0.00,,---,0.00,VWS V14.01,2013-05-25 06:34:00,
2013-05-25 02:35:00,45.5,41.0,29.97,ESE,112,0.2,2.5,84,0.00,,---,0.00,VWS V14.01,2013-05-25 06:35:00,
2013-05-25 02:36:00,45.7,41.4,29.97,WNW,292,0.2,1.3,85,0.00,,---,0.00,VWS V14.01,2013-05-25 06:36:00,
2013-05-25 02:37:00,45.5,41.6,29.97,WNW,292,0.2,1.6,86,0.00,,---,0.00,VWS V14.01,2013-05-25 06:37:00,
2013-05-25 02:38:00,45.3,41.1,29.97,ESE,112,0.2,0.0,85,0.00,,---,0.00,VWS V14.01,2013-05-25 06:38:00,
2013-05-25 02:39:00,45.1,40.9,29.97,ESE,112,0.2,0.0,85,0.00,,---,0.00,VWS V14.01,2013-05-25 06:39:00,
2013-05-25 02:40:00,45.1,40.6,29.97,ESE,112,0.2,0.0,84,0.00,,---,0.00,VWS V14.01,2013-05-25 06:40:00,
2013-05-25 02:41:00,45.3,41.1,29.97,ESE,112,0.2,0.0,85,0.00,,---,0.00,VWS V14.01,2013-05-25 06:41:00,
2013-05-25 02:42:00,45.1,40.6,29.97,ESE,112,0.2,0.0,84,0.00,,---,0.00,VWS V14.01,2013-05-25 06:42:00,
2013-05-25 02:43:00,45.3,41.1,29.97,ESE,112,0.2,0.0,85,0.00,,---,0.00,VWS V14.01,2013-05-25 06:43:00,
2013-05-25 02:44:00,45.3,41.1,29.97,ESE,112,0.2,0.0,85,0.00,,---,0.00,VWS V14.01,2013-05-25 06:44:00,
2013-05-25 02:45:00,45.1,40.9,29.97,West,270,0.2,0.0,85,0.00,,---,0.00,VWS V14.01,2013-05-25 06:45:00,
2013-05-25 02:46:00,45.1,40.9,29.97,SE,135,0.2,0.0,85,0.00,,---,0.00,VWS V14.01,2013-05-25 06:46:00,
2013-05-25 02:47:00,45.1,40.9,29.97,ESE,112,0.2,0.0,85,0.00,,---,0.00,VWS V14.01,2013-05-25 06:47:00,
2013-05-25 02:48:00,45.1,40.6,29.97,ESE,112,0.2,0.0,84,0.00,,---,0.00,VWS V14.01,2013-05-25 06:48:00,
2013-05-25 02:49:00,45.0,40.7,29.97,ESE,112,0.0,2.0,85,0.00,,---,0.00,VWS V14.01,2013-05-25 06:49:00,
2013-05-25 02:50:00,45.0,41.0,29.97,East,90,0.0,2.0,86,0.00,,---,0.00,VWS V14.01,2013-05-25 06:50:00,
2013-05-25 02:51:00,45.1,40.9,29.97,ESE,112,0.2,0.0,85,0.00,,---,0.00,VWS V14.01,2013-05-25 06:51:00,
2013-05-25 02:52:00,45.0,41.0,29.97,East,90,0.0,1.3,86,0.00,,---,0.00,VWS V14.01,2013-05-25 06:52:00,
2013-05-25 02:53:00,45.1,40.9,29.97,SE,135,0.2,0.0,85,0.00,,---,0.00,VWS V14.01,2013-05-25 06:53:00,
2013-05-25 02:54:00,45.1,40.9,29.97,SE,135,0.2,0.0,85,0.00,,---,0.00,VWS V14.01,2013-05-25 06:54:00,
2013-05-25 02:55:00,45.0,40.7,29.97,ESE,112,0.2,0.0,85,0.00,,---,0.00,VWS V14.01,2013-05-25 06:55:00,
2013-05-25 02:56:00,45.0,41.9,29.97,SSE,158,0.2,2.2,89,0.00,,---,0.00,VWS V14.01,2013-05-25 06:56:00,
2013-05-25 02:57:00,44.8,42.3,29.97,SE,135,0.0,1.6,91,0.00,,---,0.00,VWS V14.01,2013-05-25 06:57:00,
2013-05-25 02:58:00,44.8,42.0,29.97,SE,135,0.0,1.1,90,0.00,,---,0.00,VWS V14.01,2013-05-25 06:58:00,
2013-05-25 02:59:00,45.0,41.0,29.97,East,90,0.0,1.3,86,0.00,,---,0.00,VWS V14.01,2013-05-25 06:59:00,
2013-05-25 03:00:00,44.8,41.7,29.97,SE,135,0.0,0.0,89,0.00,,---,0.00,VWS V14.01,2013-05-25 07:00:00,
2013-05-25 03:01:00,45.0,41.0,29.97,NW,315,0.0,0.0,86,0.00,,---,0.00,VWS V14.01,2013-05-25 07:01:00,
2013-05-25 03:02:00,45.0,41.6,29.97,WNW,292,0.0,2.2,88,0.00,,---,0.00,VWS V14.01,2013-05-25 07:02:00,
2013-05-25 03:03:00,44.8,42.0,29.97,WNW,292,0.0,1.3,90,0.00,,---,0.00,VWS V14.01,2013-05-25 07:03:00,
2013-05-25 03:04:00,44.8,42.3,29.97,SSE,158,0.0,1.3,91,0.00,,---,0.00,VWS V14.01,2013-05-25 07:04:00,
2013-05-25 03:05:00,44.8,42.3,29.97,SE,135,0.0,1.6,91,0.00,,---,0.00,VWS V14.01,2013-05-25 07:05:00,
2013-05-25 03:06:00,44.8,42.0,29.97,SE,135,0.0,1.1,90,0.00,,---,0.00,VWS V14.01,2013-05-25 07:06:00,
2013-05-25 03:07:00,44.8,41.7,29.97,SE,135,0.0,0.0,89,0.00,,---,0.00,VWS V14.01,2013-05-25 07:07:00,
2013-05-25 03:08:00,44.6,41.8,29.97,SE,135,0.0,0.0,90,0.00,,---,0.00,VWS V14.01,2013-05-25 07:08:00,
2013-05-25 03:09:00,44.8,42.0,29.97,ESE,112,0.0,0.0,90,0.00,,---,0.00,VWS V14.01,2013-05-25 07:09:00,
2013-05-25 03:10:00,44.6,41.6,29.97,ENE,68,0.0,0.0,89,0.00,,---,0.00,VWS V14.01,2013-05-25 07:10:00,
2013-05-25 03:11:00,44.6,41.6,29.97,ENE,68,0.0,0.0,89,0.00,,---,0.00,VWS V14.01,2013-05-25 07:11:00,
2013-05-25 03:12:00,44.8,42.3,29.97,SSE,158,0.0,1.3,91,0.00,,---,0.00,VWS V14.01,2013-05-25 07:12:00,
2013-05-25 03:13:00,44.6,41.3,29.97,NNW,338,0.0,0.0,88,0.00,,---,0.00,VWS V14.01,2013-05-25 07:13:00,
2013-05-25 03:14:00,44.6,41.8,29.97,SE,135,0.0,0.0,90,0.00,,---,0.00,VWS V14.01,2013-05-25 07:14:00,
2013-05-25 03:15:00,44.6,41.8,29.97,SE,135,0.0,0.0,90,0.00,,---,0.00,VWS V14.01,2013-05-25 07:15:00,
2013-05-25 03:16:00,44.6,41.8,29.97,NNW,338,0.0,0.0,90,0.00,,---,0.00,VWS V14.01,2013-05-25 07:16:00,
2013-05-25 03:17:00,44.6,41.6,29.97,ENE,68,0.0,0.0,89,0.00,,---,0.00,VWS V14.01,2013-05-25 07:17:00,
2013-05-25 03:18:00,44.6,41.3,29.97,North,0,0.0,2.0,88,0.00,,---,0.00,VWS V14.01,2013-05-25 07:18:00,
2013-05-25 03:19:00,44.6,41.3,29.97,NNW,338,0.0,0.9,88,0.00,,---,0.00,VWS V14.01,2013-05-25 07:19:00,
2013-05-25 03:20:00,44.6,41.3,29.97,NNE,22,0.0,0.0,88,0.00,,---,0.00,VWS V14.01,2013-05-25 07:20:00,
2013-05-25 03:21:00,44.6,41.3,29.97,NNW,338,0.0,0.0,88,0.00,,---,0.00,VWS V14.01,2013-05-25 07:21:00,
2013-05-25 03:23:00,44.8,41.5,29.97,NNE,22,0.7,2.7,88,0.00,,---,0.00,VWS V14.01,2013-05-25 07:23:00,
2013-05-25 03:24:00,44.6,41.3,29.97,NNW,338,0.0,2.0,88,0.00,,---,0.00,VWS V14.01,2013-05-25 07:24:00,
2013-05-25 03:25:00,45.0,42.5,29.97,NNW,338,0.0,2.2,91,0.00,,---,0.00,VWS V14.01,2013-05-25 07:25:00,
2013-05-25 03:26:00,45.0,42.5,29.97,NNW,338,0.0,2.0,91,0.00,,---,0.00,VWS V14.01,2013-05-25 07:26:00,
2013-05-25 03:27:00,44.8,42.6,29.97,East,90,0.0,1.1,92,0.00,,---,0.00,VWS V14.01,2013-05-25 07:27:00,
2013-05-25 03:28:00,45.0,42.8,29.97,East,90,0.0,0.0,92,0.00,,---,0.00,VWS V14.01,2013-05-25 07:28:00,
2013-05-25 03:29:00,44.8,41.5,29.97,East,90,0.0,1.6,88,0.00,,---,0.00,VWS V14.01,2013-05-25 07:29:00,
2013-05-25 03:30:00,44.8,41.5,29.97,NNW,338,0.5,2.5,88,0.00,,---,0.00,VWS V14.01,2013-05-25 07:30:00,
2013-05-25 03:31:00,44.8,42.6,29.97,East,90,0.0,0.0,92,0.00,,---,0.00,VWS V14.01,2013-05-25 07:31:00,
2013-05-25 03:32:00,44.8,42.0,29.97,SE,135,0.2,2.5,90,0.00,,---,0.00,VWS V14.01,2013-05-25 07:32:00,
2013-05-25 03:33:00,44.8,42.6,29.97,East,90,0.0,0.0,92,0.00,,---,0.00,VWS V14.01,2013-05-25 07:33:00,
2013-05-25 03:34:00,44.8,42.6,29.97,East,90,0.0,0.0,92,0.00,,---,0.00,VWS V14.01,2013-05-25 07:34:00,
2013-05-25 03:35:00,44.8,42.6,29.97,East,90,0.0,1.1,92,0.00,,---,0.00,VWS V14.01,2013-05-25 07:35:00,
2013-05-25 03:36:00,45.0,42.8,29.97,East,90,0.0,0.0,92,0.00,,---,0.00,VWS V14.01,2013-05-25 07:36:00,
2013-05-25 03:37:00,44.6,41.8,29.97,East,90,0.0,0.0,90,0.00,,---,0.00,VWS V14.01,2013-05-25 07:37:00,
2013-05-25 03:38:00,44.8,42.6,29.97,East,90,0.0,0.0,92,0.00,,---,0.00,VWS V14.01,2013-05-25 07:38:00,
2013-05-25 03:39:00,44.6,41.8,29.97,WSW,248,0.0,0.0,90,0.00,,---,0.00,VWS V14.01,2013-05-25 07:39:00,
2013-05-25 03:40:00,44.6,41.8,29.97,SSE,158,0.0,0.0,90,0.00,,---,0.00,VWS V14.01,2013-05-25 07:40:00,
2013-05-25 03:41:00,44.6,42.1,29.97,SE,135,0.0,0.0,91,0.00,,---,0.00,VWS V14.01,2013-05-25 07:41:00,
2013-05-25 03:42:00,44.6,42.1,29.97,NNE,22,0.0,0.0,91,0.00,,---,0.00,VWS V14.01,2013-05-25 07:42:00,
2013-05-25 03:43:00,44.6,42.1,29.97,East,90,0.0,0.0,91,0.00,,---,0.00,VWS V14.01,2013-05-25 07:43:00,
2013-05-25 03:44:00,44.6,42.1,29.97,East,90,0.0,0.0,91,0.00,,---,0.00,VWS V14.01,2013-05-25 07:44:00,
2013-05-25 03:45:00,44.6,41.8,29.97,East,90,0.0,0.0,90,0.00,,---,0.00,VWS V14.01,2013-05-25 07:45:00,
2013-05-25 03:46:00,44.6,41.8,29.97,East,90,0.0,0.0,90,0.00,,---,0.00,VWS V14.01,2013-05-25 07:46:00,
2013-05-25 03:47:00,44.4,41.7,29.97,NE,45,0.0,0.0,90,0.00,,---,0.00,VWS V14.01,2013-05-25 07:47:00,
2013-05-25 03:48:00,44.4,41.7,29.97,NE,45,0.0,0.0,90,0.00,,---,0.00,VWS V14.01,2013-05-25 07:48:00,
2013-05-25 03:49:00,44.6,42.1,29.97,SE,135,0.0,0.0,91,0.00,,---,0.00,VWS V14.01,2013-05-25 07:49:00,
2013-05-25 03:50:00,44.6,42.1,29.97,NNE,22,0.0,0.0,91,0.00,,---,0.00,VWS V14.01,2013-05-25 07:50:00,
2013-05-25 03:51:00,44.4,42.0,29.97,NNE,22,0.0,0.0,91,0.00,,---,0.00,VWS V14.01,2013-05-25 07:51:00,
2013-05-25 03:52:00,44.2,41.8,29.97,NW,315,0.0,0.0,91,0.00,,---,0.00,VWS V14.01,2013-05-25 07:52:00,
2013-05-25 03:53:00,44.4,41.7,29.97,NNE,22,0.0,0.0,90,0.00,,---,0.00,VWS V14.01,2013-05-25 07:53:00,
2013-05-25 03:54:00,44.2,41.8,29.97,SE,135,0.5,2.5,91,0.00,,---,0.00,VWS V14.01,2013-05-25 07:54:00,
2013-05-25 03:55:00,44.2,41.8,29.97,SE,135,0.5,2.5,91,0.00,,---,0.00,VWS V14.01,2013-05-25 07:55:00,
2013-05-25 03:56:00,44.2,42.1,29.97,SE,135,0.2,2.2,92,0.00,,---,0.00,VWS V14.01,2013-05-25 07:56:00,
2013-05-25 03:57:00,44.4,41.7,29.97,NE,45,0.0,0.0,90,0.00,,---,0.00,VWS V14.01,2013-05-25 07:57:00,
2013-05-25 03:58:00,44.2,41.5,29.97,NE,45,0.0,0.0,90,0.00,,---,0.00,VWS V14.01,2013-05-25 07:58:00,
2013-05-25 03:59:00,44.1,42.2,29.97,ENE,68,0.0,0.0,93,0.00,,---,0.00,VWS V14.01,2013-05-25 07:59:00,
2013-05-25 04:00:00,44.2,42.3,29.97,East,90,0.0,0.0,93,0.00,,---,0.00,VWS V14.01,2013-05-25 08:00:00,
2013-05-25 04:01:00,44.2,41.8,29.97,SE,135,0.5,2.5,91,0.00,,---,0.00,VWS V14.01,2013-05-25 08:01:00,
2013-05-25 04:02:00,44.2,41.8,29.97,SE,135,0.5,2.5,91,0.00,,---,0.00,VWS V14.01,2013-05-25 08:02:00,
2013-05-25 04:03:00,44.1,42.2,29.97,ESE,112,0.0,1.1,93,0.00,,---,0.00,VWS V14.01,2013-05-25 08:03:00,
2013-05-25 04:04:00,44.2,42.1,29.97,SE,135,0.2,2.2,92,0.00,,---,0.00,VWS V14.01,2013-05-25 08:04:00,
2013-05-25 04:05:00,44.1,42.5,29.97,ESE,112,0.0,0.9,94,0.00,,---,0.00,VWS V14.01,2013-05-25 08:05:00,
2013-05-25 04:06:00,44.1,42.5,29.97,ESE,112,0.0,0.0,94,0.00,,---,0.00,VWS V14.01,2013-05-25 08:06:00,
2013-05-25 04:07:00,44.1,42.2,29.97,ENE,68,0.0,0.0,93,0.00,,---,0.00,VWS V14.01,2013-05-25 08:07:00,
2013-05-25 04:08:00,44.2,42.3,29.97,East,90,0.0,0.0,93,0.00,,---,0.00,VWS V14.01,2013-05-25 08:08:00,
2013-05-25 04:09:00,44.2,42.3,29.97,ESE,112,0.0,2.0,93,0.00,,---,0.00,VWS V14.01,2013-05-25 08:09:00,
2013-05-25 04:10:00,44.1,42.2,29.97,East,90,0.0,1.3,93,0.00,,---,0.00,VWS V14.01,2013-05-25 08:10:00,
2013-05-25 04:11:00,44.1,42.5,29.97,East,90,0.0,0.0,94,0.00,,---,0.00,VWS V14.01,2013-05-25 08:11:00,
2013-05-25 04:12:00,44.1,42.5,29.97,ESE,112,0.0,1.6,94,0.00,,---,0.00,VWS V14.01,2013-05-25 08:12:00,
2013-05-25 04:13:00,44.1,42.5,29.97,ESE,112,0.0,0.9,94,0.00,,---,0.00,VWS V14.01,2013-05-25 08:13:00,
2013-05-25 04:14:00,44.1,42.5,29.97,ESE,112,0.0,0.0,94,0.00,,---,0.00,VWS V14.01,2013-05-25 08:14:00,
2013-05-25 04:15:00,43.9,42.0,29.97,East,90,0.0,0.0,93,0.00,,---,0.00,VWS V14.01,2013-05-25 08:15:00,
2013-05-25 04:16:00,44.1,42.2,29.97,WNW,292,0.0,0.0,93,0.00,,---,0.00,VWS V14.01,2013-05-25 08:16:00,
2013-05-25 04:17:00,44.1,42.2,29.97,East,90,0.0,1.3,93,0.00,,---,0.00,VWS V14.01,2013-05-25 08:17:00,
2013-05-25 04:18:00,43.9,42.3,29.97,NNE,22,0.0,0.0,94,0.00,,---,0.00,VWS V14.01,2013-05-25 08:18:00,
2013-05-25 04:19:00,44.1,42.5,29.97,East,90,0.0,0.0,94,0.00,,---,0.00,VWS V14.01,2013-05-25 08:19:00,
2013-05-25 04:20:00,43.9,42.3,29.97,NNE,22,0.0,0.0,94,0.00,,---,0.00,VWS V14.01,2013-05-25 08:20:00,
2013-05-25 04:21:00,43.9,42.0,29.97,East,90,0.0,0.0,93,0.00,,---,0.00,VWS V14.01,2013-05-25 08:21:00,
2013-05-25 04:22:00,43.9,42.0,29.97,East,90,0.0,0.0,93,0.00,,---,0.00,VWS V14.01,2013-05-25 08:22:00,
2013-05-25 04:23:00,43.9,42.0,29.97,East,90,0.0,0.0,93,0.00,,---,0.00,VWS V14.01,2013-05-25 08:23:00,
2013-05-25 04:24:00,43.9,42.3,29.97,East,90,0.0,0.0,94,0.00,,---,0.00,VWS V14.01,2013-05-25 08:24:00,
2013-05-25 04:25:00,43.9,42.3,29.97,SW,225,0.0,0.0,94,0.00,,---,0.00,VWS V14.01,2013-05-25 08:25:00,
2013-05-25 04:26:00,43.9,42.3,29.97,NNE,22,0.0,0.0,94,0.00,,---,0.00,VWS V14.01,2013-05-25 08:26:00,
2013-05-25 04:27:00,43.9,42.3,29.97,NNE,22,0.0,0.0,94,0.00,,---,0.00,VWS V14.01,2013-05-25 08:27:00,
2013-05-25 04:28:00,43.9,42.3,29.97,East,90,0.0,0.0,94,0.00,,---,0.00,VWS V14.01,2013-05-25 08:28:00,
2013-05-25 04:29:00,43.9,42.0,29.97,East,90,0.0,0.0,93,0.00,,---,0.00,VWS V14.01,2013-05-25 08:29:00,
2013-05-25 04:30:00,43.9,42.3,29.97,East,90,0.2,0.9,94,0.00,,---,0.00,VWS V14.01,2013-05-25 08:30:00,
2013-05-25 04:31:00,43.9,42.5,29.97,SSE,158,0.2,1.6,95,0.00,,---,0.00,VWS V14.01,2013-05-25 08:31:00,
2013-05-25 04:32:00,43.9,42.5,29.97,ESE,112,0.2,1.3,95,0.00,,---,0.00,VWS V14.01,2013-05-25 08:32:00,
2013-05-25 04:33:00,43.9,42.3,29.97,NNW,338,0.0,0.0,94,0.00,,---,0.00,VWS V14.01,2013-05-25 08:33:00,
2013-05-25 04:34:00,43.9,42.5,29.97,SE,135,0.2,1.1,95,0.00,,---,0.00,VWS V14.01,2013-05-25 08:34:00,
2013-05-25 04:35:00,43.9,42.5,29.97,ESE,112,0.2,0.0,95,0.00,,---,0.00,VWS V14.01,2013-05-25 08:35:00,
2013-05-25 04:37:00,43.9,42.3,29.97,East,90,0.2,0.9,94,0.00,,---,0.00,VWS V14.01,2013-05-25 08:37:00,
2013-05-25 04:38:00,43.7,42.1,30.00,ESE,112,0.2,0.0,94,0.00,,---,0.00,VWS V14.01,2013-05-25 08:38:00,
2013-05-25 04:39:00,43.9,42.5,29.97,NNW,338,0.2,1.3,95,0.00,,---,0.00,VWS V14.01,2013-05-25 08:39:00,
2013-05-25 04:40:00,43.9,42.5,29.97,ESE,112,0.2,1.3,95,0.00,,---,0.00,VWS V14.01,2013-05-25 08:40:00,
2013-05-25 04:41:00,43.7,42.1,30.00,NNE,22,0.2,1.1,94,0.00,,---,0.00,VWS V14.01,2013-05-25 08:41:00,
2013-05-25 04:42:00,43.7,42.1,30.00,NNE,22,0.2,0.0,94,0.00,,---,0.00,VWS V14.01,2013-05-25 08:42:00,
2013-05-25 04:43:00,43.9,42.5,29.97,ESE,112,0.2,0.0,95,0.00,,---,0.00,VWS V14.01,2013-05-25 08:43:00,
2013-05-25 04:44:00,43.7,42.1,30.00,NE,45,0.2,0.0,94,0.00,,---,0.00,VWS V14.01,2013-05-25 08:44:00,
2013-05-25 04:45:00,43.7,42.1,30.00,NE,45,0.2,0.0,94,0.00,,---,0.00,VWS V14.01,2013-05-25 08:45:00,
2013-05-25 04:46:00,43.7,42.1,30.00,NE,45,0.2,1.6,94,0.00,,---,0.00,VWS V14.01,2013-05-25 08:46:00,
2013-05-25 04:47:00,43.7,42.1,30.00,North,0,0.2,1.6,94,0.00,,---,0.00,VWS V14.01,2013-05-25 08:47:00,
2013-05-25 04:48:00,43.7,42.1,30.00,NNE,22,0.2,1.1,94,0.00,,---,0.00,VWS V14.01,2013-05-25 08:48:00,
2013-05-25 04:49:00,43.5,41.9,30.00,NE,45,0.0,2.0,94,0.00,,---,0.00,VWS V14.01,2013-05-25 08:49:00,
2013-05-25 04:50:00,43.5,41.9,30.00,NW,315,0.0,1.6,94,0.00,,---,0.00,VWS V14.01,2013-05-25 08:50:00,
2013-05-25 04:51:00,43.5,42.2,30.00,NW,315,0.0,2.0,95,0.00,,---,0.00,VWS V14.01,2013-05-25 08:51:00,
2013-05-25 04:52:00,43.3,42.0,29.97,NW,315,0.0,1.6,95,0.00,,---,0.00,VWS V14.01,2013-05-25 08:52:00,
2013-05-25 04:53:00,43.7,42.1,30.00,NE,45,0.2,0.0,94,0.00,,---,0.00,VWS V14.01,2013-05-25 08:53:00,
2013-05-25 04:54:00,43.3,42.0,29.97,East,90,0.0,1.3,95,0.00,,---,0.00,VWS V14.01,2013-05-25 08:54:00,
2013-05-25 04:55:00,43.3,41.7,29.97,North,0,0.0,1.3,94,0.00,,---,0.00,VWS V14.01,2013-05-25 08:55:00,
2013-05-25 04:56:00,43.5,41.9,30.00,NE,45,0.0,2.0,94,0.00,,---,0.00,VWS V14.01,2013-05-25 08:56:00,
2013-05-25 04:57:00,43.3,41.7,29.97,East,90,0.0,2.0,94,0.00,,---,0.00,VWS V14.01,2013-05-25 08:57:00,
2013-05-25 04:58:00,43.3,41.7,29.97,NE,45,0.0,1.3,94,0.00,,---,0.00,VWS V14.01,2013-05-25 08:58:00,
2013-05-25 04:59:00,43.2,41.5,29.97,NE,45,0.0,0.0,94,0.00,,---,0.00,VWS V14.01,2013-05-25 08:59:00,
2013-05-25 05:00:00,43.2,41.5,29.97,NE,45,0.0,0.0,94,0.00,,---,0.00,VWS V14.01,2013-05-25 09:00:00,
2013-05-25 05:01:00,43.2,41.5,29.97,NE,45,0.0,0.0,94,0.00,,---,0.00,VWS V14.01,2013-05-25 09:01:00,
2013-05-25 05:02:00,43.2,41.5,29.97,NE,45,0.0,0.0,94,0.00,,---,0.00,VWS V14.01,2013-05-25 09:02:00,
2013-05-25 05:03:00,43.3,41.7,29.97,North,0,0.0,1.3,94,0.00,,---,0.00,VWS V14.01,2013-05-25 09:03:00,
2013-05-25 05:04:00,43.3,41.7,29.97,ENE,68,0.0,1.3,94,0.00,,---,0.00,VWS V14.01,2013-05-25 09:04:00,
2013-05-25 05:05:00,43.2,41.5,29.97,NE,45,0.0,0.0,94,0.00,,---,0.00,VWS V14.01,2013-05-25 09:05:00,
2013-05-25 05:06:00,43.3,41.7,29.97,NE,45,0.0,1.3,94,0.00,,---,0.00,VWS V14.01,2013-05-25 09:06:00,
2013-05-25 05:07:00,43.0,41.4,29.97,NE,45,0.0,1.6,94,0.00,,---,0.00,VWS V14.01,2013-05-25 09:07:00,
2013-05-25 05:08:00,43.2,41.5,29.97,NE,45,0.0,0.0,94,0.00,,---,0.00,VWS V14.01,2013-05-25 09:08:00,
2013-05-25 05:09:00,43.2,41.5,29.97,NE,45,0.0,0.0,94,0.00,,---,0.00,VWS V14.01,2013-05-25 09:09:00,
2013-05-25 05:10:00,43.0,41.4,29.97,NE,45,0.0,0.0,94,0.00,,---,0.00,VWS V14.01,2013-05-25 09:10:00,
2013-05-25 05:11:00,43.0,41.4,29.97,NE,45,0.2,2.2,94,0.00,,---,0.00,VWS V14.01,2013-05-25 09:11:00,
2013-05-25 05:12:00,43.2,41.5,29.97,NE,45,0.0,0.0,94,0.00,,---,0.00,VWS V14.01,2013-05-25 09:12:00,
2013-05-25 05:13:00,43.0,41.4,29.97,SE,135,0.2,1.6,94,0.00,,---,0.00,VWS V14.01,2013-05-25 09:13:00,
2013-05-25 05:14:00,43.2,41.5,29.97,NE,45,0.0,1.6,94,0.00,,---,0.00,VWS V14.01,2013-05-25 09:14:00,
2013-05-25 05:15:00,43.0,41.7,29.97,ESE,112,0.2,2.5,95,0.00,,---,0.00,VWS V14.01,2013-05-25 09:15:00,
2013-05-25 05:16:00,43.0,41.4,29.97,NE,45,0.0,0.0,94,0.00,,---,0.00,VWS V14.01,2013-05-25 09:16:00,
2013-05-25 05:17:00,43.0,41.4,29.97,NE,45,0.0,0.0,94,0.00,,---,0.00,VWS V14.01,2013-05-25 09:17:00,
2013-05-25 05:18:00,43.0,41.7,29.97,East,90,0.2,1.6,95,0.00,,---,0.00,VWS V14.01,2013-05-25 09:18:00,
2013-05-25 05:19:00,43.0,41.4,29.97,NE,45,0.2,2.2,94,0.00,,---,0.00,VWS V14.01,2013-05-25 09:19:00,
2013-05-25 05:20:00,43.0,41.7,29.97,East,90,0.2,0.0,95,0.00,,---,0.00,VWS V14.01,2013-05-25 09:20:00,
2013-05-25 05:21:00,42.8,41.7,29.97,ESE,112,0.2,0.0,96,0.00,,---,0.00,VWS V14.01,2013-05-25 09:21:00,
2013-05-25 05:22:00,42.8,41.5,29.97,ESE,112,0.2,0.0,95,0.00,,---,0.00,VWS V14.01,2013-05-25 09:22:00,
2013-05-25 05:23:00,43.0,41.7,29.97,ESE,112,0.2,2.5,95,0.00,,---,0.00,VWS V14.01,2013-05-25 09:23:00,
2013-05-25 05:24:00,43.0,41.7,29.97,ESE,112,0.0,2.2,95,0.00,,---,0.00,VWS V14.01,2013-05-25 09:24:00,
2013-05-25 05:25:00,42.8,41.5,29.97,ESE,112,0.2,0.0,95,0.00,,---,0.00,VWS V14.01,2013-05-25 09:25:00,
2013-05-25 05:26:00,43.0,41.7,29.97,East,90,0.2,1.6,95,0.00,,---,0.00,VWS V14.01,2013-05-25 09:26:00,
2013-05-25 05:27:00,42.8,41.5,29.97,ESE,112,0.2,0.0,95,0.00,,---,0.00,VWS V14.01,2013-05-25 09:27:00,
2013-05-25 05:28:00,42.6,41.3,29.97,East,90,0.2,515.6,95,0.00,,---,0.00,VWS V14.01,2013-05-25 09:28:00,
2013-05-25 05:29:00,42.8,41.7,29.97,ESE,112,0.2,0.0,96,0.00,,---,0.00,VWS V14.01,2013-05-25 09:29:00,
2013-05-25 05:30:00,42.8,41.5,29.97,ESE,112,0.2,0.0,95,0.00,,---,0.00,VWS V14.01,2013-05-25 09:30:00,
2013-05-25 05:31:00,42.6,41.3,29.97,East,90,0.2,0.0,95,0.00,,---,0.00,VWS V14.01,2013-05-25 09:31:00,
2013-05-25 05:32:00,42.8,41.5,29.97,ESE,112,0.2,0.0,95,0.00,,---,0.00,VWS V14.01,2013-05-25 09:32:00,
2013-05-25 05:33:00,42.6,41.3,29.97,East,90,0.2,0.0,95,0.00,,---,0.00,VWS V14.01,2013-05-25 09:33:00,
2013-05-25 05:34:00,42.8,41.5,29.97,ESE,112,0.2,0.0,95,0.00,,---,0.00,VWS V14.01,2013-05-25 09:34:00,
2013-05-25 05:35:00,42.8,41.5,29.97,ESE,112,0.2,0.0,95,0.00,,---,0.00,VWS V14.01,2013-05-25 09:35:00,
2013-05-25 05:36:00,42.6,41.3,29.97,East,90,0.2,0.0,95,0.00,,---,0.00,VWS V14.01,2013-05-25 09:36:00,
2013-05-25 05:37:00,42.4,41.1,29.97,East,90,0.2,0.0,95,0.00,,---,0.00,VWS V14.01,2013-05-25 09:37:00,
2013-05-25 05:38:00,42.6,41.3,29.97,ENE,68,0.2,0.0,95,0.00,,---,0.00,VWS V14.01,2013-05-25 09:38:00,
2013-05-25 05:39:00,42.6,41.3,29.97,East,90,0.2,0.0,95,0.00,,---,0.00,VWS V14.01,2013-05-25 09:39:00,
2013-05-25 05:40:00,42.6,41.3,29.97,East,90,0.2,0.0,95,0.00,,---,0.00,VWS V14.01,2013-05-25 09:40:00,
2013-05-25 05:41:00,42.4,41.1,29.97,ESE,112,0.2,0.0,95,0.00,,---,82.22,VWS V14.01,2013-05-25 09:41:00,
2013-05-25 05:42:00,42.6,41.3,29.97,East,90,0.2,0.0,95,0.00,,---,0.00,VWS V14.01,2013-05-25 09:42:00,
2013-05-25 05:44:00,42.3,40.9,29.97,ENE,68,0.2,0.0,95,0.00,,---,82.22,VWS V14.01,2013-05-25 09:44:00,
2013-05-25 05:45:00,42.4,41.1,29.97,East,90,0.2,0.0,95,0.00,,---,0.00,VWS V14.01,2013-05-25 09:45:00,
2013-05-25 05:46:00,42.3,40.9,29.97,NE,45,0.2,0.0,95,0.00,,---,82.22,VWS V14.01,2013-05-25 09:46:00,
2013-05-25 05:47:00,42.4,41.1,29.97,East,90,0.2,0.0,95,0.00,,---,0.00,VWS V14.01,2013-05-25 09:47:00,
2013-05-25 05:48:00,42.4,41.1,29.97,ESE,112,0.2,0.0,95,0.00,,---,82.22,VWS V14.01,2013-05-25 09:48:00,
2013-05-25 05:49:00,42.3,40.9,29.97,ESE,112,0.0,0.0,95,0.00,,---,82.22,VWS V14.01,2013-05-25 09:49:00,
2013-05-25 05:50:00,42.3,40.9,29.97,ENE,68,0.2,2.2,95,0.00,,---,82.22,VWS V14.01,2013-05-25 09:50:00,
2013-05-25 05:51:00,42.3,40.9,29.97,ENE,68,0.2,1.1,95,0.00,,---,82.22,VWS V14.01,2013-05-25 09:51:00,
2013-05-25 05:52:00,42.3,40.9,29.97,NE,45,0.2,0.0,95,0.00,,---,82.22,VWS V14.01,2013-05-25 09:52:00,
2013-05-25 05:53:00,42.3,40.9,29.97,NE,45,0.2,0.0,95,0.00,,---,82.22,VWS V14.01,2013-05-25 09:53:00,
2013-05-25 05:54:00,42.3,40.9,29.97,NE,45,0.2,0.0,95,0.00,,---,82.22,VWS V14.01,2013-05-25 09:54:00,
2013-05-25 05:55:00,42.3,41.2,29.97,SE,135,0.0,2.0,96,0.00,,---,82.22,VWS V14.01,2013-05-25 09:55:00,
2013-05-25 05:56:00,42.3,40.9,29.97,ENE,68,0.0,1.6,95,0.00,,---,82.22,VWS V14.01,2013-05-25 09:56:00,
2013-05-25 05:57:00,42.3,41.2,29.97,SE,135,0.0,0.0,96,0.00,,---,82.22,VWS V14.01,2013-05-25 09:57:00,
2013-05-25 05:58:00,42.3,40.9,29.97,ENE,68,0.2,2.2,95,0.00,,---,82.22,VWS V14.01,2013-05-25 09:58:00,
2013-05-25 05:59:00,42.3,40.9,29.97,ENE,68,0.2,1.1,95,0.00,,---,82.22,VWS V14.01,2013-05-25 09:59:00,
2013-05-25 06:00:00,42.1,40.8,29.97,ESE,112,0.0,0.0,95,0.00,,---,82.22,VWS V14.01,2013-05-25 10:00:00,
2013-05-25 06:01:00,42.3,40.9,29.97,ENE,68,0.2,1.1,95,0.00,,---,82.22,VWS V14.01,2013-05-25 10:01:00,
2013-05-25 06:02:00,42.3,40.9,29.97,ESE,112,0.0,1.6,95,0.00,,---,82.22,VWS V14.01,2013-05-25 10:02:00,
2013-05-25 06:03:00,42.3,41.2,29.97,East,90,0.5,2.5,96,0.00,,---,82.22,VWS V14.01,2013-05-25 10:03:00,
2013-05-25 06:04:00,42.3,41.2,29.97,SE,135,0.0,1.3,96,0.00,,---,82.22,VWS V14.01,2013-05-25 10:04:00,
2013-05-25 06:05:00,42.1,41.0,29.97,East,90,0.5,0.0,96,0.00,,---,82.22,VWS V14.01,2013-05-25 10:05:00,
2013-05-25 06:06:00,42.3,41.2,29.97,East,90,0.5,1.6,96,0.00,,---,82.22,VWS V14.01,2013-05-25 10:06:00,
2013-05-25 06:07:00,42.3,41.2,29.97,ESE,112,0.0,0.0,96,0.00,,---,82.22,VWS V14.01,2013-05-25 10:07:00,
2013-05-25 06:08:00,42.1,40.8,29.97,ESE,112,0.0,0.0,95,0.00,,---,82.22,VWS V14.01,2013-05-25 10:08:00,
2013-05-25 06:09:00,42.3,41.2,29.97,ESE,112,0.2,2.2,96,0.00,,---,82.22,VWS V14.01,2013-05-25 10:09:00,
2013-05-25 06:10:00,42.3,40.9,29.97,ESE,112,0.0,1.6,95,0.00,,---,82.22,VWS V14.01,2013-05-25 10:10:00,
2013-05-25 06:11:00,42.3,41.2,29.97,East,90,0.5,2.5,96,0.00,,---,82.22,VWS V14.01,2013-05-25 10:11:00,
2013-05-25 06:12:00,42.1,41.0,29.97,East,90,0.5,1.6,96,0.00,,---,82.22,VWS V14.01,2013-05-25 10:12:00,
2013-05-25 06:13:00,42.3,41.5,29.97,NE,45,0.0,0.0,97,0.00,,---,82.22,VWS V14.01,2013-05-25 10:13:00,
2013-05-25 06:14:00,42.3,41.5,29.97,NE,45,0.0,0.0,97,0.00,,---,82.22,VWS V14.01,2013-05-25 10:14:00,
2013-05-25 06:15:00,42.3,41.5,29.97,NE,45,0.0,2.0,97,0.00,,---,82.22,VWS V14.01,2013-05-25 10:15:00,
2013-05-25 06:16:00,42.3,41.5,29.97,NE,45,0.0,2.0,97,0.00,,---,82.22,VWS V14.01,2013-05-25 10:16:00,
2013-05-25 06:17:00,42.3,41.2,29.97,ESE,112,0.2,2.2,96,0.00,,---,82.22,VWS V14.01,2013-05-25 10:17:00,
2013-05-25 06:18:00,42.3,41.2,29.97,ESE,112,0.0,2.5,96,0.00,,---,82.22,VWS V14.01,2013-05-25 10:18:00,
2013-05-25 06:19:00,42.3,41.5,29.97,SE,135,0.5,2.5,97,0.00,,---,82.22,VWS V14.01,2013-05-25 10:19:00,
2013-05-25 06:20:00,42.3,41.5,29.97,West,270,0.0,0.0,97,0.00,,---,82.22,VWS V14.01,2013-05-25 10:20:00,
2013-05-25 06:21:00,42.3,41.5,29.97,SE,135,0.0,0.0,97,0.00,,---,82.22,VWS V14.01,2013-05-25 10:21:00,
2013-05-25 06:22:00,42.3,41.5,29.97,NE,45,0.0,0.0,97,0.00,,---,82.22,VWS V14.01,2013-05-25 10:22:00,
2013-05-25 06:23:00,42.3,41.5,29.97,ENE,68,0.0,0.0,97,0.00,,---,82.22,VWS V14.01,2013-05-25 10:23:00,
2013-05-25 06:24:00,42.3,41.5,29.97,NE,45,0.0,2.0,97,0.00,,---,82.22,VWS V14.01,2013-05-25 10:24:00,
2013-05-25 06:25:00,42.3,41.5,29.97,NE,45,0.0,0.0,97,0.00,,---,82.22,VWS V14.01,2013-05-25 10:25:00,
2013-05-25 06:26:00,42.4,41.7,29.97,East,90,0.0,0.0,97,0.00,,---,82.22,VWS V14.01,2013-05-25 10:26:00,
2013-05-25 06:27:00,42.3,41.5,29.97,SE,135,0.5,2.5,97,0.00,,---,82.22,VWS V14.01,2013-05-25 10:27:00,
2013-05-25 06:28:00,42.3,41.5,29.97,SE,135,0.0,2.5,97,0.00,,---,82.22,VWS V14.01,2013-05-25 10:28:00,
2013-05-25 06:29:00,42.3,41.5,29.97,SE,135,0.0,0.0,97,0.00,,---,82.22,VWS V14.01,2013-05-25 10:29:00,
2013-05-25 06:30:00,42.4,41.7,29.97,NE,45,0.0,0.0,97,0.00,,---,82.22,VWS V14.01,2013-05-25 10:30:00,
2013-05-25 06:31:00,42.3,41.5,29.97,ENE,68,0.0,0.0,97,0.00,,---,82.22,VWS V14.01,2013-05-25 10:31:00,
2013-05-25 06:32:00,42.4,41.7,29.97,NE,45,0.0,0.0,97,0.00,,---,82.22,VWS V14.01,2013-05-25 10:32:00,
2013-05-25 06:33:00,42.4,41.7,29.97,East,90,0.0,0.0,97,0.00,,---,82.22,VWS V14.01,2013-05-25 10:33:00,
2013-05-25 06:34:00,42.4,41.7,29.97,East,90,0.0,0.0,97,0.00,,---,82.22,VWS V14.01,2013-05-25 10:34:00,
2013-05-25 06:35:00,42.4,41.7,29.97,NE,45,0.0,0.0,97,0.00,,---,82.22,VWS V14.01,2013-05-25 10:35:00,
2013-05-25 06:36:00,42.4,41.7,29.97,NE,45,0.0,0.0,97,0.00,,---,82.22,VWS V14.01,2013-05-25 10:36:00,
2013-05-25 06:37:00,42.4,41.7,29.97,NE,45,0.0,0.0,97,0.00,,---,82.22,VWS V14.01,2013-05-25 10:37:00,
2013-05-25 06:38:00,42.4,41.7,29.97,NE,45,0.0,0.0,97,0.00,,---,82.22,VWS V14.01,2013-05-25 10:38:00,
2013-05-25 06:39:00,42.6,41.8,29.97,NE,45,0.0,0.0,97,0.00,,---,82.22,VWS V14.01,2013-05-25 10:39:00,
2013-05-25 06:40:00,42.4,41.7,29.97,NE,45,0.0,0.0,97,0.00,,---,82.22,VWS V14.01,2013-05-25 10:40:00,
2013-05-25 06:41:00,42.6,41.8,29.97,NE,45,0.0,0.0,97,0.00,,---,82.22,VWS V14.01,2013-05-25 10:41:00,
2013-05-25 06:42:00,42.8,42.0,29.97,WNW,292,0.0,0.0,97,0.00,,---,82.22,VWS V14.01,2013-05-25 10:42:00,
2013-05-25 06:43:00,42.4,41.7,29.97,NE,45,0.0,0.0,97,0.00,,---,82.22,VWS V14.01,2013-05-25 10:43:00,
2013-05-25 06:44:00,42.4,41.7,29.97,NE,45,0.0,0.0,97,0.00,,---,82.22,VWS V14.01,2013-05-25 10:44:00,
2013-05-25 06:45:00,42.4,41.7,29.97,NE,45,0.0,0.0,97,0.00,,---,82.22,VWS V14.01,2013-05-25 10:45:00,
2013-05-25 06:46:00,42.6,42.1,29.97,East,90,0.0,1.6,98,0.00,,---,82.22,VWS V14.01,2013-05-25 10:46:00,
2013-05-25 06:47:00,42.6,41.8,29.97,NE,45,0.0,0.0,97,0.00,,---,82.22,VWS V14.01,2013-05-25 10:47:00,
2013-05-25 06:48:00,42.6,42.1,29.97,East,90,0.0,2.0,98,0.00,,---,82.22,VWS V14.01,2013-05-25 10:48:00,
2013-05-25 06:49:00,42.6,41.8,29.97,NE,45,0.0,0.0,97,0.00,,---,82.22,VWS V14.01,2013-05-25 10:49:00,
2013-05-25 06:50:00,42.8,42.0,29.97,WNW,292,0.0,0.0,97,0.00,,---,82.22,VWS V14.01,2013-05-25 10:50:00,
2013-05-25 06:51:00,42.8,42.0,29.97,East,90,0.0,0.0,97,0.00,,---,82.22,VWS V14.01,2013-05-25 10:51:00,
2013-05-25 06:52:00,42.8,42.0,30.00,East,90,0.0,0.0,97,0.00,,---,82.22,VWS V14.01,2013-05-25 10:52:00,
2013-05-25 06:53:00,42.8,42.0,30.00,East,90,0.0,0.0,97,0.00,,---,82.22,VWS V14.01,2013-05-25 10:53:00,
2013-05-25 06:54:00,42.6,42.1,29.97,East,90,0.0,1.6,98,0.00,,---,82.22,VWS V14.01,2013-05-25 10:54:00,
2013-05-25 06:55:00,42.8,42.0,30.00,East,90,0.0,2.0,97,0.00,,---,82.22,VWS V14.01,2013-05-25 10:55:00,
2013-05-25 06:56:00,42.6,42.1,29.97,East,90,0.0,1.6,98,0.00,,---,82.22,VWS V14.01,2013-05-25 10:56:00,
2013-05-25 06:57:00,42.6,42.1,29.97,East,90,0.0,0.9,98,0.00,,---,82.22,VWS V14.01,2013-05-25 10:57:00,
2013-05-25 06:58:00,42.8,42.0,30.00,East,90,0.0,1.1,97,0.00,,---,82.22,VWS V14.01,2013-05-25 10:58:00,
2013-05-25 06:59:00,42.8,42.0,30.00,East,90,0.0,0.0,97,0.00,,---,82.22,VWS V14.01,2013-05-25 10:59:00,
2013-05-25 07:00:00,42.8,42.0,30.00,East,90,0.0,0.0,97,0.00,,---,82.22,VWS V14.01,2013-05-25 11:00:00,
2013-05-25 07:01:00,42.8,42.0,30.00,East,90,0.0,0.0,97,0.00,,---,82.22,VWS V14.01,2013-05-25 11:01:00,
2013-05-25 07:02:00,42.8,42.0,30.00,East,90,0.0,0.0,97,0.00,,---,82.22,VWS V14.01,2013-05-25 11:02:00,
2013-05-25 07:03:00,43.0,42.2,30.00,East,90,0.0,0.0,97,0.00,,---,82.22,VWS V14.01,2013-05-25 11:03:00,
2013-05-25 07:04:00,42.8,42.0,30.00,East,90,0.0,1.3,97,0.00,,---,82.22,VWS V14.01,2013-05-25 11:04:00,
2013-05-25 07:05:00,43.0,42.2,30.00,East,90,0.0,0.0,97,0.00,,---,82.22,VWS V14.01,2013-05-25 11:05:00,
2013-05-25 07:06:00,43.0,42.2,30.00,East,90,0.0,0.0,97,0.00,,---,82.22,VWS V14.01,2013-05-25 11:06:00,
2013-05-25 07:07:00,42.8,42.0,30.00,East,90,0.0,0.0,97,0.00,,---,82.22,VWS V14.01,2013-05-25 11:07:00,
2013-05-25 07:08:00,42.8,42.0,30.00,East,90,0.0,0.0,97,0.00,,---,82.22,VWS V14.01,2013-05-25 11:08:00,
2013-05-25 07:09:00,43.2,42.4,29.97,East,90,0.0,0.0,97,0.00,,---,82.22,VWS V14.01,2013-05-25 11:09:00,
2013-05-25 07:10:00,43.2,42.4,29.97,East,90,0.0,0.0,97,0.00,,---,82.22,VWS V14.01,2013-05-25 11:10:00,
2013-05-25 07:11:00,43.2,42.4,29.97,East,90,0.0,0.0,97,0.00,,---,82.22,VWS V14.01,2013-05-25 11:11:00,
2013-05-25 07:12:00,43.0,42.2,30.00,East,90,0.0,0.0,97,0.00,,---,82.22,VWS V14.01,2013-05-25 11:12:00,
2013-05-25 07:13:00,43.0,42.2,30.00,East,90,0.0,0.0,97,0.00,,---,82.22,VWS V14.01,2013-05-25 11:13:00,
2013-05-25 07:14:00,43.0,42.2,30.00,East,90,0.0,0.0,97,0.00,,---,82.22,VWS V14.01,2013-05-25 11:14:00,
2013-05-25 07:15:00,43.3,42.5,29.97,East,90,0.0,0.0,97,0.00,,---,82.22,VWS V14.01,2013-05-25 11:15:00,
2013-05-25 07:16:00,43.3,42.5,29.97,East,90,0.0,0.0,97,0.00,,---,82.22,VWS V14.01,2013-05-25 11:16:00,
2013-05-25 07:17:00,43.2,42.4,29.97,East,90,0.0,0.0,97,0.00,,---,82.22,VWS V14.01,2013-05-25 11:17:00,
2013-05-25 07:18:00,43.2,42.4,29.97,East,90,0.0,0.0,97,0.00,,---,82.22,VWS V14.01,2013-05-25 11:18:00,
2013-05-25 07:19:00,43.3,42.5,29.97,East,90,0.0,0.0,97,0.00,,---,82.22,VWS V14.01,2013-05-25 11:19:00,
2013-05-25 07:20:00,43.3,42.5,29.97,East,90,0.0,0.0,97,0.00,,---,82.22,VWS V14.01,2013-05-25 11:20:00,
2013-05-25 07:21:00,43.3,42.5,29.97,East,90,0.0,0.0,97,0.00,,---,82.22,VWS V14.01,2013-05-25 11:21:00,
2013-05-25 07:22:00,43.3,42.5,29.97,East,90,0.0,0.0,97,0.00,,---,82.22,VWS V14.01,2013-05-25 11:22:00,
2013-05-25 07:23:00,43.3,42.5,29.97,East,90,0.0,0.0,97,0.00,,---,82.22,VWS V14.01,2013-05-25 11:23:00,
2013-05-25 07:24:00,43.5,42.7,30.00,East,90,0.0,0.0,97,0.00,,---,82.22,VWS V14.01,2013-05-25 11:24:00,
2013-05-25 07:25:00,43.3,42.5,29.97,East,90,0.0,0.0,97,0.00,,---,82.22,VWS V14.01,2013-05-25 11:25:00,
2013-05-25 07:26:00,43.5,42.7,30.00,East,90,0.0,0.0,97,0.00,,---,82.22,VWS V14.01,2013-05-25 11:26:00,
2013-05-25 07:27:00,43.5,42.7,30.00,East,90,0.0,0.0,97,0.00,,---,82.22,VWS V14.01,2013-05-25 11:27:00,
2013-05-25 07:28:00,43.3,42.5,29.97,East,90,0.0,0.0,97,0.00,,---,82.22,VWS V14.01,2013-05-25 11:28:00,
2013-05-25 07:29:00,43.7,42.9,30.00,East,90,0.0,0.0,97,0.00,,---,82.22,VWS V14.01,2013-05-25 11:29:00,
2013-05-25 07:30:00,43.3,42.5,30.00,East,90,0.0,0.0,97,0.00,,---,82.22,VWS V14.01,2013-05-25 11:30:00,
2013-05-25 07:31:00,43.5,42.7,30.00,East,90,0.0,0.0,97,0.00,,---,82.22,VWS V14.01,2013-05-25 11:31:00,
2013-05-25 07:32:00,43.5,42.7,30.00,East,90,0.0,0.0,97,0.00,,---,82.22,VWS V14.01,2013-05-25 11:32:00,
2013-05-25 07:33:00,43.7,42.9,30.00,East,90,0.0,0.0,97,0.00,,---,82.22,VWS V14.01,2013-05-25 11:33:00,
2013-05-25 07:34:00,43.5,42.7,30.00,East,90,0.0,0.0,97,0.00,,---,82.22,VWS V14.01,2013-05-25 11:34:00,
2013-05-25 07:35:00,43.5,42.7,30.00,East,90,0.0,0.0,97,0.00,,---,82.22,VWS V14.01,2013-05-25 11:35:00,
2013-05-25 07:36:00,43.9,43.1,30.00,East,90,0.0,0.0,97,0.00,,---,82.22,VWS V14.01,2013-05-25 11:36:00,
2013-05-25 07:37:00,43.9,43.1,30.00,East,90,0.0,0.0,97,0.00,,---,82.22,VWS V14.01,2013-05-25 11:37:00,
2013-05-25 07:38:00,44.1,43.3,30.00,East,90,0.0,0.0,97,0.00,,---,82.22,VWS V14.01,2013-05-25 11:38:00,
2013-05-25 07:39:00,43.7,42.9,30.00,East,90,0.0,0.0,97,0.00,,---,82.22,VWS V14.01,2013-05-25 11:39:00,
2013-05-25 07:40:00,44.1,43.3,30.00,East,90,0.0,0.0,97,0.00,,---,82.22,VWS V14.01,2013-05-25 11:40:00,
2013-05-25 07:41:00,43.7,42.9,30.00,East,90,0.0,0.0,97,0.00,,---,82.22,VWS V14.01,2013-05-25 11:41:00,
2013-05-25 07:42:00,43.7,42.9,30.00,East,90,0.0,0.0,97,0.00,,---,82.22,VWS V14.01,2013-05-25 11:42:00,
2013-05-25 07:43:00,44.1,43.3,30.00,NNW,338,0.0,1.3,97,0.00,,---,82.22,VWS V14.01,2013-05-25 11:43:00,
2013-05-25 07:44:00,44.2,43.4,30.00,SE,135,0.2,2.2,97,0.00,,---,82.22,VWS V14.01,2013-05-25 11:44:00,
2013-05-25 07:45:00,43.9,43.1,30.00,East,90,0.0,0.0,97,0.00,,---,82.22,VWS V14.01,2013-05-25 11:45:00,
2013-05-25 07:46:00,44.1,43.3,30.00,East,90,0.0,0.0,97,0.00,,---,82.22,VWS V14.01,2013-05-25 11:46:00,
2013-05-25 07:47:00,44.4,43.9,30.00,SE,135,0.2,1.1,98,0.00,,---,82.22,VWS V14.01,2013-05-25 11:47:00,
2013-05-25 07:48:00,44.1,43.3,30.00,East,90,0.0,0.0,97,0.00,,---,82.22,VWS V14.01,2013-05-25 11:48:00,
2013-05-25 07:49:00,44.1,43.3,30.00,NNW,338,0.0,0.0,97,0.00,,---,82.22,VWS V14.01,2013-05-25 11:49:00,
2013-05-25 07:50:00,44.4,43.9,30.00,ENE,68,0.2,0.0,98,0.00,,---,82.22,VWS V14.01,2013-05-25 11:50:00,
2013-05-25 07:51:00,44.6,44.1,30.00,ENE,68,0.2,0.0,98,0.00,,---,82.22,VWS V14.01,2013-05-25 11:51:00,
2013-05-25 07:52:00,44.6,44.1,30.00,ENE,68,0.2,0.0,98,0.00,,---,82.22,VWS V14.01,2013-05-25 11:52:00,
2013-05-25 07:53:00,44.6,44.1,30.00,ENE,68,0.2,0.0,98,0.00,,---,82.22,VWS V14.01,2013-05-25 11:53:00,
2013-05-25 07:54:00,44.4,43.9,30.00,SE,135,0.2,1.1,98,0.00,,---,82.22,VWS V14.01,2013-05-25 11:54:00,
2013-05-25 07:55:00,44.4,43.9,30.00,SE,135,0.2,0.0,98,0.00,,---,82.22,VWS V14.01,2013-05-25 11:55:00,
2013-05-25 07:56:00,44.4,43.9,30.00,SE,135,0.2,0.0,98,0.00,,---,82.22,VWS V14.01,2013-05-25 11:56:00,
2013-05-25 07:57:00,44.8,44.2,30.00,NW,315,0.2,0.0,98,0.00,,---,82.22,VWS V14.01,2013-05-25 11:57:00,
2013-05-25 07:58:00,44.8,44.2,30.00,NW,315,0.2,0.0,98,0.00,,---,82.22,VWS V14.01,2013-05-25 11:58:00,
2013-05-25 07:59:00,44.8,44.2,30.00,NE,45,0.2,0.0,98,0.00,,---,82.22,VWS V14.01,2013-05-25 11:59:00,
2013-05-25 08:00:00,45.0,44.4,30.00,NE,45,0.2,0.0,98,0.00,,---,82.22,VWS V14.01,2013-05-25 12:00:00,
2013-05-25 08:01:00,44.6,44.1,30.00,ENE,68,0.2,0.0,98,0.00,,---,82.22,VWS V14.01,2013-05-25 12:01:00,
2013-05-25 08:02:00,44.6,44.1,30.00,ENE,68,0.2,1.6,98,0.00,,---,82.22,VWS V14.01,2013-05-25 12:02:00,
2013-05-25 08:03:00,44.8,44.2,30.00,NNW,338,0.2,0.0,98,0.00,,---,82.22,VWS V14.01,2013-05-25 12:03:00,
2013-05-25 08:04:00,44.8,44.2,30.00,NW,315,0.2,0.0,98,0.00,,---,82.22,VWS V14.01,2013-05-25 12:04:00,
2013-05-25 08:05:00,45.0,44.4,30.00,NE,45,0.2,0.0,98,0.00,,---,82.22,VWS V14.01,2013-05-25 12:05:00,
2013-05-25 08:06:00,44.8,44.2,30.00,NW,315,0.2,0.0,98,0.00,,---,82.22,VWS V14.01,2013-05-25 12:06:00,
2013-05-25 08:07:00,44.8,44.2,30.00,NE,45,0.2,0.0,98,0.00,,---,82.22,VWS V14.01,2013-05-25 12:07:00,
2013-05-25 08:08:00,45.1,44.6,30.00,NE,45,0.2,0.0,98,0.00,,---,82.22,VWS V14.01,2013-05-25 12:08:00,
2013-05-25 08:09:00,45.0,44.4,30.00,NE,45,0.2,0.0,98,0.00,,---,82.22,VWS V14.01,2013-05-25 12:09:00,
2013-05-25 08:10:00,45.0,44.4,30.00,NE,45,0.2,0.0,98,0.00,,---,82.22,VWS V14.01,2013-05-25 12:10:00,
2013-05-25 08:11:00,45.1,44.6,30.00,NE,45,0.2,0.0,98,0.00,,---,82.22,VWS V14.01,2013-05-25 12:11:00,
2013-05-25 08:12:00,45.1,44.6,30.00,NE,45,0.2,0.0,98,0.00,,---,82.22,VWS V14.01,2013-05-25 12:12:00,
2013-05-25 08:13:00,45.1,44.6,30.00,NE,45,0.2,0.0,98,0.00,,---,82.22,VWS V14.01,2013-05-25 12:13:00,
2013-05-25 08:14:00,45.1,44.6,30.00,NE,45,0.2,0.0,98,0.00,,---,82.22,VWS V14.01,2013-05-25 12:14:00,
2013-05-25 08:15:00,45.3,44.8,30.00,NE,45,0.2,0.0,98,0.00,,---,82.22,VWS V14.01,2013-05-25 12:15:00,
2013-05-25 08:16:00,45.1,44.6,30.00,NE,45,0.2,0.0,98,0.00,,---,82.22,VWS V14.01,2013-05-25 12:16:00,
2013-05-25 08:17:00,45.1,44.6,30.00,NE,45,0.2,0.0,98,0.00,,---,82.22,VWS V14.01,2013-05-25 12:17:00,
2013-05-25 08:18:00,45.1,44.6,30.00,NE,45,0.2,0.0,98,0.00,,---,82.22,VWS V14.01,2013-05-25 12:18:00,
2013-05-25 08:19:00,45.3,44.5,30.00,NE,45,0.2,0.0,97,0.00,,---,82.22,VWS V14.01,2013-05-25 12:19:00,
2013-05-25 08:20:00,45.5,44.7,30.00,NE,45,0.2,0.0,97,0.00,,---,82.22,VWS V14.01,2013-05-25 12:20:00,
2013-05-25 08:21:00,45.3,44.8,30.00,NE,45,0.2,0.0,98,0.00,,---,82.22,VWS V14.01,2013-05-25 12:21:00,
2013-05-25 08:22:00,45.5,44.7,30.00,NE,45,0.2,0.0,97,0.00,,---,82.22,VWS V14.01,2013-05-25 12:22:00,
2013-05-25 08:23:00,45.3,44.8,30.00,NE,45,0.2,0.0,98,0.00,,---,82.22,VWS V14.01,2013-05-25 12:23:00,
2013-05-25 08:24:00,45.3,44.8,30.00,NE,45,0.2,0.0,98,0.00,,---,82.22,VWS V14.01,2013-05-25 12:24:00,
2013-05-25 08:25:00,45.7,44.9,30.03,NE,45,0.2,0.0,97,0.00,,---,82.22,VWS V14.01,2013-05-25 12:25:00,
2013-05-25 08:26:00,45.3,44.5,30.00,NE,45,0.2,0.0,97,0.00,,---,82.22,VWS V14.01,2013-05-25 12:26:00,
2013-05-25 08:27:00,45.5,44.7,30.00,NE,45,0.2,0.0,97,0.00,,---,82.22,VWS V14.01,2013-05-25 12:27:00,
2013-05-25 08:28:00,45.5,44.7,30.00,NE,45,0.2,0.0,97,0.00,,---,82.22,VWS V14.01,2013-05-25 12:28:00,
2013-05-25 08:29:00,45.9,45.1,30.03,NE,45,0.2,0.0,97,0.00,,---,82.22,VWS V14.01,2013-05-25 12:29:00,
2013-05-25 08:30:00,46.0,45.2,30.03,NE,45,0.2,0.0,97,0.00,,---,82.22,VWS V14.01,2013-05-25 12:30:00,
2013-05-25 08:31:00,46.0,45.2,30.03,NE,45,0.2,0.0,97,0.00,,---,82.22,VWS V14.01,2013-05-25 12:31:00,
2013-05-25 08:32:00,45.7,44.9,30.03,NE,45,0.2,0.0,97,0.00,,---,82.22,VWS V14.01,2013-05-25 12:32:00,
2013-05-25 08:33:00,45.7,44.9,30.03,NE,45,0.2,0.0,97,0.00,,---,82.22,VWS V14.01,2013-05-25 12:33:00,
2013-05-25 08:34:00,45.9,45.1,30.03,NE,45,0.2,0.0,97,0.00,,---,82.22,VWS V14.01,2013-05-25 12:34:00,
2013-05-25 08:35:00,45.9,45.1,30.03,NE,45,0.2,0.0,97,0.00,,---,82.22,VWS V14.01,2013-05-25 12:35:00,
2013-05-25 08:36:00,46.2,45.4,30.03,NE,45,0.2,0.0,97,0.00,,---,82.22,VWS V14.01,2013-05-25 12:36:00,
2013-05-25 08:37:00,46.4,45.6,30.03,NE,45,0.2,0.0,97,0.00,,---,82.22,VWS V14.01,2013-05-25 12:37:00,
2013-05-25 08:38:00,46.0,45.2,30.03,NE,45,0.2,0.0,97,0.00,,---,82.22,VWS V14.01,2013-05-25 12:38:00,
2013-05-25 08:39:00,46.0,45.2,30.03,NE,45,0.2,0.0,97,0.00,,---,82.22,VWS V14.01,2013-05-25 12:39:00,
2013-05-25 08:40:00,46.8,46.0,30.03,NE,45,0.2,0.0,97,0.00,,---,82.22,VWS V14.01,2013-05-25 12:40:00,
2013-05-25 08:41:00,46.2,45.4,30.03,NE,45,0.2,0.0,97,0.00,,---,82.22,VWS V14.01,2013-05-25 12:41:00,
2013-05-25 08:42:00,46.2,45.4,30.03,NE,45,0.2,0.0,97,0.00,,---,82.22,VWS V14.01,2013-05-25 12:42:00,
2013-05-25 08:43:00,46.9,46.1,30.03,NE,45,0.2,0.0,97,0.00,,---,82.22,VWS V14.01,2013-05-25 12:43:00,
2013-05-25 08:44:00,46.9,46.1,30.03,NE,45,0.2,0.0,97,0.00,,---,82.22,VWS V14.01,2013-05-25 12:44:00,
2013-05-25 08:45:00,46.4,45.6,30.03,NE,45,0.2,0.0,97,0.00,,---,82.22,VWS V14.01,2013-05-25 12:45:00,
2013-05-25 08:46:00,46.6,45.8,30.03,NE,45,0.2,0.0,97,0.00,,---,82.22,VWS V14.01,2013-05-25 12:46:00,
2013-05-25 08:47:00,47.3,46.2,30.03,NE,45,1.1,3.1,96,0.00,,---,82.22,VWS V14.01,2013-05-25 12:47:00,
2013-05-25 08:48:00,46.8,46.0,30.03,NE,45,0.2,0.0,97,0.00,,---,82.22,VWS V14.01,2013-05-25 12:48:00,
2013-05-25 08:49:00,46.8,46.0,30.03,NE,45,0.2,0.0,97,0.00,,---,82.22,VWS V14.01,2013-05-25 12:49:00,
2013-05-25 08:50:00,48.2,46.6,30.03,NE,45,1.1,0.0,94,0.00,,---,82.22,VWS V14.01,2013-05-25 12:50:00,
2013-05-25 08:51:00,48.6,46.9,30.03,NE,45,1.1,0.0,94,0.00,,---,82.22,VWS V14.01,2013-05-25 12:51:00,
2013-05-25 08:52:00,46.9,46.1,30.03,NE,45,0.2,0.0,97,0.00,,---,82.22,VWS V14.01,2013-05-25 12:52:00,
2013-05-25 08:53:00,47.3,46.2,30.03,NNW,338,0.2,0.0,96,0.00,,---,82.22,VWS V14.01,2013-05-25 12:53:00,
2013-05-25 08:54:00,48.9,47.0,30.03,NE,45,1.1,0.0,93,0.00,,---,82.22,VWS V14.01,2013-05-25 12:54:00,
2013-05-25 08:55:00,47.8,46.5,30.03,NE,45,1.1,1.3,95,0.00,,---,82.22,VWS V14.01,2013-05-25 12:55:00,
2013-05-25 08:56:00,49.1,46.9,30.03,NE,45,1.1,0.0,92,0.00,,---,82.22,VWS V14.01,2013-05-25 12:56:00,
2013-05-25 08:57:00,48.2,46.6,30.03,NE,45,1.1,0.0,94,0.00,,---,82.22,VWS V14.01,2013-05-25 12:57:00,
2013-05-25 08:58:00,48.4,46.7,30.03,NE,45,1.1,0.0,94,0.00,,---,82.22,VWS V14.01,2013-05-25 12:58:00,
2013-05-25 08:59:00,48.6,46.9,30.03,NE,45,1.1,0.0,94,0.00,,---,82.22,VWS V14.01,2013-05-25 12:59:00,
2013-05-25 09:00:00,49.5,47.0,30.03,NE,45,1.1,0.0,91,0.00,,---,82.22,VWS V14.01,2013-05-25 13:00:00,
2013-05-25 09:01:00,49.8,47.0,30.03,NE,45,1.1,0.0,90,0.00,,---,82.22,VWS V14.01,2013-05-25 13:01:00,
2013-05-25 09:02:00,48.9,47.0,30.03,NE,45,1.1,0.0,93,0.00,,---,82.22,VWS V14.01,2013-05-25 13:02:00,
2013-05-25 09:03:00,50.0,46.9,30.03,NE,45,1.1,0.0,89,0.00,,---,82.22,VWS V14.01,2013-05-25 13:03:00,
2013-05-25 09:04:00,50.0,46.9,30.03,NE,45,1.1,0.0,89,0.00,,---,82.22,VWS V14.01,2013-05-25 13:04:00,
2013-05-25 09:05:00,50.2,47.1,30.03,NNE,22,1.1,0.0,89,0.00,,---,82.22,VWS V14.01,2013-05-25 13:05:00,
2013-05-25 09:06:00,49.3,46.8,30.03,NE,45,1.1,0.0,91,0.00,,---,82.22,VWS V14.01,2013-05-25 13:06:00,
2013-05-25 09:07:00,50.2,46.8,30.03,NNE,22,1.1,0.0,88,0.00,,---,82.22,VWS V14.01,2013-05-25 13:07:00,
2013-05-25 09:08:00,49.5,47.0,30.03,NE,45,1.1,0.0,91,0.00,,---,82.22,VWS V14.01,2013-05-25 13:08:00,
2013-05-25 09:09:00,50.5,46.8,30.03,NNE,22,1.1,0.0,87,0.00,,---,82.22,VWS V14.01,2013-05-25 13:09:00,
2013-05-25 09:10:00,50.5,46.8,30.03,NNE,22,1.1,0.0,87,0.00,,---,82.22,VWS V14.01,2013-05-25 13:10:00,
2013-05-25 09:11:00,50.7,46.7,30.03,NNE,22,1.1,0.0,86,0.00,,---,82.22,VWS V14.01,2013-05-25 13:11:00,
2013-05-25 09:12:00,50.0,46.9,30.03,NE,45,1.1,0.0,89,0.00,,---,82.22,VWS V14.01,2013-05-25 13:12:00,
2013-05-25 09:13:00,50.2,47.1,30.03,NNE,22,1.1,0.0,89,0.00,,---,82.22,VWS V14.01,2013-05-25 13:13:00,
2013-05-25 09:14:00,50.9,46.9,30.03,NNE,22,1.1,0.0,86,0.00,,---,82.22,VWS V14.01,2013-05-25 13:14:00,
2013-05-25 09:15:00,50.9,46.6,30.03,NNE,22,1.1,0.0,85,0.00,,---,82.22,VWS V14.01,2013-05-25 13:15:00,
2013-05-25 09:16:00,50.4,47.0,30.03,NNE,22,1.1,0.0,88,0.00,,---,82.22,VWS V14.01,2013-05-25 13:16:00,
2013-05-25 09:17:00,50.5,46.8,30.03,NNE,22,1.1,0.0,87,0.00,,---,82.22,VWS V14.01,2013-05-25 13:17:00,
2013-05-25 09:18:00,51.3,46.6,30.03,NNE,22,1.1,0.0,84,0.00,,---,82.22,VWS V14.01,2013-05-25 13:18:00,
2013-05-25 09:19:00,51.4,46.5,30.03,NNE,22,1.1,0.0,83,0.00,,---,82.22,VWS V14.01,2013-05-25 13:19:00,
2013-05-25 09:20:00,50.7,46.7,30.03,NNE,22,1.1,0.0,86,0.00,,---,82.22,VWS V14.01,2013-05-25 13:20:00,
2013-05-25 09:21:00,51.6,46.6,30.03,NNE,22,1.1,0.0,83,0.00,,---,82.22,VWS V14.01,2013-05-25 13:21:00,
2013-05-25 09:22:00,50.9,46.9,30.03,NNE,22,1.1,0.0,86,0.00,,---,82.22,VWS V14.01,2013-05-25 13:22:00,
2013-05-25 09:23:00,50.9,46.6,30.03,NNE,22,1.1,0.0,85,0.00,,---,82.22,VWS V14.01,2013-05-25 13:23:00,
2013-05-25 09:24:00,50.9,46.6,30.03,NNE,22,1.1,0.0,85,0.00,,---,82.22,VWS V14.01,2013-05-25 13:24:00,
2013-05-25 09:25:00,52.0,45.0,30.03,NNE,22,1.1,0.0,77,0.00,,---,82.22,VWS V14.01,2013-05-25 13:25:00,
2013-05-25 09:26:00,51.3,46.6,30.03,NNE,22,1.1,0.0,84,0.00,,---,82.22,VWS V14.01,2013-05-25 13:26:00,
2013-05-25 09:27:00,52.5,45.5,30.03,NNE,22,1.1,0.0,77,0.00,,---,82.22,VWS V14.01,2013-05-25 13:27:00,
2013-05-25 09:28:00,51.6,46.6,30.03,NNE,22,1.1,0.0,83,0.00,,---,82.22,VWS V14.01,2013-05-25 13:28:00,
2013-05-25 09:29:00,52.7,45.4,30.03,NNE,22,1.1,0.0,76,0.00,,---,82.22,VWS V14.01,2013-05-25 13:29:00,
2013-05-25 09:30:00,51.8,46.2,30.03,NNE,22,1.1,0.0,81,0.00,,---,82.22,VWS V14.01,2013-05-25 13:30:00,
2013-05-25 09:31:00,52.0,45.0,30.03,NNE,22,1.1,0.0,77,0.00,,---,82.22,VWS V14.01,2013-05-25 13:31:00,
2013-05-25 09:32:00,53.2,44.1,30.03,NE,45,1.1,0.0,71,0.00,,---,82.22,VWS V14.01,2013-05-25 13:32:00,
2013-05-25 09:33:00,53.4,44.3,30.03,North,0,1.1,0.0,71,0.00,,---,82.22,VWS V14.01,2013-05-25 13:33:00,
2013-05-25 09:34:00,52.5,45.5,30.03,NNE,22,1.1,0.0,77,0.00,,---,82.22,VWS V14.01,2013-05-25 13:34:00,
2013-05-25 09:35:00,52.5,45.2,30.03,NNE,22,1.1,1.6,76,0.00,,---,82.22,VWS V14.01,2013-05-25 13:35:00,
2013-05-25 09:36:00,53.6,43.7,30.03,North,0,1.1,1.6,69,0.00,,---,82.22,VWS V14.01,2013-05-25 13:36:00,
2013-05-25 09:37:00,53.6,43.7,30.03,NNE,22,1.1,0.0,69,0.00,,---,82.22,VWS V14.01,2013-05-25 13:37:00,
2013-05-25 09:39:00,54.1,45.0,30.03,NNE,22,1.1,0.0,71,0.00,,---,82.22,VWS V14.01,2013-05-25 13:39:00,
2013-05-25 09:40:00,54.3,44.8,30.03,NNE,22,1.1,0.0,70,0.00,,---,82.22,VWS V14.01,2013-05-25 13:40:00,
2013-05-25 09:41:00,53.4,44.3,30.03,North,0,1.1,0.0,71,0.00,,---,82.22,VWS V14.01,2013-05-25 13:41:00,
2013-05-25 09:42:00,53.4,44.3,30.03,North,0,1.1,1.1,71,0.00,,---,82.22,VWS V14.01,2013-05-25 13:42:00,
2013-05-25 09:43:00,53.6,43.7,30.03,North,0,1.1,1.6,69,0.00,,---,82.22,VWS V14.01,2013-05-25 13:43:00,
2013-05-25 09:44:00,54.7,44.3,30.03,NNE,22,0.5,2.5,68,0.00,,---,82.22,VWS V14.01,2013-05-25 13:44:00,
2013-05-25 09:45:00,53.6,43.7,30.03,NNE,22,1.1,0.0,69,0.00,,---,82.22,VWS V14.01,2013-05-25 13:45:00,
2013-05-25 09:46:00,54.9,43.3,30.03,NNW,338,0.5,1.6,65,0.00,,---,82.22,VWS V14.01,2013-05-25 13:46:00,
2013-05-25 09:47:00,55.4,44.2,30.03,ESE,112,0.5,1.6,66,0.00,,---,82.22,VWS V14.01,2013-05-25 13:47:00,
2013-05-25 09:48:00,54.3,44.8,30.03,NNE,22,1.1,0.0,70,0.00,,---,82.22,VWS V14.01,2013-05-25 13:48:00,
2013-05-25 09:49:00,54.5,44.9,30.03,NNE,22,1.1,0.0,70,0.00,,---,82.22,VWS V14.01,2013-05-25 13:49:00,
2013-05-25 09:50:00,55.6,44.4,30.03,NNW,338,0.5,1.3,66,0.00,,---,82.22,VWS V14.01,2013-05-25 13:50:00,
2013-05-25 09:51:00,54.7,45.1,30.03,NNE,22,1.1,0.0,70,0.00,,---,82.22,VWS V14.01,2013-05-25 13:51:00,
2013-05-25 09:52:00,54.7,44.3,30.03,NNE,22,0.5,2.5,68,0.00,,---,82.22,VWS V14.01,2013-05-25 13:52:00,
2013-05-25 09:53:00,56.1,45.7,30.00,North,0,0.5,0.0,68,0.00,,---,82.22,VWS V14.01,2013-05-25 13:53:00,
2013-05-25 09:54:00,55.2,44.1,30.03,North,0,0.5,1.6,66,0.00,,---,82.22,VWS V14.01,2013-05-25 13:54:00,
2013-05-25 09:55:00,55.4,44.2,30.03,ESE,112,0.5,1.6,66,0.00,,---,82.22,VWS V14.01,2013-05-25 13:55:00,
2013-05-25 09:56:00,56.3,43.0,30.00,North,0,0.0,2.5,61,0.00,,---,82.22,VWS V14.01,2013-05-25 13:56:00,
2013-05-25 09:57:00,56.7,44.6,30.00,NE,45,0.0,2.0,64,0.00,,---,82.22,VWS V14.01,2013-05-25 13:57:00,
2013-05-25 09:58:00,55.8,45.0,30.03,NNW,338,0.5,1.6,67,0.00,,---,82.22,VWS V14.01,2013-05-25 13:58:00,
2013-05-25 09:59:00,55.9,45.5,30.03,North,0,0.5,0.9,68,0.00,,---,82.22,VWS V14.01,2013-05-25 13:59:00,
2013-05-25 10:00:00,56.7,45.4,30.00,NE,45,0.0,0.0,66,0.00,,---,82.22,VWS V14.01,2013-05-25 14:00:00,
2013-05-25 10:01:00,56.1,45.7,30.00,North,0,0.5,0.0,68,0.00,,---,82.22,VWS V14.01,2013-05-25 14:01:00,
2013-05-25 10:02:00,57.0,45.4,30.00,NE,45,0.0,0.0,65,0.00,,---,82.22,VWS V14.01,2013-05-25 14:02:00,
2013-05-25 10:03:00,57.0,44.1,30.00,North,0,0.7,2.7,62,0.00,,---,82.22,VWS V14.01,2013-05-25 14:03:00,
2013-05-25 10:04:00,56.7,44.6,30.00,NE,45,0.0,2.0,64,0.00,,---,82.22,VWS V14.01,2013-05-25 14:04:00,
2013-05-25 10:05:00,57.4,43.2,30.00,NNW,338,0.0,2.2,59,0.00,,---,82.22,VWS V14.01,2013-05-25 14:05:00,
2013-05-25 10:06:00,56.7,45.4,30.00,NE,45,0.0,0.0,66,0.00,,---,82.22,VWS V14.01,2013-05-25 14:06:00,
2013-05-25 10:07:00,57.7,44.0,30.00,NE,45,0.0,2.0,60,0.00,,---,82.22,VWS V14.01,2013-05-25 14:07:00,
2013-05-25 10:08:00,57.7,44.0,30.00,NE,45,0.0,2.5,60,0.00,,---,82.22,VWS V14.01,2013-05-25 14:08:00,
2013-05-25 10:09:00,56.8,45.6,30.00,NE,45,0.0,0.0,66,0.00,,---,82.22,VWS V14.01,2013-05-25 14:09:00,
2013-05-25 10:10:00,57.0,45.4,30.00,NE,45,0.0,0.0,65,0.00,,---,82.22,VWS V14.01,2013-05-25 14:10:00,
2013-05-25 10:11:00,57.9,42.8,30.00,NE,45,0.0,2.0,57,0.00,,---,82.22,VWS V14.01,2013-05-25 14:11:00,
2013-05-25 10:12:00,58.5,43.8,30.00,NNE,22,0.0,0.0,58,0.00,,---,82.22,VWS V14.01,2013-05-25 14:12:00,
2013-05-25 10:13:00,58.5,39.4,30.00,NE,45,1.4,3.4,49,0.00,,---,82.22,VWS V14.01,2013-05-25 14:13:00,
2013-05-25 10:14:00,57.6,43.4,30.00,NNW,338,0.0,2.0,59,0.00,,---,82.22,VWS V14.01,2013-05-25 14:14:00,
2013-05-25 10:15:00,57.7,44.0,30.00,NE,45,0.0,2.0,60,0.00,,---,82.22,VWS V14.01,2013-05-25 14:15:00,
2013-05-25 10:16:00,57.7,44.0,30.00,NE,45,0.0,2.5,60,0.00,,---,82.22,VWS V14.01,2013-05-25 14:16:00,
2013-05-25 10:18:00,59.4,40.7,30.00,NNE,22,0.0,2.0,50,0.00,,---,82.22,VWS V14.01,2013-05-25 14:18:00,
2013-05-25 10:19:00,59.5,42.4,30.00,NNE,22,0.0,0.9,53,0.00,,---,82.22,VWS V14.01,2013-05-25 14:19:00,
2013-05-25 10:20:00,59.7,43.1,30.00,NNE,22,0.0,0.0,54,0.00,,---,82.22,VWS V14.01,2013-05-25 14:20:00,
2013-05-25 10:21:00,59.9,42.2,30.00,NE,45,0.0,0.0,52,0.00,,---,82.22,VWS V14.01,2013-05-25 14:21:00,
2013-05-25 10:22:00,58.6,38.5,30.00,NNE,22,0.0,2.9,47,0.00,,---,82.22,VWS V14.01,2013-05-25 14:22:00,
2013-05-25 10:23:00,60.3,43.6,30.03,NE,45,0.0,0.0,54,0.00,,---,82.22,VWS V14.01,2013-05-25 14:23:00,
2013-05-25 10:24:00,59.0,40.4,30.00,NNE,22,0.5,2.5,50,0.00,,---,82.22,VWS V14.01,2013-05-25 14:24:00,
2013-05-25 10:25:00,60.8,43.6,30.03,North,0,0.0,0.0,53,0.00,,---,82.22,VWS V14.01,2013-05-25 14:25:00,
2013-05-25 10:26:00,59.4,40.7,30.00,NNE,22,0.0,2.0,50,0.00,,---,82.22,VWS V14.01,2013-05-25 14:26:00,
2013-05-25 10:27:00,59.5,42.4,30.00,NNE,22,0.0,0.9,53,0.00,,---,82.22,VWS V14.01,2013-05-25 14:27:00,
2013-05-25 10:28:00,59.7,43.1,30.00,NNE,22,0.0,0.0,54,0.00,,---,82.22,VWS V14.01,2013-05-25 14:28:00,
2013-05-25 10:29:00,61.3,43.1,30.03,West,270,0.0,0.0,51,0.00,,---,82.22,VWS V14.01,2013-05-25 14:29:00,
2013-05-25 10:30:00,60.1,42.9,30.03,NE,45,0.0,0.0,53,0.00,,---,82.22,VWS V14.01,2013-05-25 14:30:00,
2013-05-25 10:31:00,61.5,43.8,30.03,NE,45,0.0,0.0,52,0.00,,---,82.22,VWS V14.01,2013-05-25 14:31:00,
2013-05-25 10:32:00,61.7,44.4,30.03,NW,315,0.0,0.9,53,0.00,,---,82.22,VWS V14.01,2013-05-25 14:32:00,
2013-05-25 10:33:00,60.8,43.6,30.03,North,0,0.0,0.0,53,0.00,,---,82.22,VWS V14.01,2013-05-25 14:33:00,
2013-05-25 10:34:00,62.1,44.2,30.03,NNW,338,0.0,0.0,52,0.00,,---,82.22,VWS V14.01,2013-05-25 14:34:00,
2013-05-25 10:35:00,61.0,42.2,30.03,NE,45,0.0,1.1,50,0.00,,---,82.22,VWS V14.01,2013-05-25 14:35:00,
2013-05-25 10:36:00,62.2,44.4,30.03,NNW,338,0.0,0.0,52,0.00,,---,82.22,VWS V14.01,2013-05-25 14:36:00,
2013-05-25 10:37:00,61.3,43.1,30.03,West,270,0.0,0.0,51,0.00,,---,82.22,VWS V14.01,2013-05-25 14:37:00,
2013-05-25 10:38:00,62.4,43.5,30.03,NNW,338,0.0,0.0,50,0.00,,---,82.22,VWS V14.01,2013-05-25 14:38:00,
2013-05-25 10:39:00,61.5,43.8,30.03,NE,45,0.0,0.0,52,0.00,,---,82.22,VWS V14.01,2013-05-25 14:39:00,
2013-05-25 10:40:00,61.7,44.4,30.03,NW,315,0.0,0.9,53,0.00,,---,82.22,VWS V14.01,2013-05-25 14:40:00,
2013-05-25 10:41:00,62.1,44.8,30.03,NNW,338,0.0,1.1,53,0.00,,---,82.22,VWS V14.01,2013-05-25 14:41:00,
2013-05-25 10:42:00,62.6,43.2,30.03,NW,315,0.0,0.0,49,0.00,,---,82.22,VWS V14.01,2013-05-25 14:42:00,
2013-05-25 10:43:00,62.2,43.9,30.03,NNW,338,0.0,0.0,51,0.00,,---,82.22,VWS V14.01,2013-05-25 14:43:00,
2013-05-25 10:44:00,62.2,44.4,30.03,NNW,338,0.0,0.0,52,0.00,,---,82.22,VWS V14.01,2013-05-25 14:44:00,
2013-05-25 10:45:00,62.4,40.8,30.03,East,90,0.0,1.6,45,0.00,,---,82.22,VWS V14.01,2013-05-25 14:45:00,
2013-05-25 10:46:00,62.6,41.0,30.03,East,90,0.0,1.6,45,0.00,,---,82.22,VWS V14.01,2013-05-25 14:46:00,
2013-05-25 10:47:00,62.4,43.5,30.03,NW,315,0.0,0.0,50,0.00,,---,82.22,VWS V14.01,2013-05-25 14:47:00,
2013-05-25 10:48:00,62.4,43.5,30.03,NW,315,0.0,0.0,50,0.00,,---,82.22,VWS V14.01,2013-05-25 14:48:00,
2013-05-25 10:49:00,62.6,40.4,30.03,East,90,0.0,0.0,44,0.00,,---,82.22,VWS V14.01,2013-05-25 14:49:00,
2013-05-25 10:50:00,62.6,43.2,30.03,East,90,0.0,0.0,49,0.00,,---,82.22,VWS V14.01,2013-05-25 14:50:00,
2013-05-25 10:51:00,62.6,42.1,30.03,East,90,0.0,1.6,47,0.00,,---,82.22,VWS V14.01,2013-05-25 14:51:00,
2013-05-25 10:52:00,62.6,41.0,30.03,NNW,338,0.0,0.0,45,0.00,,---,82.22,VWS V14.01,2013-05-25 14:52:00,
2013-05-25 10:53:00,62.6,41.5,30.03,NNW,338,1.1,3.1,46,0.00,,---,82.22,VWS V14.01,2013-05-25 14:53:00,
2013-05-25 10:54:00,62.8,40.0,30.03,NNE,22,0.0,3.1,43,0.00,,---,82.22,VWS V14.01,2013-05-25 14:54:00,
2013-05-25 10:55:00,62.6,41.0,30.03,East,90,0.0,1.6,45,0.00,,---,82.22,VWS V14.01,2013-05-25 14:55:00,
2013-05-25 10:56:00,62.6,41.0,30.03,East,90,0.0,1.3,45,0.00,,---,82.22,VWS V14.01,2013-05-25 14:56:00,
2013-05-25 10:57:00,63.1,41.5,30.03,NNW,338,0.0,0.0,45,0.00,,---,82.22,VWS V14.01,2013-05-25 14:57:00,
2013-05-25 10:58:00,63.3,41.6,30.03,North,0,0.0,0.0,45,0.00,,---,82.22,VWS V14.01,2013-05-25 14:58:00,
2013-05-25 10:59:00,62.6,41.0,30.03,NNW,338,0.0,0.0,45,0.00,,---,82.22,VWS V14.01,2013-05-25 14:59:00,
2013-05-25 11:00:00,63.5,41.2,30.03,NNE,22,0.0,0.0,44,0.00,,---,82.22,VWS V14.01,2013-05-25 15:00:00,
2013-05-25 11:01:00,62.6,41.5,30.03,NNW,338,1.1,3.1,46,0.00,,---,82.22,VWS V14.01,2013-05-25 15:01:00,
2013-05-25 11:02:00,63.7,41.4,30.03,NNW,338,0.0,0.0,44,0.00,,---,82.22,VWS V14.01,2013-05-25 15:02:00,
2013-05-25 11:03:00,63.0,41.3,30.03,NNW,338,0.0,1.6,45,0.00,,---,82.22,VWS V14.01,2013-05-25 15:03:00,
2013-05-25 11:04:00,63.0,41.3,30.03,NNW,338,0.0,0.0,45,0.00,,---,82.22,VWS V14.01,2013-05-25 15:04:00,
2013-05-25 11:05:00,63.1,41.5,30.03,NNW,338,0.0,0.0,45,0.00,,---,82.22,VWS V14.01,2013-05-25 15:05:00,
2013-05-25 11:06:00,63.3,41.6,30.03,North,0,0.0,0.0,45,0.00,,---,82.22,VWS V14.01,2013-05-25 15:06:00,
2013-05-25 11:07:00,63.9,39.7,30.03,WNW,292,0.0,0.0,41,0.00,,---,82.22,VWS V14.01,2013-05-25 15:07:00,
2013-05-25 11:08:00,63.9,40.3,30.03,WNW,292,0.0,0.0,42,0.00,,---,82.22,VWS V14.01,2013-05-25 15:08:00,
2013-05-25 11:09:00,63.7,41.4,30.03,NNW,338,0.0,0.0,44,0.00,,---,82.22,VWS V14.01,2013-05-25 15:09:00,
2013-05-25 11:10:00,64.0,41.1,30.03,NW,315,0.0,0.0,43,0.00,,---,82.22,VWS V14.01,2013-05-25 15:10:00,
2013-05-25 11:11:00,63.7,41.4,30.03,NNW,338,0.0,0.0,44,0.00,,---,82.22,VWS V14.01,2013-05-25 15:11:00,
2013-05-25 11:12:00,63.9,41.5,30.03,WNW,292,0.0,0.0,44,0.00,,---,82.22,VWS V14.01,2013-05-25 15:12:00,
2013-05-25 11:13:00,64.0,41.7,30.03,NNW,338,0.0,0.0,44,0.00,,---,82.22,VWS V14.01,2013-05-25 15:13:00,
2013-05-25 11:14:00,64.0,41.1,30.03,NW,315,0.0,0.0,43,0.00,,---,82.22,VWS V14.01,2013-05-25 15:14:00,
2013-05-25 11:15:00,63.9,39.7,30.03,WNW,292,0.0,0.0,41,0.00,,---,82.22,VWS V14.01,2013-05-25 15:15:00,
2013-05-25 11:16:00,63.9,40.3,30.03,WNW,292,0.0,0.0,42,0.00,,---,82.22,VWS V14.01,2013-05-25 15:16:00,
2013-05-25 11:17:00,64.0,39.2,30.03,NW,315,0.7,2.7,40,0.00,,---,82.22,VWS V14.01,2013-05-25 15:17:00,
2013-05-25 11:18:00,64.4,37.6,30.03,NW,315,0.0,2.7,37,0.00,,---,82.22,VWS V14.01,2013-05-25 15:18:00,
2013-05-25 11:19:00,64.0,41.1,30.03,East,90,0.0,0.0,43,0.00,,---,82.22,VWS V14.01,2013-05-25 15:19:00,
2013-05-25 11:20:00,64.6,38.4,30.03,West,270,0.2,2.2,38,0.00,,---,82.22,VWS V14.01,2013-05-25 15:20:00,
2013-05-25 11:21:00,64.8,36.5,30.03,NE,45,0.5,2.9,35,0.00,,---,82.22,VWS V14.01,2013-05-25 15:21:00,
2013-05-25 11:22:00,64.9,37.4,30.00,NNE,22,0.2,2.9,36,0.00,,---,82.22,VWS V14.01,2013-05-25 15:22:00,
2013-05-25 11:23:00,64.0,40.5,30.03,WNW,292,0.5,2.7,42,0.00,,---,82.22,VWS V14.01,2013-05-25 15:23:00,
2013-05-25 11:24:00,64.0,39.2,30.03,NW,315,0.7,2.7,40,0.00,,---,82.22,VWS V14.01,2013-05-25 15:24:00,
2013-05-25 11:25:00,65.3,38.4,30.00,NW,315,1.4,3.4,37,0.00,,---,82.22,VWS V14.01,2013-05-25 15:25:00,
2013-05-25 11:26:00,64.4,37.6,30.03,NW,315,0.0,2.7,37,0.00,,---,82.22,VWS V14.01,2013-05-25 15:26:00,
2013-05-25 11:27:00,64.6,38.4,30.03,West,270,0.2,2.2,38,0.00,,---,82.22,VWS V14.01,2013-05-25 15:27:00,
2013-05-25 11:28:00,65.7,39.4,30.00,NNW,338,0.0,2.7,38,0.00,,---,82.22,VWS V14.01,2013-05-25 15:28:00,
2013-05-25 11:29:00,65.8,39.5,30.00,North,0,0.0,2.0,38,0.00,,---,82.22,VWS V14.01,2013-05-25 15:29:00,
2013-05-25 11:30:00,64.9,37.4,30.00,NNE,22,0.2,2.9,36,0.00,,---,82.22,VWS V14.01,2013-05-25 15:30:00,
2013-05-25 11:31:00,65.8,39.5,30.00,NNW,338,0.0,1.3,38,0.00,,---,82.22,VWS V14.01,2013-05-25 15:31:00,
2013-05-25 11:32:00,65.3,38.4,30.00,NW,315,1.4,3.4,37,0.00,,---,82.22,VWS V14.01,2013-05-25 15:32:00,
2013-05-25 11:33:00,65.3,37.7,30.00,NNW,338,0.5,3.4,36,0.00,,---,82.22,VWS V14.01,2013-05-25 15:33:00,
2013-05-25 11:34:00,66.4,37.9,30.00,NNW,338,0.7,3.1,35,0.00,,---,82.22,VWS V14.01,2013-05-25 15:34:00,
2013-05-25 11:35:00,66.6,38.8,30.00,NW,315,0.2,2.7,36,0.00,,---,82.22,VWS V14.01,2013-05-25 15:35:00,
2013-05-25 11:36:00,65.7,39.4,30.00,NNW,338,0.0,2.7,38,0.00,,---,82.22,VWS V14.01,2013-05-25 15:36:00,
2013-05-25 11:37:00,65.8,39.5,30.00,North,0,0.0,2.0,38,0.00,,---,82.22,VWS V14.01,2013-05-25 15:37:00,
2013-05-25 11:38:00,66.7,39.0,30.03,WNW,292,0.0,0.0,36,0.00,,---,82.22,VWS V14.01,2013-05-25 15:38:00,
2013-05-25 11:39:00,66.2,38.5,30.00,NNW,338,0.2,2.7,36,0.00,,---,82.22,VWS V14.01,2013-05-25 15:39:00,
2013-05-25 11:40:00,66.7,37.5,30.03,SE,135,0.0,3.6,34,0.00,,---,82.22,VWS V14.01,2013-05-25 15:40:00,
2013-05-25 11:41:00,66.7,38.2,30.03,ESE,112,0.2,2.2,35,0.00,,---,82.22,VWS V14.01,2013-05-25 15:41:00,
2013-05-25 11:42:00,66.7,38.2,30.03,ESE,112,0.2,1.3,35,0.00,,---,82.22,VWS V14.01,2013-05-25 15:42:00,
2013-05-25 11:43:00,66.6,38.8,30.00,NW,315,0.2,2.7,36,0.00,,---,82.22,VWS V14.01,2013-05-25 15:43:00,
2013-05-25 11:44:00,66.6,38.1,30.00,NW,315,0.0,2.2,35,0.00,,---,82.22,VWS V14.01,2013-05-25 15:44:00,
2013-05-25 11:45:00,66.9,38.4,30.03,ESE,112,0.0,2.0,35,0.00,,---,82.22,VWS V14.01,2013-05-25 15:45:00,
2013-05-25 11:46:00,66.7,39.0,30.03,WNW,292,0.0,0.0,36,0.00,,---,82.22,VWS V14.01,2013-05-25 15:46:00,
2013-05-25 11:47:00,66.9,38.4,30.03,ENE,68,0.9,2.9,35,0.00,,---,82.22,VWS V14.01,2013-05-25 15:47:00,
2013-05-25 11:48:00,66.9,38.4,30.03,NE,45,0.9,1.6,35,0.00,,---,82.22,VWS V14.01,2013-05-25 15:48:00,
2013-05-25 11:49:00,66.7,38.2,30.03,ESE,112,0.2,2.2,35,0.00,,---,82.22,VWS V14.01,2013-05-25 15:49:00,
2013-05-25 11:50:00,67.1,38.6,30.03,NE,45,0.5,2.5,35,0.00,,---,82.22,VWS V14.01,2013-05-25 15:50:00,
2013-05-25 11:51:00,66.9,38.4,30.03,North,0,0.2,0.0,35,0.00,,---,82.22,VWS V14.01,2013-05-25 15:51:00,
2013-05-25 11:52:00,67.1,38.6,29.97,ENE,68,0.0,2.0,35,0.00,,---,82.22,VWS V14.01,2013-05-25 15:52:00,
2013-05-25 11:53:00,66.9,38.4,30.03,ESE,112,0.0,2.0,35,0.00,,---,82.22,VWS V14.01,2013-05-25 15:53:00,
2013-05-25 11:54:00,67.3,38.7,29.97,ENE,68,0.0,0.9,35,0.00,,---,82.22,VWS V14.01,2013-05-25 15:54:00,
2013-05-25 11:55:00,67.3,39.4,29.97,NNW,338,0.7,2.7,36,0.00,,---,82.22,VWS V14.01,2013-05-25 15:55:00,
2013-05-25 11:56:00,66.9,38.4,30.03,NE,45,0.9,1.6,35,0.00,,---,82.22,VWS V14.01,2013-05-25 15:56:00,
2013-05-25 11:57:00,67.6,39.8,29.97,NW,315,0.0,2.2,36,0.00,,---,82.22,VWS V14.01,2013-05-25 15:57:00,
2013-05-25 11:58:00,67.1,38.6,30.03,NE,45,0.5,2.5,35,0.00,,---,82.22,VWS V14.01,2013-05-25 15:58:00,
2013-05-25 11:59:00,67.8,39.9,29.97,NW,315,0.0,1.6,36,0.00,,---,82.22,VWS V14.01,2013-05-25 15:59:00,
2013-05-25 12:00:00,67.8,39.9,29.97,NW,315,0.0,1.6,36,0.00,,---,82.22,VWS V14.01,2013-05-25 16:00:00,
2013-05-25 12:01:00,67.1,38.6,29.97,ENE,68,0.0,1.6,35,0.00,,---,82.22,VWS V14.01,2013-05-25 16:01:00,
2013-05-25 12:02:00,67.8,38.5,29.97,NNE,22,0.5,2.7,34,0.00,,---,82.22,VWS V14.01,2013-05-25 16:02:00,
2013-05-25 12:03:00,67.3,39.4,29.97,NNW,338,0.7,2.7,36,0.00,,---,82.22,VWS V14.01,2013-05-25 16:03:00,
2013-05-25 12:04:00,68.0,38.6,29.97,SE,135,0.0,2.0,34,0.00,,---,82.22,VWS V14.01,2013-05-25 16:04:00,
2013-05-25 12:05:00,67.6,39.8,29.97,NW,315,0.0,2.2,36,0.00,,---,82.22,VWS V14.01,2013-05-25 16:05:00,
2013-05-25 12:06:00,67.6,39.8,29.97,NW,315,0.0,2.0,36,0.00,,---,82.22,VWS V14.01,2013-05-25 16:06:00,
2013-05-25 12:07:00,68.2,38.8,30.00,North,0,0.0,2.0,34,0.00,,---,82.22,VWS V14.01,2013-05-25 16:07:00,
2013-05-25 12:08:00,67.8,39.9,29.97,NW,315,0.0,1.6,36,0.00,,---,82.22,VWS V14.01,2013-05-25 16:08:00,
2013-05-25 12:09:00,67.8,39.9,29.97,NNW,338,0.0,1.6,36,0.00,,---,82.22,VWS V14.01,2013-05-25 16:09:00,
2013-05-25 12:10:00,67.8,38.5,29.97,NNE,22,0.5,2.7,34,0.00,,---,82.22,VWS V14.01,2013-05-25 16:10:00,
2013-05-25 12:11:00,68.4,38.9,30.00,East,90,0.0,2.0,34,0.00,,---,82.22,VWS V14.01,2013-05-25 16:11:00,
2013-05-25 12:12:00,68.4,38.9,30.00,NNE,22,0.5,2.7,34,0.00,,---,82.22,VWS V14.01,2013-05-25 16:12:00,
2013-05-25 12:13:00,68.4,38.9,30.00,NE,45,0.0,2.5,34,0.00,,---,82.22,VWS V14.01,2013-05-25 16:13:00,
2013-05-25 12:14:00,68.0,38.6,29.97,East,90,0.0,2.2,34,0.00,,---,82.22,VWS V14.01,2013-05-25 16:14:00,
2013-05-25 12:15:00,68.5,39.1,30.00,NNW,338,0.2,1.6,34,0.00,,---,82.22,VWS V14.01,2013-05-25 16:15:00,
2013-05-25 12:16:00,68.2,38.8,30.00,East,90,0.2,2.7,34,0.00,,---,82.22,VWS V14.01,2013-05-25 16:16:00,
2013-05-25 12:17:00,68.2,38.8,30.00,East,90,0.2,1.6,34,0.00,,---,82.22,VWS V14.01,2013-05-25 16:17:00,
2013-05-25 12:18:00,68.7,39.2,30.00,NNW,338,0.5,2.5,34,0.00,,---,82.22,VWS V14.01,2013-05-25 16:18:00,
2013-05-25 12:19:00,68.4,38.9,30.00,ENE,68,0.5,2.5,34,0.00,,---,82.22,VWS V14.01,2013-05-25 16:19:00,
2013-05-25 12:20:00,68.7,39.2,30.00,ESE,112,0.7,2.7,34,0.00,,---,82.22,VWS V14.01,2013-05-25 16:20:00,
2013-05-25 12:21:00,68.4,38.9,30.00,NE,45,0.0,2.5,34,0.00,,---,82.22,VWS V14.01,2013-05-25 16:21:00,
2013-05-25 12:22:00,68.4,38.9,30.00,NE,45,0.2,2.2,34,0.00,,---,82.22,VWS V14.01,2013-05-25 16:22:00,
2013-05-25 12:23:00,68.9,38.6,30.00,NE,45,1.4,3.4,33,0.00,,---,82.22,VWS V14.01,2013-05-25 16:23:00,
2013-05-25 12:24:00,68.9,38.6,30.00,North,0,0.5,3.4,33,0.00,,---,82.22,VWS V14.01,2013-05-25 16:24:00,
2013-05-25 12:25:00,68.5,39.1,30.00,NNE,22,0.0,2.0,34,0.00,,---,82.22,VWS V14.01,2013-05-25 16:25:00,
2013-05-25 12:26:00,69.1,38.8,30.00,NNW,338,0.5,2.5,33,0.00,,---,82.22,VWS V14.01,2013-05-25 16:26:00,
2013-05-25 12:27:00,68.9,39.4,30.00,NNW,338,0.0,2.5,34,0.00,,---,82.22,VWS V14.01,2013-05-25 16:27:00,
2013-05-25 12:28:00,68.7,39.2,30.00,ESE,112,0.7,2.7,34,0.00,,---,82.22,VWS V14.01,2013-05-25 16:28:00,
2013-05-25 12:29:00,69.3,39.0,30.00,ENE,68,0.0,0.0,33,0.00,,---,82.22,VWS V14.01,2013-05-25 16:29:00,
2013-05-25 12:30:00,69.3,39.0,30.00,ENE,68,0.5,2.5,33,0.00,,---,82.22,VWS V14.01,2013-05-25 16:30:00,
2013-05-25 12:31:00,69.4,39.1,30.00,NE,45,1.8,4.0,33,0.00,,---,82.22,VWS V14.01,2013-05-25 16:31:00,
2013-05-25 12:32:00,68.9,38.6,30.00,North,0,0.5,3.4,33,0.00,,---,82.22,VWS V14.01,2013-05-25 16:32:00,
2013-05-25 12:33:00,68.9,38.6,30.00,NW,315,0.2,2.5,33,0.00,,---,82.22,VWS V14.01,2013-05-25 16:33:00,
2013-05-25 12:34:00,69.4,39.1,30.00,NW,315,0.2,1.3,33,0.00,,---,82.22,VWS V14.01,2013-05-25 16:34:00,
2013-05-25 12:35:00,69.1,38.8,30.00,NW,315,0.0,2.5,33,0.00,,---,82.22,VWS V14.01,2013-05-25 16:35:00,
2013-05-25 12:36:00,69.3,39.0,30.00,NW,315,0.0,1.3,33,0.00,,---,82.22,VWS V14.01,2013-05-25 16:36:00,
2013-05-25 12:37:00,69.6,39.3,30.00,WNW,292,0.5,2.5,33,0.00,,---,82.22,VWS V14.01,2013-05-25 16:37:00,
2013-05-25 12:38:00,69.6,39.3,30.00,West,270,0.2,2.7,33,0.00,,---,82.22,VWS V14.01,2013-05-25 16:38:00,
2013-05-25 12:39:00,69.4,39.1,30.00,NE,45,1.8,4.0,33,0.00,,---,82.22,VWS V14.01,2013-05-25 16:39:00,
2013-05-25 12:40:00,69.3,39.0,30.00,NNE,22,0.5,3.8,33,0.00,,---,82.22,VWS V14.01,2013-05-25 16:40:00,
2013-05-25 12:41:00,69.4,39.1,30.00,NNE,22,0.2,2.5,33,0.00,,---,82.22,VWS V14.01,2013-05-25 16:41:00,
2013-05-25 12:42:00,69.4,39.1,30.00,NW,315,0.2,1.3,33,0.00,,---,82.22,VWS V14.01,2013-05-25 16:42:00,
2013-05-25 12:43:00,70.0,39.6,30.00,NW,315,0.5,2.5,33,0.00,,---,82.22,VWS V14.01,2013-05-25 16:43:00,
2013-05-25 12:44:00,70.2,39.7,30.00,NW,315,0.0,2.5,33,0.00,,---,82.22,VWS V14.01,2013-05-25 16:44:00,
2013-05-25 12:45:00,69.6,39.3,30.00,WNW,292,0.5,2.5,33,0.00,,---,82.22,VWS V14.01,2013-05-25 16:45:00,
2013-05-25 12:46:00,70.2,39.7,30.00,NNW,338,0.0,2.0,33,0.00,,---,82.22,VWS V14.01,2013-05-25 16:46:00,
2013-05-25 12:47:00,69.8,39.4,30.00,WSW,248,0.2,2.5,33,0.00,,---,82.22,VWS V14.01,2013-05-25 16:47:00,
2013-05-25 12:48:00,70.3,39.9,30.00,NW,315,0.0,2.5,33,0.00,,---,82.22,VWS V14.01,2013-05-25 16:48:00,
2013-05-25 12:49:00,70.5,40.1,30.00,NW,315,0.0,2.0,33,0.00,,---,82.22,VWS V14.01,2013-05-25 16:49:00,
2013-05-25 12:50:00,70.0,39.6,30.00,NNE,22,0.0,2.0,33,0.00,,---,82.22,VWS V14.01,2013-05-25 16:50:00,
2013-05-25 12:51:00,70.5,40.8,30.00,NE,45,0.0,0.9,34,0.00,,---,82.22,VWS V14.01,2013-05-25 16:51:00,
2013-05-25 12:52:00,70.2,39.7,30.00,NW,315,0.0,2.5,33,0.00,,---,82.22,VWS V14.01,2013-05-25 16:52:00,
2013-05-25 12:53:00,70.5,40.8,29.97,NE,45,0.0,0.0,34,0.00,,---,82.22,VWS V14.01,2013-05-25 16:53:00,
2013-05-25 12:54:00,70.2,39.7,30.00,NNW,338,0.0,2.0,33,0.00,,---,82.22,VWS V14.01,2013-05-25 16:54:00,
2013-05-25 12:55:00,70.7,41.0,29.97,NNW,338,0.0,0.0,34,0.00,,---,82.22,VWS V14.01,2013-05-25 16:55:00,
2013-05-25 12:56:00,70.3,39.9,30.00,NW,315,0.0,2.5,33,0.00,,---,82.22,VWS V14.01,2013-05-25 16:56:00,
2013-05-25 12:57:00,70.9,41.1,29.97,NNW,338,0.0,2.5,34,0.00,,---,82.22,VWS V14.01,2013-05-25 16:57:00,
2013-05-25 12:58:00,70.9,39.6,29.97,WNW,292,1.8,3.8,32,0.00,,---,82.22,VWS V14.01,2013-05-25 16:58:00,
2013-05-25 12:59:00,70.5,40.8,30.00,NE,45,0.0,0.9,34,0.00,,---,82.22,VWS V14.01,2013-05-25 16:59:00,
2013-05-25 13:00:00,70.9,40.4,29.97,NNW,338,0.5,2.5,33,0.00,,---,82.22,VWS V14.01,2013-05-25 17:00:00,
2013-05-25 13:01:00,70.9,40.4,29.97,SW,225,0.5,1.6,33,0.00,,---,82.22,VWS V14.01,2013-05-25 17:01:00,
2013-05-25 13:02:00,70.5,40.8,29.97,NE,45,0.0,0.0,34,0.00,,---,82.22,VWS V14.01,2013-05-25 17:02:00,
2013-05-25 13:03:00,70.7,41.0,29.97,NNW,338,0.0,0.0,34,0.00,,---,82.22,VWS V14.01,2013-05-25 17:03:00,
2013-05-25 13:04:00,71.1,40.5,29.97,East,90,1.4,3.4,33,0.00,,---,82.22,VWS V14.01,2013-05-25 17:04:00,
2013-05-25 13:05:00,71.2,40.7,29.97,NW,315,1.1,3.1,33,0.00,,---,82.22,VWS V14.01,2013-05-25 17:05:00,
2013-05-25 13:06:00,70.9,39.6,29.97,WNW,292,1.8,3.8,32,0.00,,---,82.22,VWS V14.01,2013-05-25 17:06:00,
2013-05-25 13:07:00,70.9,39.6,29.97,NNW,338,0.5,3.8,32,0.00,,---,82.22,VWS V14.01,2013-05-25 17:07:00,
2013-05-25 13:08:00,71.2,40.7,29.97,NNW,338,0.0,3.1,33,0.00,,---,82.22,VWS V14.01,2013-05-25 17:08:00,
2013-05-25 13:09:00,71.4,40.8,29.97,NNW,338,0.0,2.0,33,0.00,,---,82.22,VWS V14.01,2013-05-25 17:09:00,
2013-05-25 13:10:00,71.1,40.5,29.97,South,180,0.5,1.6,33,0.00,,---,82.22,VWS V14.01,2013-05-25 17:10:00,
2013-05-25 13:11:00,71.4,40.8,29.97,East,90,0.0,2.5,33,0.00,,---,82.22,VWS V14.01,2013-05-25 17:11:00,
2013-05-25 13:12:00,71.4,40.0,29.97,NNW,338,0.5,2.5,32,0.00,,---,82.22,VWS V14.01,2013-05-25 17:12:00,
2013-05-25 13:13:00,71.6,40.2,29.97,NNE,22,0.0,2.5,32,0.00,,---,82.22,VWS V14.01,2013-05-25 17:13:00,
2013-05-25 13:14:00,71.2,40.7,29.97,West,270,0.7,3.1,33,0.00,,---,82.22,VWS V14.01,2013-05-25 17:14:00,
2013-05-25 13:15:00,71.2,40.7,29.97,NW,315,1.1,4.3,33,0.00,,---,82.22,VWS V14.01,2013-05-25 17:15:00,
2013-05-25 13:16:00,71.6,40.2,29.97,North,0,0.7,5.4,32,0.00,,---,82.22,VWS V14.01,2013-05-25 17:16:00,
2013-05-25 13:17:00,71.6,40.2,29.97,NNW,338,0.7,2.7,32,0.00,,---,82.22,VWS V14.01,2013-05-25 17:17:00,
2013-05-25 13:18:00,71.4,40.8,29.97,NNW,338,0.0,1.6,33,0.00,,---,82.22,VWS V14.01,2013-05-25 17:18:00,
2013-05-25 13:19:00,71.4,40.8,29.97,East,90,0.0,2.5,33,0.00,,---,82.22,VWS V14.01,2013-05-25 17:19:00,
2013-05-25 13:20:00,71.8,40.4,29.97,WNW,292,0.5,3.4,32,0.00,,---,82.22,VWS V14.01,2013-05-25 17:20:00,
2013-05-25 13:21:00,71.6,40.2,29.97,NNE,22,0.0,2.5,32,0.00,,---,82.22,VWS V14.01,2013-05-25 17:21:00,
2013-05-25 13:22:00,71.8,40.4,29.97,NNW,338,0.2,2.2,32,0.00,,---,82.22,VWS V14.01,2013-05-25 17:22:00,
2013-05-25 13:23:00,72.0,40.5,29.97,NW,315,0.2,2.2,32,0.00,,---,82.22,VWS V14.01,2013-05-25 17:23:00,
2013-05-25 13:24:00,71.6,40.2,29.97,North,0,0.7,5.4,32,0.00,,---,82.22,VWS V14.01,2013-05-25 17:24:00,
2013-05-25 13:25:00,72.0,40.5,29.97,WSW,248,0.7,3.4,32,0.00,,---,82.22,VWS V14.01,2013-05-25 17:25:00,
2013-05-25 13:26:00,71.6,40.2,29.97,NW,315,0.7,2.7,32,0.00,,---,82.22,VWS V14.01,2013-05-25 17:26:00,
2013-05-25 13:27:00,72.1,40.7,29.97,West,270,0.0,0.0,32,0.00,,---,82.22,VWS V14.01,2013-05-25 17:27:00,
2013-05-25 13:28:00,71.8,40.4,29.97,WNW,292,0.5,3.4,32,0.00,,---,82.22,VWS V14.01,2013-05-25 17:28:00,
2013-05-25 13:29:00,72.1,40.7,29.97,North,0,0.0,1.6,32,0.00,,---,82.22,VWS V14.01,2013-05-25 17:29:00,
2013-05-25 13:30:00,71.8,40.4,29.97,NNW,338,0.2,2.2,32,0.00,,---,82.22,VWS V14.01,2013-05-25 17:30:00,
2013-05-25 13:31:00,72.1,40.7,29.97,ENE,68,0.7,2.7,32,0.00,,---,82.22,VWS V14.01,2013-05-25 17:31:00,
2013-05-25 13:32:00,72.0,40.5,29.97,WNW,292,1.4,3.4,32,0.00,,---,82.22,VWS V14.01,2013-05-25 17:32:00,
2013-05-25 13:33:00,72.1,40.7,29.97,ESE,112,0.7,3.1,32,0.00,,---,82.22,VWS V14.01,2013-05-25 17:33:00,
2013-05-25 13:34:00,72.1,40.7,29.97,East,90,0.0,2.9,32,0.00,,---,82.22,VWS V14.01,2013-05-25 17:34:00,
2013-05-25 13:35:00,72.1,40.7,29.97,West,270,0.0,0.0,32,0.00,,---,82.22,VWS V14.01,2013-05-25 17:35:00,
2013-05-25 13:36:00,72.1,40.7,29.97,North,0,0.7,2.7,32,0.00,,---,82.22,VWS V14.01,2013-05-25 17:36:00,
2013-05-25 13:37:00,72.1,40.7,29.97,North,0,0.0,1.6,32,0.00,,---,82.22,VWS V14.01,2013-05-25 17:37:00,
2013-05-25 13:38:00,72.1,40.7,29.97,North,0,0.0,2.5,32,0.00,,---,82.22,VWS V14.01,2013-05-25 17:38:00,
2013-05-25 13:39:00,72.3,40.8,29.97,SSE,158,0.0,2.5,32,0.00,,---,82.22,VWS V14.01,2013-05-25 17:39:00,
2013-05-25 13:40:00,72.3,40.8,29.97,South,180,0.0,2.0,32,0.00,,---,82.22,VWS V14.01,2013-05-25 17:40:00,
2013-05-25 13:41:00,72.3,40.8,29.97,South,180,0.0,2.0,32,0.00,,---,82.22,VWS V14.01,2013-05-25 17:41:00,
2013-05-25 13:42:00,72.5,41.0,29.97,NNW,338,0.0,1.3,32,0.00,,---,82.22,VWS V14.01,2013-05-25 17:42:00,
2013-05-25 13:43:00,72.1,41.5,29.97,NE,45,0.0,1.6,33,0.00,,---,82.22,VWS V14.01,2013-05-25 17:43:00,
2013-05-25 13:44:00,72.5,41.0,29.97,NNW,338,0.5,2.5,32,0.00,,---,82.22,VWS V14.01,2013-05-25 17:44:00,
2013-05-25 13:45:00,72.1,40.7,29.97,North,0,1.1,3.8,32,0.00,,---,82.22,VWS V14.01,2013-05-25 17:45:00,
2013-05-25 13:46:00,72.5,41.0,29.97,ENE,68,0.0,2.5,32,0.00,,---,82.22,VWS V14.01,2013-05-25 17:46:00,
2013-05-25 13:47:00,72.7,41.2,29.97,North,0,0.5,5.8,32,0.00,,---,82.22,VWS V14.01,2013-05-25 17:47:00,
2013-05-25 13:48:00,72.3,40.8,29.97,South,180,0.0,2.0,32,0.00,,---,82.22,VWS V14.01,2013-05-25 17:48:00,
2013-05-25 13:49:00,72.3,40.8,29.97,South,180,0.0,2.0,32,0.00,,---,82.22,VWS V14.01,2013-05-25 17:49:00,
2013-05-25 13:50:00,72.5,41.0,29.97,NNW,338,0.0,1.3,32,0.00,,---,82.22,VWS V14.01,2013-05-25 17:50:00,
2013-05-25 13:51:00,72.5,41.0,29.97,NE,45,0.0,0.9,32,0.00,,---,82.22,VWS V14.01,2013-05-25 17:51:00,
2013-05-25 13:52:00,72.7,41.2,29.97,NNW,338,0.0,3.8,32,0.00,,---,82.22,VWS V14.01,2013-05-25 17:52:00,
2013-05-25 13:53:00,72.5,41.0,29.97,ENE,68,0.0,2.5,32,0.00,,---,82.22,VWS V14.01,2013-05-25 17:53:00,
2013-05-25 13:54:00,72.9,41.3,29.97,North,0,0.0,2.0,32,0.00,,---,82.22,VWS V14.01,2013-05-25 17:54:00,
2013-05-25 13:55:00,72.9,41.3,29.97,NNW,338,1.1,3.1,32,0.00,,---,82.22,VWS V14.01,2013-05-25 17:55:00,
2013-05-25 13:56:00,72.7,41.2,29.97,NW,315,0.5,2.5,32,0.00,,---,82.22,VWS V14.01,2013-05-25 17:56:00,
2013-05-25 13:57:00,73.0,41.5,29.97,NNW,338,0.9,2.9,32,0.00,,---,82.22,VWS V14.01,2013-05-25 17:57:00,
2013-05-25 13:58:00,72.5,40.2,29.97,NW,315,1.8,4.3,31,0.00,,---,82.22,VWS V14.01,2013-05-25 17:58:00,
2013-05-25 13:59:00,73.0,41.5,29.97,North,0,0.5,2.5,32,0.00,,---,82.22,VWS V14.01,2013-05-25 17:59:00,
2013-05-25 14:00:00,73.0,41.5,29.97,SSE,158,1.1,3.1,32,0.00,,---,82.22,VWS V14.01,2013-05-25 18:00:00,
2013-05-25 14:01:00,73.0,41.5,29.97,South,180,0.7,3.1,32,0.00,,---,82.22,VWS V14.01,2013-05-25 18:01:00,
2013-05-25 14:02:00,72.9,41.3,29.97,North,0,0.0,2.0,32,0.00,,---,82.22,VWS V14.01,2013-05-25 18:02:00,
2013-05-25 14:03:00,72.9,41.3,29.97,NNW,338,1.1,3.1,32,0.00,,---,82.22,VWS V14.01,2013-05-25 18:03:00,
2013-05-25 14:04:00,72.9,41.3,29.97,WNW,292,0.0,3.1,32,0.00,,---,82.22,VWS V14.01,2013-05-25 18:04:00,
2013-05-25 14:05:00,73.0,41.5,29.97,NNW,338,0.9,2.9,32,0.00,,---,82.22,VWS V14.01,2013-05-25 18:05:00,
2013-05-25 14:06:00,73.0,41.5,29.97,North,0,0.9,2.9,32,0.00,,---,82.22,VWS V14.01,2013-05-25 18:06:00,
2013-05-25 14:07:00,73.0,40.6,29.94,SE,135,1.1,3.1,31,0.00,,---,82.22,VWS V14.01,2013-05-25 18:07:00,
2013-05-25 14:08:00,73.0,41.5,29.97,SSE,158,1.1,3.1,32,0.00,,---,82.22,VWS V14.01,2013-05-25 18:08:00,
2013-05-25 14:09:00,73.0,41.5,29.97,South,180,0.7,3.1,32,0.00,,---,82.22,VWS V14.01,2013-05-25 18:09:00,
2013-05-25 14:10:00,72.9,41.3,29.97,SSE,158,0.0,3.1,32,0.00,,---,82.22,VWS V14.01,2013-05-25 18:10:00,
2013-05-25 14:11:00,73.2,40.8,29.94,ESE,112,0.0,2.0,31,0.00,,---,82.22,VWS V14.01,2013-05-25 18:11:00,
2013-05-25 14:12:00,72.9,40.5,29.97,NE,45,0.5,3.1,31,0.00,,---,82.22,VWS V14.01,2013-05-25 18:12:00,
2013-05-25 14:13:00,73.4,41.0,29.94,NNW,338,0.9,3.4,31,0.00,,---,82.22,VWS V14.01,2013-05-25 18:13:00,
2013-05-25 14:14:00,73.0,41.5,29.97,North,0,0.9,2.9,32,0.00,,---,82.22,VWS V14.01,2013-05-25 18:14:00,
2013-05-25 14:15:00,73.0,40.7,29.94,SE,135,1.1,3.1,31,0.00,,---,82.22,VWS V14.01,2013-05-25 18:15:00,
2013-05-25 14:16:00,73.6,41.9,29.94,SE,135,0.5,0.0,32,0.00,,---,82.22,VWS V14.01,2013-05-25 18:16:00,
2013-05-25 14:17:00,73.6,41.9,29.94,West,270,0.9,2.9,32,0.00,,---,82.22,VWS V14.01,2013-05-25 18:17:00,
2013-05-25 14:18:00,73.2,40.8,29.94,North,0,0.0,3.4,31,0.00,,---,82.22,VWS V14.01,2013-05-25 18:18:00,
2013-05-25 14:19:00,73.6,41.1,29.94,NNW,338,1.1,3.1,31,0.00,,---,82.22,VWS V14.01,2013-05-25 18:19:00,
2013-05-25 14:20:00,73.6,41.1,29.94,North,0,0.5,3.6,31,0.00,,---,82.22,VWS V14.01,2013-05-25 18:20:00,
2013-05-25 14:21:00,73.4,41.0,29.94,NNW,338,0.9,3.4,31,0.00,,---,82.22,VWS V14.01,2013-05-25 18:21:00,
2013-05-25 14:22:00,73.4,41.0,29.94,NE,45,0.5,2.9,31,0.00,,---,82.22,VWS V14.01,2013-05-25 18:22:00,
2013-05-25 14:23:00,73.4,41.0,29.94,North,0,0.5,1.3,31,0.00,,---,82.22,VWS V14.01,2013-05-25 18:23:00,
2013-05-25 14:24:00,73.6,41.9,29.94,SE,135,0.5,0.0,32,0.00,,---,82.22,VWS V14.01,2013-05-25 18:24:00,
2013-05-25 14:25:00,73.9,41.4,29.94,NW,315,0.0,2.0,31,0.00,,---,82.22,VWS V14.01,2013-05-25 18:25:00,
2013-05-25 14:26:00,74.1,41.6,29.94,NW,315,0.0,0.0,31,0.00,,---,82.22,VWS V14.01,2013-05-25 18:26:00,
2013-05-25 14:27:00,74.1,42.4,29.94,SE,135,0.0,1.1,32,0.00,,---,82.22,VWS V14.01,2013-05-25 18:27:00,
2013-05-25 14:28:00,74.1,42.4,29.94,SE,135,0.0,1.3,32,0.00,,---,82.22,VWS V14.01,2013-05-25 18:28:00,
2013-05-25 14:29:00,73.6,41.1,29.94,NNW,338,0.2,2.9,31,0.00,,---,82.22,VWS V14.01,2013-05-25 18:29:00,
2013-05-25 14:30:00,73.8,41.3,29.94,NNW,338,0.2,1.6,31,0.00,,---,82.22,VWS V14.01,2013-05-25 18:30:00,
2013-05-25 14:31:00,73.8,41.3,29.94,NW,315,0.0,2.0,31,0.00,,---,82.22,VWS V14.01,2013-05-25 18:31:00,
2013-05-25 14:32:00,73.9,41.4,29.94,East,90,0.0,2.5,31,0.00,,---,82.22,VWS V14.01,2013-05-25 18:32:00,
2013-05-25 14:33:00,73.9,41.4,29.94,NW,315,0.0,2.0,31,0.00,,---,82.22,VWS V14.01,2013-05-25 18:33:00,
2013-05-25 14:34:00,73.9,41.4,29.94,East,90,0.0,1.1,31,0.00,,---,82.22,VWS V14.01,2013-05-25 18:34:00,
2013-05-25 14:35:00,74.1,42.4,29.94,SE,135,0.0,1.1,32,0.00,,---,82.22,VWS V14.01,2013-05-25 18:35:00,
2013-05-25 14:36:00,73.8,41.3,29.94,East,90,0.0,2.2,31,0.00,,---,82.22,VWS V14.01,2013-05-25 18:36:00,
2013-05-25 14:37:00,73.8,41.3,29.94,East,90,0.0,0.0,31,0.00,,---,82.22,VWS V14.01,2013-05-25 18:37:00,
2013-05-25 14:38:00,73.8,41.3,29.94,East,90,0.0,0.0,31,0.00,,---,82.22,VWS V14.01,2013-05-25 18:38:00,
2013-05-25 14:39:00,73.9,41.4,29.94,SSE,158,0.5,2.7,31,0.00,,---,82.22,VWS V14.01,2013-05-25 18:39:00,
2013-05-25 14:40:00,73.8,42.1,29.94,NE,45,0.0,1.1,32,0.00,,---,82.22,VWS V14.01,2013-05-25 18:40:00,
2013-05-25 14:41:00,73.9,41.4,29.94,East,90,0.0,1.3,31,0.00,,---,82.22,VWS V14.01,2013-05-25 18:41:00,
2013-05-25 14:42:00,73.9,41.4,29.94,East,90,0.0,1.1,31,0.00,,---,82.22,VWS V14.01,2013-05-25 18:42:00,
2013-05-25 14:43:00,73.8,42.1,29.94,SW,225,0.0,1.3,32,0.00,,---,82.22,VWS V14.01,2013-05-25 18:43:00,
2013-05-25 14:44:00,73.9,42.2,29.94,NW,315,0.0,1.6,32,0.00,,---,82.22,VWS V14.01,2013-05-25 18:44:00,
2013-05-25 14:45:00,73.9,42.2,29.94,ESE,112,0.2,2.2,32,0.00,,---,82.22,VWS V14.01,2013-05-25 18:45:00,
2013-05-25 14:46:00,73.8,41.3,29.94,East,90,0.0,0.0,31,0.00,,---,82.22,VWS V14.01,2013-05-25 18:46:00,
2013-05-25 14:47:00,73.8,41.3,29.94,NNW,338,0.0,0.0,31,0.00,,---,82.22,VWS V14.01,2013-05-25 18:47:00,
2013-05-25 14:48:00,74.1,41.6,29.94,NNE,22,0.2,2.2,31,0.00,,---,82.22,VWS V14.01,2013-05-25 18:48:00,
2013-05-25 14:49:00,74.1,41.6,29.94,NNE,22,0.5,2.7,31,0.00,,---,82.22,VWS V14.01,2013-05-25 18:49:00,
2013-05-25 14:50:00,73.8,41.3,29.94,West,270,0.0,2.0,31,0.00,,---,82.22,VWS V14.01,2013-05-25 18:50:00,
2013-05-25 14:51:00,74.5,41.9,29.94,NE,45,0.5,1.1,31,0.00,,---,82.22,VWS V14.01,2013-05-25 18:51:00,
2013-05-25 14:52:00,73.9,42.2,29.94,NW,315,0.0,1.6,32,0.00,,---,82.22,VWS V14.01,2013-05-25 18:52:00,
2013-05-25 14:53:00,74.5,41.9,29.94,North,0,0.7,2.7,31,0.00,,---,82.22,VWS V14.01,2013-05-25 18:53:00,
2013-05-25 14:54:00,74.7,42.9,29.94,NW,315,0.0,2.7,32,0.00,,---,82.22,VWS V14.01,2013-05-25 18:54:00,
2013-05-25 14:55:00,74.7,42.9,29.94,West,270,0.0,2.0,32,0.00,,---,82.22,VWS V14.01,2013-05-25 18:55:00,
2013-05-25 14:56:00,74.1,41.6,29.94,NNE,22,0.2,2.2,31,0.00,,---,82.22,VWS V14.01,2013-05-25 18:56:00,
2013-05-25 14:57:00,74.1,41.6,29.94,NNE,22,0.5,2.7,31,0.00,,---,82.22,VWS V14.01,2013-05-25 18:57:00,
2013-05-25 14:58:00,74.5,42.7,29.94,NE,45,0.5,2.5,32,0.00,,---,82.22,VWS V14.01,2013-05-25 18:58:00,
2013-05-25 14:59:00,74.5,41.9,29.94,NE,45,0.5,1.1,31,0.00,,---,82.22,VWS V14.01,2013-05-25 18:59:00,
2013-05-25 15:00:00,74.7,42.0,29.94,ESE,112,0.5,1.6,31,0.00,,---,82.22,VWS V14.01,2013-05-25 19:00:00,
2013-05-25 15:01:00,74.5,41.9,29.94,North,0,0.7,2.7,31,0.00,,---,82.22,VWS V14.01,2013-05-25 19:01:00,
2013-05-25 15:02:00,74.7,42.0,29.94,ESE,112,0.5,1.6,31,0.00,,---,82.22,VWS V14.01,2013-05-25 19:02:00,
2013-05-25 15:03:00,74.7,42.9,29.94,West,270,0.0,2.0,32,0.00,,---,82.22,VWS V14.01,2013-05-25 19:03:00,
2013-05-25 15:04:00,74.7,42.9,29.94,NNW,338,1.4,3.4,32,0.00,,---,82.22,VWS V14.01,2013-05-25 19:04:00,
2013-05-25 15:05:00,74.7,42.0,29.94,West,270,0.0,2.0,31,0.00,,---,82.22,VWS V14.01,2013-05-25 19:05:00,
2013-05-25 15:06:00,75.0,43.2,29.94,NW,315,0.5,2.5,32,0.00,,---,82.22,VWS V14.01,2013-05-25 19:06:00,
2013-05-25 15:07:00,74.7,42.0,29.94,NW,315,0.5,1.1,31,0.00,,---,82.22,VWS V14.01,2013-05-25 19:07:00,
2013-05-25 15:08:00,74.8,42.2,29.94,NW,315,0.5,2.7,31,0.00,,---,82.22,VWS V14.01,2013-05-25 19:08:00,
2013-05-25 15:09:00,74.8,42.2,29.94,NNW,338,0.5,2.5,31,0.00,,---,82.22,VWS V14.01,2013-05-25 19:09:00,
2013-05-25 15:10:00,74.8,43.0,29.94,North,0,0.0,2.5,32,0.00,,---,82.22,VWS V14.01,2013-05-25 19:10:00,
2013-05-25 15:11:00,74.7,42.9,29.94,North,0,0.0,2.0,32,0.00,,---,82.22,VWS V14.01,2013-05-25 19:11:00,
2013-05-25 15:12:00,75.0,42.4,29.94,East,90,0.0,0.9,31,0.00,,---,82.22,VWS V14.01,2013-05-25 19:12:00,
2013-05-25 15:13:00,75.0,42.4,29.94,East,90,0.0,0.0,31,0.00,,---,82.22,VWS V14.01,2013-05-25 19:13:00,
2013-05-25 15:14:00,75.2,42.5,29.94,East,90,0.0,0.0,31,0.00,,---,82.22,VWS V14.01,2013-05-25 19:14:00,
2013-05-25 15:15:00,75.2,42.5,29.94,North,0,0.0,0.0,31,0.00,,---,82.22,VWS V14.01,2013-05-25 19:15:00,
2013-05-25 15:16:00,74.8,42.2,29.94,NW,315,0.5,2.7,31,0.00,,---,82.22,VWS V14.01,2013-05-25 19:16:00,
2013-05-25 15:17:00,75.0,42.4,29.94,SW,225,0.0,2.5,31,0.00,,---,82.22,VWS V14.01,2013-05-25 19:17:00,
2013-05-25 15:18:00,75.0,42.4,29.94,SW,225,0.7,2.7,31,0.00,,---,82.22,VWS V14.01,2013-05-25 19:18:00,
2013-05-25 15:19:00,75.0,42.4,29.94,NNE,22,0.0,1.6,31,0.00,,---,82.22,VWS V14.01,2013-05-25 19:19:00,
2013-05-25 15:20:00,75.0,42.4,29.94,WSW,248,0.2,2.2,31,0.00,,---,82.22,VWS V14.01,2013-05-25 19:20:00,
2013-05-25 15:21:00,75.0,42.4,29.94,East,90,0.0,0.0,31,0.00,,---,82.22,VWS V14.01,2013-05-25 19:21:00,
2013-05-25 15:22:00,75.2,42.5,29.94,East,90,0.0,0.0,31,0.00,,---,82.22,VWS V14.01,2013-05-25 19:22:00,
2013-05-25 15:23:00,75.2,42.5,29.94,North,0,0.0,0.0,31,0.00,,---,82.22,VWS V14.01,2013-05-25 19:23:00,
2013-05-25 15:24:00,75.2,42.5,29.94,NNW,338,0.0,2.0,31,0.00,,---,82.22,VWS V14.01,2013-05-25 19:24:00,
2013-05-25 15:25:00,75.4,42.7,29.94,NNW,338,0.2,2.5,31,0.00,,---,82.22,VWS V14.01,2013-05-25 19:25:00,
2013-05-25 15:26:00,75.0,42.4,29.94,SW,225,0.7,2.7,31,0.00,,---,82.22,VWS V14.01,2013-05-25 19:26:00,
2013-05-25 15:27:00,75.4,42.7,29.94,NW,315,0.0,1.6,31,0.00,,---,82.22,VWS V14.01,2013-05-25 19:27:00,
2013-05-25 15:28:00,75.0,42.4,29.94,ESE,112,0.2,2.2,31,0.00,,---,82.22,VWS V14.01,2013-05-25 19:28:00,
2013-05-25 15:29:00,75.0,42.4,29.94,East,90,0.2,2.5,31,0.00,,---,82.22,VWS V14.01,2013-05-25 19:29:00,
2013-05-25 15:30:00,75.6,42.8,29.94,NW,315,0.2,2.5,31,0.00,,---,82.22,VWS V14.01,2013-05-25 19:30:00,
2013-05-25 15:31:00,75.2,42.5,29.94,NNW,338,0.2,3.1,31,0.00,,---,82.22,VWS V14.01,2013-05-25 19:31:00,
2013-05-25 15:32:00,75.2,42.5,29.94,NNW,338,0.0,2.0,31,0.00,,---,82.22,VWS V14.01,2013-05-25 19:32:00,
2013-05-25 15:33:00,75.7,43.0,29.94,NW,315,0.2,2.7,31,0.00,,---,82.22,VWS V14.01,2013-05-25 19:33:00,
2013-05-25 15:34:00,75.7,43.0,29.94,NNW,338,0.0,2.0,31,0.00,,---,82.22,VWS V14.01,2013-05-25 19:34:00,
2013-05-25 15:35:00,75.7,43.0,29.94,NNW,338,0.5,2.9,31,0.00,,---,82.22,VWS V14.01,2013-05-25 19:35:00,
2013-05-25 15:36:00,75.7,43.0,29.94,NNW,338,0.2,2.5,31,0.00,,---,82.22,VWS V14.01,2013-05-25 19:36:00,
2013-05-25 15:37:00,75.6,42.8,29.94,NW,315,0.0,2.2,31,0.00,,---,82.22,VWS V14.01,2013-05-25 19:37:00,
2013-05-25 15:38:00,75.6,42.8,29.94,NW,315,0.2,2.5,31,0.00,,---,82.22,VWS V14.01,2013-05-25 19:38:00,
2013-05-25 15:39:00,75.6,42.8,29.94,WNW,292,0.0,3.4,31,0.00,,---,82.22,VWS V14.01,2013-05-25 19:39:00,
2013-05-25 15:40:00,76.1,43.3,29.94,SW,225,0.0,0.0,31,0.00,,---,82.22,VWS V14.01,2013-05-25 19:40:00,
2013-05-25 15:41:00,75.9,43.1,29.94,WSW,248,0.7,2.7,31,0.00,,---,82.22,VWS V14.01,2013-05-25 19:41:00,
2013-05-25 15:42:00,75.7,43.0,29.94,NNW,338,0.0,2.0,31,0.00,,---,82.22,VWS V14.01,2013-05-25 19:42:00,
2013-05-25 15:43:00,75.7,43.0,29.94,NNW,338,0.5,2.9,31,0.00,,---,82.22,VWS V14.01,2013-05-25 19:43:00,
2013-05-25 15:44:00,75.7,43.0,29.94,NNW,338,0.2,2.5,31,0.00,,---,82.22,VWS V14.01,2013-05-25 19:44:00,
2013-05-25 15:45:00,76.3,43.5,29.94,NNW,338,0.0,2.5,31,0.00,,---,82.22,VWS V14.01,2013-05-25 19:45:00,
2013-05-25 15:46:00,75.7,43.0,29.94,ESE,112,0.0,2.0,31,0.00,,---,82.22,VWS V14.01,2013-05-25 19:46:00,
2013-05-25 15:47:00,76.3,43.5,29.94,NNW,338,0.2,2.2,31,0.00,,---,82.22,VWS V14.01,2013-05-25 19:47:00,
2013-05-25 15:48:00,76.3,43.5,29.94,NNW,338,0.0,2.2,31,0.00,,---,82.22,VWS V14.01,2013-05-25 19:48:00,
2013-05-25 15:49:00,75.9,43.2,29.94,WSW,248,0.7,2.7,31,0.00,,---,82.22,VWS V14.01,2013-05-25 19:49:00,
2013-05-25 15:50:00,76.1,43.3,29.94,NNW,338,0.0,2.0,31,0.00,,---,82.22,VWS V14.01,2013-05-25 19:50:00,
2013-05-25 15:51:00,76.3,43.5,29.94,North,0,0.7,0.0,31,0.00,,---,82.22,VWS V14.01,2013-05-25 19:51:00,
2013-05-25 15:52:00,76.3,43.5,29.94,NNW,338,0.7,1.6,31,0.00,,---,82.22,VWS V14.01,2013-05-25 19:52:00,
2013-05-25 15:53:00,76.3,43.5,29.94,NNW,338,0.0,2.5,31,0.00,,---,82.22,VWS V14.01,2013-05-25 19:53:00,
2013-05-25 15:54:00,75.7,43.0,29.94,NNW,338,0.0,0.0,31,0.00,,---,82.22,VWS V14.01,2013-05-25 19:54:00,
2013-05-25 15:55:00,76.3,43.5,29.94,NNW,338,0.2,2.2,31,0.00,,---,82.22,VWS V14.01,2013-05-25 19:55:00,
2013-05-25 15:56:00,75.7,43.0,29.94,NNW,338,0.0,0.0,31,0.00,,---,82.22,VWS V14.01,2013-05-25 19:56:00,
2013-05-25 15:57:00,75.4,42.7,29.94,NNW,338,0.0,0.0,31,0.00,,---,82.22,VWS V14.01,2013-05-25 19:57:00,
2013-05-25 15:58:00,76.1,43.3,29.94,NNW,338,0.0,2.0,31,0.00,,---,82.22,VWS V14.01,2013-05-25 19:58:00,
2013-05-25 15:59:00,75.4,42.7,29.94,NNW,338,0.0,0.0,31,0.00,,---,82.22,VWS V14.01,2013-05-25 19:59:00,
2013-05-25 16:00:00,75.7,43.0,29.94,NNW,338,0.0,2.0,31,0.00,,---,82.22,VWS V14.01,2013-05-25 20:00:00,
2013-05-25 16:01:00,75.7,43.0,29.94,NNW,338,0.0,0.0,31,0.00,,---,82.22,VWS V14.01,2013-05-25 20:01:00,
2013-05-25 16:02:00,75.7,43.0,29.94,NNW,338,0.0,0.0,31,0.00,,---,82.22,VWS V14.01,2013-05-25 20:02:00,
2013-05-25 16:03:00,75.0,43.2,29.94,NNW,338,0.7,2.7,32,0.00,,---,82.22,VWS V14.01,2013-05-25 20:03:00,
2013-05-25 16:04:00,75.0,43.2,29.94,NNW,338,0.5,2.7,32,0.00,,---,82.22,VWS V14.01,2013-05-25 20:04:00,
2013-05-25 16:05:00,74.8,43.0,29.94,East,90,0.5,2.5,32,0.00,,---,82.22,VWS V14.01,2013-05-25 20:05:00,
2013-05-25 16:06:00,75.4,42.7,29.94,NNW,338,0.0,0.0,31,0.00,,---,82.22,VWS V14.01,2013-05-25 20:06:00,
2013-05-25 16:07:00,75.2,42.5,29.94,NNW,338,0.0,0.0,31,0.00,,---,82.22,VWS V14.01,2013-05-25 20:07:00,
2013-05-25 16:08:00,74.5,41.9,29.94,NNE,22,0.7,2.7,31,0.00,,---,82.22,VWS V14.01,2013-05-25 20:08:00,
2013-05-25 16:09:00,74.5,41.9,29.94,South,180,0.7,2.7,31,0.00,,---,82.22,VWS V14.01,2013-05-25 20:09:00,
2013-05-25 16:10:00,75.0,43.2,29.94,NNW,338,0.0,1.1,32,0.00,,---,82.22,VWS V14.01,2013-05-25 20:10:00,
2013-05-25 16:11:00,75.0,43.2,29.94,NNW,338,0.7,2.7,32,0.00,,---,82.22,VWS V14.01,2013-05-25 20:11:00,
2013-05-25 16:12:00,74.3,42.6,29.94,East,90,0.7,1.1,32,0.00,,---,82.22,VWS V14.01,2013-05-25 20:12:00,
2013-05-25 16:13:00,74.1,42.4,29.94,NW,315,0.7,0.0,32,0.00,,---,82.22,VWS V14.01,2013-05-25 20:13:00,
2013-05-25 16:14:00,74.1,42.4,29.94,NW,315,0.7,0.0,32,0.00,,---,82.22,VWS V14.01,2013-05-25 20:14:00,
2013-05-25 16:15:00,73.9,41.4,29.94,ENE,68,0.5,2.7,31,0.00,,---,82.22,VWS V14.01,2013-05-25 20:15:00,
2013-05-25 16:16:00,74.5,41.9,29.94,NNE,22,0.7,2.7,31,0.00,,---,82.22,VWS V14.01,2013-05-25 20:16:00,
2013-05-25 16:17:00,74.5,41.9,29.94,South,180,0.7,2.7,31,0.00,,---,82.22,VWS V14.01,2013-05-25 20:17:00,
2013-05-25 16:18:00,73.9,41.4,29.94,ESE,112,0.0,2.0,31,0.00,,---,82.22,VWS V14.01,2013-05-25 20:18:00,
2013-05-25 16:19:00,74.5,41.9,29.94,SSE,158,0.7,2.7,31,0.00,,---,82.22,VWS V14.01,2013-05-25 20:19:00,
2013-05-25 16:20:00,73.9,41.4,29.94,SSE,158,0.0,1.3,31,0.00,,---,82.22,VWS V14.01,2013-05-25 20:20:00,
2013-05-25 16:21:00,73.8,41.3,29.94,NE,45,0.0,2.9,31,0.00,,---,82.22,VWS V14.01,2013-05-25 20:21:00,
2013-05-25 16:22:00,73.8,41.3,29.94,SSE,158,0.5,2.7,31,0.00,,---,82.22,VWS V14.01,2013-05-25 20:22:00,
2013-05-25 16:23:00,73.6,41.1,29.94,East,90,0.5,2.5,31,0.00,,---,82.22,VWS V14.01,2013-05-25 20:23:00,
2013-05-25 16:24:00,73.9,41.4,29.94,SSE,158,0.0,2.5,31,0.00,,---,82.22,VWS V14.01,2013-05-25 20:24:00,
2013-05-25 16:25:00,73.6,41.1,29.94,NE,45,0.0,3.8,31,0.00,,---,82.22,VWS V14.01,2013-05-25 20:25:00,
2013-05-25 16:26:00,73.9,41.4,29.94,ESE,112,0.0,2.0,31,0.00,,---,82.22,VWS V14.01,2013-05-25 20:26:00,
2013-05-25 16:27:00,73.4,41.0,29.94,SE,135,0.0,0.0,31,0.00,,---,82.22,VWS V14.01,2013-05-25 20:27:00,
2013-05-25 16:28:00,73.4,41.0,29.94,ENE,68,0.0,0.0,31,0.00,,---,82.22,VWS V14.01,2013-05-25 20:28:00,
2013-05-25 16:29:00,73.8,41.3,29.94,NE,45,0.0,2.9,31,0.00,,---,82.22,VWS V14.01,2013-05-25 20:29:00,
2013-05-25 16:30:00,73.8,41.3,29.94,SSE,158,0.5,2.7,31,0.00,,---,82.22,VWS V14.01,2013-05-25 20:30:00,
2013-05-25 16:31:00,73.4,41.0,29.94,NE,45,1.1,3.1,31,0.00,,---,82.22,VWS V14.01,2013-05-25 20:31:00,
2013-05-25 16:32:00,73.6,41.1,29.94,ESE,112,1.8,3.8,31,0.00,,---,82.22,VWS V14.01,2013-05-25 20:32:00,
2013-05-25 16:33:00,73.4,41.0,29.94,East,90,0.5,2.9,31,0.00,,---,82.22,VWS V14.01,2013-05-25 20:33:00,
2013-05-25 16:34:00,73.6,41.1,29.94,East,90,0.0,0.0,31,0.00,,---,82.22,VWS V14.01,2013-05-25 20:34:00,
2013-05-25 16:35:00,73.6,41.1,29.94,North,0,0.5,1.3,31,0.00,,---,82.22,VWS V14.01,2013-05-25 20:35:00,
2013-05-25 16:36:00,73.8,42.1,29.94,NNW,338,0.5,0.0,32,0.00,,---,82.22,VWS V14.01,2013-05-25 20:36:00,
2013-05-25 16:37:00,73.4,41.0,29.94,East,90,0.0,1.3,31,0.00,,---,82.22,VWS V14.01,2013-05-25 20:37:00,
2013-05-25 16:38:00,73.8,42.1,29.94,NE,45,0.5,0.0,32,0.00,,---,82.22,VWS V14.01,2013-05-25 20:38:00,
2013-05-25 16:39:00,73.4,41.0,29.94,NE,45,1.1,3.1,31,0.00,,---,82.22,VWS V14.01,2013-05-25 20:39:00,
2013-05-25 16:40:00,73.8,42.1,29.94,ENE,68,0.2,2.2,32,0.00,,---,82.22,VWS V14.01,2013-05-25 20:40:00,
2013-05-25 16:41:00,73.6,41.9,29.94,SE,135,0.2,2.2,32,0.00,,---,82.22,VWS V14.01,2013-05-25 20:41:00,
2013-05-25 16:42:00,73.6,41.1,29.94,North,0,0.5,1.3,31,0.00,,---,82.22,VWS V14.01,2013-05-25 20:42:00,
2013-05-25 16:43:00,73.6,41.1,29.94,North,0,0.5,0.0,31,0.00,,---,82.22,VWS V14.01,2013-05-25 20:43:00,
2013-05-25 16:44:00,73.4,41.0,29.94,SSW,202,0.5,3.4,31,0.00,,---,82.22,VWS V14.01,2013-05-25 20:44:00,
2013-05-25 16:45:00,73.4,41.0,29.94,South,180,0.2,2.2,31,0.00,,---,82.22,VWS V14.01,2013-05-25 20:45:00,
2013-05-25 16:46:00,73.4,41.0,29.94,WSW,248,0.2,1.3,31,0.00,,---,82.22,VWS V14.01,2013-05-25 20:46:00,
2013-05-25 16:47:00,73.8,42.1,29.94,SSE,158,0.2,2.2,32,0.00,,---,82.22,VWS V14.01,2013-05-25 20:47:00,
2013-05-25 16:48:00,73.8,42.1,29.94,ENE,68,0.2,2.2,32,0.00,,---,82.22,VWS V14.01,2013-05-25 20:48:00,
2013-05-25 16:49:00,73.6,41.9,29.94,SE,135,0.2,2.2,32,0.00,,---,82.22,VWS V14.01,2013-05-25 20:49:00,
2013-05-25 16:50:00,73.2,41.6,29.94,SE,135,0.0,0.9,32,0.00,,---,82.22,VWS V14.01,2013-05-25 20:50:00,
2013-05-25 16:51:00,73.6,41.9,29.94,ESE,112,1.4,3.4,32,0.00,,---,82.22,VWS V14.01,2013-05-25 20:51:00,
2013-05-25 16:52:00,73.2,41.6,29.94,WSW,248,1.4,3.4,32,0.00,,---,82.22,VWS V14.01,2013-05-25 20:52:00,
2013-05-25 16:53:00,73.2,41.6,29.94,NNW,338,0.7,2.7,32,0.00,,---,82.22,VWS V14.01,2013-05-25 20:53:00,
2013-05-25 16:54:00,73.2,41.6,29.94,SE,135,0.7,1.6,32,0.00,,---,82.22,VWS V14.01,2013-05-25 20:54:00,
2013-05-25 16:55:00,73.4,41.8,29.94,ESE,112,0.2,2.5,32,0.00,,---,82.22,VWS V14.01,2013-05-25 20:55:00,
2013-05-25 16:56:00,73.2,41.6,29.94,SE,135,0.0,3.8,32,0.00,,---,82.22,VWS V14.01,2013-05-25 20:56:00,
2013-05-25 16:57:00,73.4,41.0,29.94,East,90,0.5,2.7,31,0.00,,---,82.22,VWS V14.01,2013-05-25 20:57:00,
2013-05-25 16:58:00,73.6,41.1,29.94,SSE,158,1.4,3.4,31,0.00,,---,82.22,VWS V14.01,2013-05-25 20:58:00,
2013-05-25 16:59:00,73.2,41.6,29.94,NW,315,0.0,2.2,32,0.00,,---,82.22,VWS V14.01,2013-05-25 20:59:00,
2013-05-25 17:00:00,73.8,42.1,29.94,WSW,248,0.2,2.2,32,0.00,,---,82.22,VWS V14.01,2013-05-25 21:00:00,
2013-05-25 17:01:00,73.2,41.6,29.94,NNW,338,0.7,2.7,32,0.00,,---,82.22,VWS V14.01,2013-05-25 21:01:00,
2013-05-25 17:02:00,73.8,41.3,29.94,ENE,68,0.2,3.8,31,0.00,,---,82.22,VWS V14.01,2013-05-25 21:02:00,
2013-05-25 17:03:00,73.8,41.3,29.94,East,90,0.0,2.0,31,0.00,,---,82.22,VWS V14.01,2013-05-25 21:03:00,
2013-05-25 17:04:00,73.9,41.4,29.94,NE,45,1.8,3.8,31,0.00,,---,82.22,VWS V14.01,2013-05-25 21:04:00,
2013-05-25 17:05:00,73.4,41.0,29.94,East,90,0.5,2.7,31,0.00,,---,82.22,VWS V14.01,2013-05-25 21:05:00,
2013-05-25 17:06:00,74.3,41.7,29.94,ESE,112,0.5,2.5,31,0.00,,---,82.22,VWS V14.01,2013-05-25 21:06:00,
2013-05-25 17:07:00,74.3,41.7,29.94,SE,135,0.5,1.1,31,0.00,,---,82.22,VWS V14.01,2013-05-25 21:07:00,
2013-05-25 17:08:00,73.8,42.1,29.94,WSW,248,0.2,2.2,32,0.00,,---,82.22,VWS V14.01,2013-05-25 21:08:00,
2013-05-25 17:09:00,74.7,42.0,29.94,ESE,112,0.5,2.5,31,0.00,,---,82.22,VWS V14.01,2013-05-25 21:09:00,
2013-05-25 17:10:00,73.8,41.3,29.94,ENE,68,0.2,3.8,31,0.00,,---,82.22,VWS V14.01,2013-05-25 21:10:00,
2013-05-25 17:11:00,74.8,42.2,29.94,NW,315,0.0,2.0,31,0.00,,---,82.22,VWS V14.01,2013-05-25 21:11:00,
2013-05-25 17:12:00,75.0,42.4,29.94,East,90,0.2,2.2,31,0.00,,---,82.22,VWS V14.01,2013-05-25 21:12:00,
2013-05-25 17:13:00,75.0,42.4,29.94,NNW,338,0.0,2.0,31,0.00,,---,82.22,VWS V14.01,2013-05-25 21:13:00,
2013-05-25 17:14:00,74.3,41.7,29.94,ESE,112,0.5,2.5,31,0.00,,---,82.22,VWS V14.01,2013-05-25 21:14:00,
2013-05-25 17:15:00,74.3,41.7,29.94,SE,135,0.5,1.1,31,0.00,,---,82.22,VWS V14.01,2013-05-25 21:15:00,
2013-05-25 17:16:00,74.5,41.9,29.94,SE,135,0.5,0.0,31,0.00,,---,82.22,VWS V14.01,2013-05-25 21:16:00,
2013-05-25 17:17:00,74.7,42.0,29.94,ESE,112,0.5,2.5,31,0.00,,---,82.22,VWS V14.01,2013-05-25 21:17:00,
2013-05-25 17:18:00,75.7,43.0,29.94,SSE,158,0.0,2.7,31,0.00,,---,82.22,VWS V14.01,2013-05-25 21:18:00,
2013-05-25 17:19:00,75.7,43.0,29.94,NW,315,0.0,2.0,31,0.00,,---,82.22,VWS V14.01,2013-05-25 21:19:00,
2013-05-25 17:20:00,75.0,42.4,29.94,East,90,0.2,2.2,31,0.00,,---,82.22,VWS V14.01,2013-05-25 21:20:00,
2013-05-25 17:21:00,75.7,43.0,29.94,North,0,1.6,3.6,31,0.00,,---,82.22,VWS V14.01,2013-05-25 21:21:00,
2013-05-25 17:22:00,75.4,42.7,29.94,NNW,338,0.5,2.5,31,0.00,,---,82.22,VWS V14.01,2013-05-25 21:22:00,
2013-05-25 17:23:00,75.7,43.0,29.94,WSW,248,0.0,2.2,31,0.00,,---,82.22,VWS V14.01,2013-05-25 21:23:00,
2013-05-25 17:24:00,75.7,42.1,29.94,SSE,158,0.9,2.9,30,0.00,,---,82.22,VWS V14.01,2013-05-25 21:24:00,
2013-05-25 17:25:00,75.6,42.0,29.94,NNE,22,0.0,2.0,30,0.00,,---,82.22,VWS V14.01,2013-05-25 21:25:00,
2013-05-25 17:26:00,75.6,42.8,29.94,West,270,0.7,2.9,31,0.00,,---,82.22,VWS V14.01,2013-05-25 21:26:00,
2013-05-25 17:27:00,75.7,43.0,29.94,NW,315,0.0,2.0,31,0.00,,---,82.22,VWS V14.01,2013-05-25 21:27:00,
2013-05-25 17:28:00,75.4,42.7,29.94,SW,225,0.5,2.5,31,0.00,,---,82.22,VWS V14.01,2013-05-25 21:28:00,
2013-05-25 17:29:00,75.2,42.5,29.94,WNW,292,0.5,2.5,31,0.00,,---,82.22,VWS V14.01,2013-05-25 21:29:00,
2013-05-25 17:30:00,75.9,43.2,29.94,WNW,292,0.5,3.6,31,0.00,,---,82.22,VWS V14.01,2013-05-25 21:30:00,
2013-05-25 17:31:00,75.0,42.4,29.94,East,90,0.0,1.3,31,0.00,,---,82.22,VWS V14.01,2013-05-25 21:31:00,
2013-05-25 17:32:00,75.0,42.4,29.94,NW,315,0.0,1.3,31,0.00,,---,82.22,VWS V14.01,2013-05-25 21:32:00,
2013-05-25 17:33:00,75.6,42.8,29.94,WSW,248,0.0,2.9,31,0.00,,---,82.22,VWS V14.01,2013-05-25 21:33:00,
2013-05-25 17:34:00,75.6,42.8,29.94,West,270,0.7,2.9,31,0.00,,---,82.22,VWS V14.01,2013-05-25 21:34:00,
2013-05-25 17:35:00,75.6,42.8,29.94,SW,225,0.7,0.9,31,0.00,,---,82.22,VWS V14.01,2013-05-25 21:35:00,
2013-05-25 17:36:00,75.4,42.7,29.94,SW,225,0.5,2.5,31,0.00,,---,82.22,VWS V14.01,2013-05-25 21:36:00,
2013-05-25 17:37:00,74.8,42.2,29.94,WSW,248,0.0,3.1,31,0.00,,---,82.22,VWS V14.01,2013-05-25 21:37:00,
2013-05-25 17:38:00,75.2,42.5,29.94,East,90,0.0,2.5,31,0.00,,---,82.22,VWS V14.01,2013-05-25 21:38:00,
2013-05-25 17:39:00,74.7,42.0,29.94,WSW,248,0.0,0.0,31,0.00,,---,82.22,VWS V14.01,2013-05-25 21:39:00,
2013-05-25 17:40:00,75.0,42.4,29.94,NW,315,0.0,1.3,31,0.00,,---,82.22,VWS V14.01,2013-05-25 21:40:00,
2013-05-25 17:41:00,74.8,41.4,29.94,WNW,292,0.2,2.5,30,0.00,,---,82.22,VWS V14.01,2013-05-25 21:41:00,
2013-05-25 17:43:00,74.1,40.7,29.94,NNW,338,0.7,1.1,30,0.00,,---,82.22,VWS V14.01,2013-05-25 21:43:00,
2013-05-25 17:44:00,74.8,42.2,29.94,WSW,248,0.0,3.1,31,0.00,,---,82.22,VWS V14.01,2013-05-25 21:44:00,
2013-05-25 17:45:00,74.1,39.9,29.94,NNW,338,0.0,2.0,29,0.00,,---,82.22,VWS V14.01,2013-05-25 21:45:00,
2013-05-25 17:46:00,73.8,38.7,29.94,South,180,0.7,2.7,28,0.00,,---,82.22,VWS V14.01,2013-05-25 21:46:00,
2013-05-25 17:47:00,73.8,39.5,29.94,SE,135,0.5,2.7,29,0.00,,---,82.22,VWS V14.01,2013-05-25 21:47:00,
2013-05-25 17:48:00,73.8,40.4,29.94,SE,135,0.5,0.0,30,0.00,,---,82.22,VWS V14.01,2013-05-25 21:48:00,
2013-05-25 17:49:00,74.5,41.0,29.94,WNW,292,0.7,0.0,30,0.00,,---,82.22,VWS V14.01,2013-05-25 21:49:00,
2013-05-25 17:50:00,73.6,40.3,29.94,NW,315,0.5,0.0,30,0.00,,---,82.22,VWS V14.01,2013-05-25 21:50:00,
2013-05-25 17:51:00,73.4,38.3,29.94,SSE,158,0.5,3.4,28,0.00,,---,82.22,VWS V14.01,2013-05-25 21:51:00,
2013-05-25 17:52:00,73.2,40.8,29.94,SE,135,0.5,1.6,31,0.00,,---,82.22,VWS V14.01,2013-05-25 21:52:00,
2013-05-25 17:53:00,73.2,40.8,29.94,SE,135,0.5,0.0,31,0.00,,---,82.22,VWS V14.01,2013-05-25 21:53:00,
2013-05-25 17:54:00,73.8,38.7,29.94,South,180,0.7,2.7,28,0.00,,---,82.22,VWS V14.01,2013-05-25 21:54:00,
2013-05-25 17:55:00,73.8,39.5,29.94,SE,135,0.5,2.7,29,0.00,,---,82.22,VWS V14.01,2013-05-25 21:55:00,
2013-05-25 17:56:00,72.7,40.3,29.94,SE,135,0.0,2.0,31,0.00,,---,82.22,VWS V14.01,2013-05-25 21:56:00,
2013-05-25 17:57:00,72.5,40.2,29.94,SE,135,0.0,1.1,31,0.00,,---,82.22,VWS V14.01,2013-05-25 21:57:00,
2013-05-25 17:58:00,73.6,40.3,29.94,NW,315,0.5,0.0,30,0.00,,---,82.22,VWS V14.01,2013-05-25 21:58:00,
2013-05-25 17:59:00,72.1,39.9,29.94,SE,135,0.0,2.0,31,0.00,,---,82.22,VWS V14.01,2013-05-25 21:59:00,
2013-05-25 18:00:00,72.1,39.9,29.94,SE,135,0.0,2.0,31,0.00,,---,82.22,VWS V14.01,2013-05-25 22:00:00,
2013-05-25 18:01:00,73.2,40.8,29.94,SE,135,0.5,0.0,31,0.00,,---,82.22,VWS V14.01,2013-05-25 22:01:00,
2013-05-25 18:02:00,72.0,39.7,29.94,SE,135,0.0,0.0,31,0.00,,---,82.22,VWS V14.01,2013-05-25 22:02:00,
2013-05-25 18:03:00,72.9,40.5,29.94,SE,135,0.0,2.0,31,0.00,,---,82.22,VWS V14.01,2013-05-25 22:03:00,
2013-05-25 18:04:00,72.7,40.3,29.94,SE,135,0.0,2.0,31,0.00,,---,82.22,VWS V14.01,2013-05-25 22:04:00,
2013-05-25 18:05:00,71.8,39.5,29.94,NE,45,0.0,0.0,31,0.00,,---,82.22,VWS V14.01,2013-05-25 22:05:00,
2013-05-25 18:06:00,72.3,40.0,29.94,SE,135,0.0,0.0,31,0.00,,---,82.22,VWS V14.01,2013-05-25 22:06:00,
2013-05-25 18:07:00,71.6,40.2,29.94,SE,135,0.0,2.0,32,0.00,,---,82.22,VWS V14.01,2013-05-25 22:07:00,
2013-05-25 18:08:00,71.6,40.2,29.94,SE,135,0.0,2.0,32,0.00,,---,82.22,VWS V14.01,2013-05-25 22:08:00,
2013-05-25 18:09:00,71.4,40.0,29.94,SE,135,0.0,0.9,32,0.00,,---,82.22,VWS V14.01,2013-05-25 22:09:00,
2013-05-25 18:10:00,72.0,39.7,29.94,SE,135,0.0,0.0,31,0.00,,---,82.22,VWS V14.01,2013-05-25 22:10:00,
2013-05-25 18:11:00,72.0,39.7,29.94,SE,135,0.0,0.0,31,0.00,,---,82.22,VWS V14.01,2013-05-25 22:11:00,
2013-05-25 18:12:00,71.8,39.5,29.94,SE,135,0.0,0.0,31,0.00,,---,82.22,VWS V14.01,2013-05-25 22:12:00,
2013-05-25 18:13:00,71.1,39.7,29.94,SSE,158,0.5,2.5,32,0.00,,---,82.22,VWS V14.01,2013-05-25 22:13:00,
2013-05-25 18:14:00,71.1,38.9,29.94,NE,45,0.0,2.5,31,0.00,,---,82.22,VWS V14.01,2013-05-25 22:14:00,
2013-05-25 18:15:00,71.6,40.2,29.94,SE,135,0.0,2.0,32,0.00,,---,82.22,VWS V14.01,2013-05-25 22:15:00,
2013-05-25 18:16:00,71.2,39.9,29.94,SW,225,0.0,2.0,32,0.00,,---,82.22,VWS V14.01,2013-05-25 22:16:00,
2013-05-25 18:17:00,71.4,40.0,29.94,SE,135,0.0,0.9,32,0.00,,---,82.22,VWS V14.01,2013-05-25 22:17:00,
2013-05-25 18:18:00,71.1,39.7,29.94,SE,135,0.9,3.6,32,0.00,,---,82.22,VWS V14.01,2013-05-25 22:18:00,
2013-05-25 18:19:00,71.1,39.7,29.94,ESE,112,0.0,2.2,32,0.00,,---,82.22,VWS V14.01,2013-05-25 22:19:00,
2013-05-25 18:20:00,71.1,39.7,29.94,WNW,292,0.5,2.5,32,0.00,,---,82.22,VWS V14.01,2013-05-25 22:20:00,
2013-05-25 18:21:00,71.1,39.7,29.94,SSE,158,0.2,2.2,32,0.00,,---,82.22,VWS V14.01,2013-05-25 22:21:00,
2013-05-25 18:22:00,71.1,38.9,29.94,NE,45,0.0,2.5,31,0.00,,---,82.22,VWS V14.01,2013-05-25 22:22:00,
2013-05-25 18:23:00,71.1,40.5,29.91,SW,225,0.5,1.6,33,0.00,,---,82.22,VWS V14.01,2013-05-25 22:23:00,
2013-05-25 18:24:00,71.1,40.5,29.91,NNE,22,0.5,3.1,33,0.00,,---,82.22,VWS V14.01,2013-05-25 22:24:00,
2013-05-25 18:25:00,71.2,39.9,29.94,SE,135,0.7,2.7,32,0.00,,---,82.22,VWS V14.01,2013-05-25 22:25:00,
2013-05-25 18:26:00,71.1,39.7,29.91,West,270,0.2,2.2,32,0.00,,---,82.22,VWS V14.01,2013-05-25 22:26:00,
2013-05-25 18:27:00,71.1,39.7,29.91,SE,135,0.0,2.9,32,0.00,,---,82.22,VWS V14.01,2013-05-25 22:27:00,
2013-05-25 18:28:00,71.1,39.7,29.91,SSE,158,0.5,2.9,32,0.00,,---,82.22,VWS V14.01,2013-05-25 22:28:00,
2013-05-25 18:29:00,71.1,39.7,29.91,SSE,158,0.5,2.5,32,0.00,,---,82.22,VWS V14.01,2013-05-25 22:29:00,
2013-05-25 18:30:00,70.9,39.6,29.91,WNW,292,0.5,3.6,32,0.00,,---,82.22,VWS V14.01,2013-05-25 22:30:00,
2013-05-25 18:31:00,71.1,40.5,29.91,SW,225,0.5,1.6,33,0.00,,---,82.22,VWS V14.01,2013-05-25 22:31:00,
2013-05-25 18:32:00,70.9,39.6,29.91,South,180,0.2,2.2,32,0.00,,---,82.22,VWS V14.01,2013-05-25 22:32:00,
2013-05-25 18:33:00,70.9,38.8,29.91,SSE,158,0.5,2.5,31,0.00,,---,82.22,VWS V14.01,2013-05-25 22:33:00,
2013-05-25 18:34:00,70.9,39.6,29.91,NE,45,0.2,1.1,32,0.00,,---,82.22,VWS V14.01,2013-05-25 22:34:00,
2013-05-25 18:35:00,70.9,39.6,29.91,North,0,0.2,0.0,32,0.00,,---,82.22,VWS V14.01,2013-05-25 22:35:00,
2013-05-25 18:36:00,71.1,39.7,29.91,SSE,158,0.5,2.9,32,0.00,,---,82.22,VWS V14.01,2013-05-25 22:36:00,
2013-05-25 18:37:00,71.1,39.7,29.91,SSE,158,0.5,2.5,32,0.00,,---,82.22,VWS V14.01,2013-05-25 22:37:00,
2013-05-25 18:38:00,70.9,39.6,29.91,SSW,202,0.5,1.6,32,0.00,,---,82.22,VWS V14.01,2013-05-25 22:38:00,
2013-05-25 18:39:00,70.9,39.6,29.94,SE,135,0.5,2.5,32,0.00,,---,82.22,VWS V14.01,2013-05-25 22:39:00,
2013-05-25 18:40:00,70.9,39.6,29.91,South,180,0.2,2.2,32,0.00,,---,82.22,VWS V14.01,2013-05-25 22:40:00,
2013-05-25 18:41:00,70.9,39.6,29.94,ENE,68,0.5,1.1,32,0.00,,---,82.22,VWS V14.01,2013-05-25 22:41:00,
2013-05-25 18:42:00,70.9,39.6,29.94,ESE,112,0.5,1.6,32,0.00,,---,82.22,VWS V14.01,2013-05-25 22:42:00,
2013-05-25 18:43:00,70.9,39.6,29.91,North,0,0.2,0.0,32,0.00,,---,82.22,VWS V14.01,2013-05-25 22:43:00,
2013-05-25 18:44:00,70.9,39.6,29.91,North,0,0.5,2.5,32,0.00,,---,82.22,VWS V14.01,2013-05-25 22:44:00,
2013-05-25 18:45:00,70.9,39.6,29.94,NE,45,0.0,2.0,32,0.00,,---,82.22,VWS V14.01,2013-05-25 22:45:00,
2013-05-25 18:46:00,70.7,39.4,29.94,ESE,112,0.9,2.9,32,0.00,,---,82.22,VWS V14.01,2013-05-25 22:46:00,
2013-05-25 18:47:00,70.7,39.4,29.94,SSW,202,0.0,3.8,32,0.00,,---,82.22,VWS V14.01,2013-05-25 22:47:00,
2013-05-25 18:49:00,70.9,39.6,29.94,ENE,68,0.5,1.1,32,0.00,,---,82.22,VWS V14.01,2013-05-25 22:49:00,
2013-05-25 18:50:00,70.9,39.6,29.94,ESE,112,0.5,1.6,32,0.00,,---,82.22,VWS V14.01,2013-05-25 22:50:00,
2013-05-25 18:51:00,70.9,39.6,29.94,ENE,68,0.7,2.9,32,0.00,,---,82.22,VWS V14.01,2013-05-25 22:51:00,
2013-05-25 18:52:00,70.9,39.6,29.94,ESE,112,0.0,2.0,32,0.00,,---,82.22,VWS V14.01,2013-05-25 22:52:00,
2013-05-25 18:53:00,70.7,39.4,29.91,WSW,248,0.2,2.2,32,0.00,,---,82.22,VWS V14.01,2013-05-25 22:53:00,
2013-05-25 18:54:00,70.7,39.4,29.91,WSW,248,0.7,2.7,32,0.00,,---,82.22,VWS V14.01,2013-05-25 22:54:00,
2013-05-25 18:55:00,70.7,39.4,29.94,SSW,202,0.0,3.8,32,0.00,,---,82.22,VWS V14.01,2013-05-25 22:55:00,
2013-05-25 18:56:00,70.9,39.6,29.94,ESE,112,0.0,1.6,32,0.00,,---,82.22,VWS V14.01,2013-05-25 22:56:00,
2013-05-25 18:57:00,70.7,36.9,29.91,SW,225,0.2,3.4,29,0.00,,---,82.22,VWS V14.01,2013-05-25 22:57:00,
2013-05-25 18:58:00,70.7,37.8,29.91,SW,225,0.2,2.2,30,0.00,,---,82.22,VWS V14.01,2013-05-25 22:58:00,
2013-05-25 18:59:00,70.9,39.6,29.94,ENE,68,0.7,2.9,32,0.00,,---,82.22,VWS V14.01,2013-05-25 22:59:00,
2013-05-25 19:00:00,70.7,39.4,29.91,SSE,158,0.2,2.2,32,0.00,,---,82.22,VWS V14.01,2013-05-25 23:00:00,
2013-05-25 19:01:00,70.7,39.4,29.91,WSW,248,0.2,2.2,32,0.00,,---,82.22,VWS V14.01,2013-05-25 23:01:00,
2013-05-25 19:02:00,70.7,39.4,29.91,WSW,248,0.7,2.7,32,0.00,,---,82.22,VWS V14.01,2013-05-25 23:02:00,
2013-05-25 19:03:00,70.7,39.4,29.91,ESE,112,0.0,2.0,32,0.00,,---,82.22,VWS V14.01,2013-05-25 23:03:00,
2013-05-25 19:04:00,70.7,37.8,29.91,SSE,158,0.0,2.0,30,0.00,,---,82.22,VWS V14.01,2013-05-25 23:04:00,
2013-05-25 19:05:00,70.7,36.9,29.91,SE,135,0.2,2.2,29,0.00,,---,82.22,VWS V14.01,2013-05-25 23:05:00,
2013-05-25 19:06:00,70.7,37.8,29.91,SW,225,0.2,2.2,30,0.00,,---,82.22,VWS V14.01,2013-05-25 23:06:00,
2013-05-25 19:07:00,70.7,36.9,29.91,SE,135,0.0,2.0,29,0.00,,---,82.22,VWS V14.01,2013-05-25 23:07:00,
2013-05-25 19:08:00,70.7,39.4,29.94,East,90,0.2,2.2,32,0.00,,---,82.22,VWS V14.01,2013-05-25 23:08:00,
2013-05-25 19:09:00,70.7,39.4,29.94,East,90,0.2,0.0,32,0.00,,---,82.22,VWS V14.01,2013-05-25 23:09:00,
2013-05-25 19:10:00,70.5,36.8,29.94,East,90,0.2,1.3,29,0.00,,---,82.22,VWS V14.01,2013-05-25 23:10:00,
2013-05-25 19:11:00,70.7,39.4,29.91,ESE,112,0.0,2.0,32,0.00,,---,82.22,VWS V14.01,2013-05-25 23:11:00,
2013-05-25 19:12:00,70.5,39.3,29.94,SE,135,0.7,2.9,32,0.00,,---,82.22,VWS V14.01,2013-05-25 23:12:00,
2013-05-25 19:13:00,70.7,36.9,29.91,SE,135,0.2,2.2,29,0.00,,---,82.22,VWS V14.01,2013-05-25 23:13:00,
2013-05-25 19:14:00,70.5,39.3,29.94,SE,135,0.7,0.0,32,0.00,,---,82.22,VWS V14.01,2013-05-25 23:14:00,
2013-05-25 19:15:00,70.7,39.4,29.91,SE,135,0.2,0.0,32,0.00,,---,82.22,VWS V14.01,2013-05-25 23:15:00,
2013-05-25 19:16:00,70.3,39.1,29.94,SE,135,0.7,0.0,32,0.00,,---,82.22,VWS V14.01,2013-05-25 23:16:00,
2013-05-25 19:17:00,70.2,38.1,29.94,ESE,112,0.0,2.9,31,0.00,,---,82.22,VWS V14.01,2013-05-25 23:17:00,
2013-05-25 19:18:00,70.5,36.8,29.94,East,90,0.2,1.3,29,0.00,,---,82.22,VWS V14.01,2013-05-25 23:18:00,
2013-05-25 19:19:00,70.5,39.3,29.94,SSE,158,0.0,2.0,32,0.00,,---,82.22,VWS V14.01,2013-05-25 23:19:00,
2013-05-25 19:20:00,70.5,39.3,29.94,SE,135,0.7,2.9,32,0.00,,---,82.22,VWS V14.01,2013-05-25 23:20:00,
2013-05-25 19:21:00,70.0,38.8,29.94,SSE,158,0.2,2.2,32,0.00,,---,82.22,VWS V14.01,2013-05-25 23:21:00,
2013-05-25 19:22:00,70.0,38.8,29.94,ESE,112,0.2,1.6,32,0.00,,---,82.22,VWS V14.01,2013-05-25 23:22:00,
2013-05-25 19:23:00,70.0,38.8,29.94,ESE,112,0.2,1.6,32,0.00,,---,82.22,VWS V14.01,2013-05-25 23:23:00,
2013-05-25 19:24:00,69.8,38.6,29.94,ESE,112,0.2,0.0,32,0.00,,---,82.22,VWS V14.01,2013-05-25 23:24:00,
2013-05-25 19:25:00,70.2,38.1,29.94,ESE,112,0.0,2.9,31,0.00,,---,82.22,VWS V14.01,2013-05-25 23:25:00,
2013-05-25 19:26:00,70.2,39.0,29.94,ESE,112,0.0,2.0,32,0.00,,---,82.22,VWS V14.01,2013-05-25 23:26:00,
2013-05-25 19:27:00,69.6,38.5,29.94,ESE,112,0.2,0.0,32,0.00,,---,82.22,VWS V14.01,2013-05-25 23:27:00,
2013-05-25 19:28:00,70.0,38.8,29.94,SSE,158,0.0,2.0,32,0.00,,---,82.22,VWS V14.01,2013-05-25 23:28:00,
2013-05-25 19:29:00,70.0,38.8,29.94,SSE,158,0.2,2.2,32,0.00,,---,82.22,VWS V14.01,2013-05-25 23:29:00,
2013-05-25 19:30:00,69.4,38.3,29.94,East,90,0.0,2.0,32,0.00,,---,82.22,VWS V14.01,2013-05-25 23:30:00,
2013-05-25 19:31:00,69.3,38.2,29.94,East,90,0.9,2.9,32,0.00,,---,82.22,VWS V14.01,2013-05-25 23:31:00,
2013-05-25 19:32:00,69.3,38.2,29.94,East,90,0.9,0.0,32,0.00,,---,82.22,VWS V14.01,2013-05-25 23:32:00,
2013-05-25 19:33:00,69.8,38.6,29.94,ESE,112,0.2,0.0,32,0.00,,---,82.22,VWS V14.01,2013-05-25 23:33:00,
2013-05-25 19:34:00,69.8,38.6,29.94,ESE,112,0.2,0.0,32,0.00,,---,82.22,VWS V14.01,2013-05-25 23:34:00,
2013-05-25 19:35:00,69.1,38.0,29.94,NE,45,0.9,0.0,32,0.00,,---,82.22,VWS V14.01,2013-05-25 23:35:00,
2013-05-25 19:37:00,68.9,37.8,29.94,NE,45,0.9,0.0,32,0.00,,---,82.22,VWS V14.01,2013-05-25 23:37:00,
2013-05-25 19:38:00,68.9,37.8,29.94,NE,45,0.9,0.0,32,0.00,,---,82.22,VWS V14.01,2013-05-25 23:38:00,
2013-05-25 19:39:00,68.7,37.7,29.94,NE,45,0.9,0.0,32,0.00,,---,82.22,VWS V14.01,2013-05-25 23:39:00,
2013-05-25 19:40:00,69.3,38.2,29.94,East,90,0.9,0.0,32,0.00,,---,82.22,VWS V14.01,2013-05-25 23:40:00,
2013-05-25 19:41:00,69.3,38.2,29.94,East,90,0.9,1.6,32,0.00,,---,82.22,VWS V14.01,2013-05-25 23:41:00,
2013-05-25 19:42:00,68.7,37.7,29.94,NE,45,0.9,0.0,32,0.00,,---,82.22,VWS V14.01,2013-05-25 23:42:00,
2013-05-25 19:43:00,69.1,38.0,29.94,NE,45,0.9,0.0,32,0.00,,---,82.22,VWS V14.01,2013-05-25 23:43:00,
2013-05-25 19:44:00,69.1,38.0,29.94,NE,45,0.9,0.0,32,0.00,,---,82.22,VWS V14.01,2013-05-25 23:44:00,
2013-05-25 19:45:00,68.5,37.5,29.94,NE,45,0.9,0.0,32,0.00,,---,82.22,VWS V14.01,2013-05-25 23:45:00,
2013-05-25 19:46:00,68.9,37.8,29.94,NE,45,0.9,0.0,32,0.00,,---,82.22,VWS V14.01,2013-05-25 23:46:00,
2013-05-25 19:47:00,68.7,37.7,29.94,NE,45,0.9,0.0,32,0.00,,---,82.22,VWS V14.01,2013-05-25 23:47:00,
2013-05-25 19:48:00,68.4,37.4,29.94,NE,45,0.9,0.0,32,0.00,,---,82.22,VWS V14.01,2013-05-25 23:48:00,
2013-05-25 19:49:00,68.2,37.2,29.94,NE,45,0.9,0.0,32,0.00,,---,82.22,VWS V14.01,2013-05-25 23:49:00,
2013-05-25 19:50:00,68.7,37.7,29.94,NE,45,0.9,0.0,32,0.00,,---,82.22,VWS V14.01,2013-05-25 23:50:00,
2013-05-25 19:51:00,68.5,37.5,29.94,NE,45,0.9,0.0,32,0.00,,---,82.22,VWS V14.01,2013-05-25 23:51:00,
2013-05-25 19:53:00,67.8,37.7,29.91,ENE,68,0.9,0.0,33,0.00,,---,82.22,VWS V14.01,2013-05-25 23:53:00,
2013-05-25 19:54:00,67.8,37.7,29.91,ENE,68,0.9,0.0,33,0.00,,---,82.22,VWS V14.01,2013-05-25 23:54:00,
2013-05-25 19:55:00,68.4,37.4,29.94,NE,45,0.9,0.0,32,0.00,,---,82.22,VWS V14.01,2013-05-25 23:55:00,
2013-05-25 19:56:00,68.4,37.4,29.94,NE,45,0.9,0.0,32,0.00,,---,82.22,VWS V14.01,2013-05-25 23:56:00,
2013-05-25 19:57:00,67.6,37.5,29.91,ENE,68,0.9,0.0,33,0.00,,---,82.22,VWS V14.01,2013-05-25 23:57:00,
2013-05-25 19:58:00,68.2,37.2,29.94,NE,45,0.9,0.0,32,0.00,,---,82.22,VWS V14.01,2013-05-25 23:58:00,
2013-05-25 19:59:00,67.5,37.4,29.91,ENE,68,0.9,0.0,33,0.00,,---,82.22,VWS V14.01,2013-05-25 23:59:00,
2013-05-25 20:00:00,67.5,37.4,29.91,ENE,68,0.9,0.0,33,0.00,,---,82.22,VWS V14.01,2013-05-26 00:00:00,
2013-05-25 20:01:00,67.8,37.7,29.91,ENE,68,0.9,0.0,33,0.00,,---,82.22,VWS V14.01,2013-05-26 00:01:00,
2013-05-25 20:02:00,67.3,37.2,29.91,ENE,68,0.9,0.0,33,0.00,,---,82.22,VWS V14.01,2013-05-26 00:02:00,
2013-05-25 20:03:00,67.6,37.5,29.91,ENE,68,0.9,0.0,33,0.00,,---,82.22,VWS V14.01,2013-05-26 00:03:00,
2013-05-25 20:04:00,67.1,37.1,29.91,ENE,68,0.9,0.0,33,0.00,,---,82.22,VWS V14.01,2013-05-26 00:04:00,
2013-05-25 20:05:00,67.6,37.5,29.91,ENE,68,0.9,0.0,33,0.00,,---,82.22,VWS V14.01,2013-05-26 00:05:00,
2013-05-25 20:06:00,67.6,37.5,29.91,ENE,68,0.9,0.0,33,0.00,,---,82.22,VWS V14.01,2013-05-26 00:06:00,
2013-05-25 20:07:00,66.9,36.9,29.94,ENE,68,0.2,2.2,33,0.00,,---,82.22,VWS V14.01,2013-05-26 00:07:00,
2013-05-25 20:08:00,67.5,37.4,29.91,ENE,68,0.9,0.0,33,0.00,,---,82.22,VWS V14.01,2013-05-26 00:08:00,
2013-05-25 20:09:00,66.6,36.6,29.94,ESE,112,0.2,2.7,33,0.00,,---,82.22,VWS V14.01,2013-05-26 00:09:00,
2013-05-25 20:10:00,66.6,36.6,29.94,ESE,112,0.2,2.2,33,0.00,,---,82.22,VWS V14.01,2013-05-26 00:10:00,
2013-05-25 20:11:00,67.3,37.2,29.91,ENE,68,0.9,0.0,33,0.00,,---,82.22,VWS V14.01,2013-05-26 00:11:00,
2013-05-25 20:12:00,67.1,37.1,29.91,ENE,68,0.9,0.0,33,0.00,,---,82.22,VWS V14.01,2013-05-26 00:12:00,
2013-05-25 20:13:00,66.4,36.4,29.94,ESE,112,0.2,0.0,33,0.00,,---,82.22,VWS V14.01,2013-05-26 00:13:00,
2013-05-25 20:14:00,66.9,36.9,29.91,ENE,68,0.0,1.6,33,0.00,,---,82.22,VWS V14.01,2013-05-26 00:14:00,
2013-05-25 20:15:00,66.2,36.3,29.94,ESE,112,0.2,0.0,33,0.00,,---,82.22,VWS V14.01,2013-05-26 00:15:00,
2013-05-25 20:16:00,66.0,36.9,29.94,ESE,112,0.2,0.0,34,0.00,,---,82.22,VWS V14.01,2013-05-26 00:16:00,
2013-05-25 20:17:00,66.6,36.6,29.94,ESE,112,0.2,2.7,33,0.00,,---,82.22,VWS V14.01,2013-05-26 00:17:00,
2013-05-25 20:18:00,66.0,36.9,29.94,ESE,112,0.2,0.0,34,0.00,,---,82.22,VWS V14.01,2013-05-26 00:18:00,
2013-05-25 20:19:00,66.6,36.6,29.94,ESE,112,0.2,0.9,33,0.00,,---,82.22,VWS V14.01,2013-05-26 00:19:00,
2013-05-25 20:20:00,65.8,36.7,29.94,ESE,112,0.2,0.0,34,0.00,,---,82.22,VWS V14.01,2013-05-26 00:20:00,
2013-05-25 20:21:00,65.7,36.6,29.94,East,90,0.2,1.3,34,0.00,,---,82.22,VWS V14.01,2013-05-26 00:21:00,
2013-05-25 20:22:00,65.7,36.6,29.94,East,90,0.2,1.1,34,0.00,,---,82.22,VWS V14.01,2013-05-26 00:22:00,
2013-05-25 20:23:00,66.2,36.3,29.94,ESE,112,0.2,0.0,33,0.00,,---,82.22,VWS V14.01,2013-05-26 00:23:00,
2013-05-25 20:24:00,66.0,36.9,29.94,ESE,112,0.2,0.0,34,0.00,,---,82.22,VWS V14.01,2013-05-26 00:24:00,
2013-05-25 20:25:00,65.5,36.4,29.94,East,90,0.2,0.0,34,0.00,,---,82.22,VWS V14.01,2013-05-26 00:25:00,
2013-05-25 20:26:00,65.5,36.4,29.94,East,90,0.2,0.0,34,0.00,,---,82.22,VWS V14.01,2013-05-26 00:26:00,
2013-05-25 20:27:00,65.3,36.2,29.94,East,90,0.2,0.0,34,0.00,,---,82.22,VWS V14.01,2013-05-26 00:27:00,
2013-05-25 20:28:00,65.3,36.2,29.94,East,90,0.2,0.0,34,0.00,,---,82.22,VWS V14.01,2013-05-26 00:28:00,
2013-05-25 20:29:00,65.7,36.6,29.94,East,90,0.2,1.3,34,0.00,,---,82.22,VWS V14.01,2013-05-26 00:29:00,
2013-05-25 20:30:00,65.7,36.6,29.94,East,90,0.2,1.1,34,0.00,,---,82.22,VWS V14.01,2013-05-26 00:30:00,
2013-05-25 20:31:00,64.9,35.9,29.94,East,90,0.2,0.0,34,0.00,,---,82.22,VWS V14.01,2013-05-26 00:31:00,
2013-05-25 20:32:00,64.9,35.9,29.94,East,90,0.2,0.0,34,0.00,,---,82.22,VWS V14.01,2013-05-26 00:32:00,
2013-05-25 20:33:00,65.5,36.4,29.94,East,90,0.2,0.0,34,0.00,,---,82.22,VWS V14.01,2013-05-26 00:33:00,
2013-05-25 20:34:00,65.5,36.4,29.94,East,90,0.2,0.0,34,0.00,,---,82.22,VWS V14.01,2013-05-26 00:34:00,
2013-05-25 20:35:00,64.6,35.6,29.94,East,90,0.2,0.0,34,0.00,,---,82.22,VWS V14.01,2013-05-26 00:35:00,
2013-05-25 20:36:00,64.6,35.6,29.94,East,90,0.2,0.0,34,0.00,,---,82.22,VWS V14.01,2013-05-26 00:36:00,
2013-05-25 20:37:00,64.4,35.5,29.94,East,90,0.2,0.0,34,0.00,,---,82.22,VWS V14.01,2013-05-26 00:37:00,
2013-05-25 20:38:00,65.1,36.1,29.94,East,90,0.2,0.0,34,0.00,,---,82.22,VWS V14.01,2013-05-26 00:38:00,
2013-05-25 20:39:00,64.4,35.5,29.94,East,90,0.2,0.0,34,0.00,,---,82.22,VWS V14.01,2013-05-26 00:39:00,
2013-05-25 20:40:00,64.9,35.9,29.94,East,90,0.2,0.0,34,0.00,,---,82.22,VWS V14.01,2013-05-26 00:40:00,
2013-05-25 20:41:00,64.2,35.3,29.94,East,90,0.2,0.0,34,0.00,,---,82.22,VWS V14.01,2013-05-26 00:41:00,
2013-05-25 20:42:00,64.2,36.0,29.94,East,90,0.2,0.0,35,0.00,,---,82.22,VWS V14.01,2013-05-26 00:42:00,
2013-05-25 20:43:00,64.6,35.6,29.94,East,90,0.2,0.0,34,0.00,,---,82.22,VWS V14.01,2013-05-26 00:43:00,
2013-05-25 20:44:00,63.9,35.0,29.94,East,90,0.2,0.0,34,0.00,,---,82.22,VWS V14.01,2013-05-26 00:44:00,
2013-05-25 20:45:00,63.9,35.0,29.94,East,90,0.2,0.0,34,0.00,,---,82.22,VWS V14.01,2013-05-26 00:45:00,
2013-05-25 20:46:00,63.7,34.8,29.94,East,90,0.2,0.0,34,0.00,,---,82.22,VWS V14.01,2013-05-26 00:46:00,
2013-05-25 20:47:00,64.4,35.5,29.94,East,90,0.2,0.0,34,0.00,,---,82.22,VWS V14.01,2013-05-26 00:47:00,
2013-05-25 20:48:00,64.2,35.3,29.94,East,90,0.2,0.0,34,0.00,,---,82.22,VWS V14.01,2013-05-26 00:48:00,
2013-05-25 20:49:00,64.2,35.3,29.94,East,90,0.2,0.0,34,0.00,,---,82.22,VWS V14.01,2013-05-26 00:49:00,
2013-05-25 20:50:00,63.3,34.5,29.94,East,90,0.2,0.0,34,0.00,,---,82.22,VWS V14.01,2013-05-26 00:50:00,
2013-05-25 20:51:00,63.3,34.5,29.94,East,90,0.2,0.0,34,0.00,,---,82.22,VWS V14.01,2013-05-26 00:51:00,
2013-05-25 20:52:00,63.1,34.3,29.94,East,90,0.2,0.0,34,0.00,,---,82.22,VWS V14.01,2013-05-26 00:52:00,
2013-05-25 20:53:00,63.9,35.0,29.94,East,90,0.2,0.0,34,0.00,,---,82.22,VWS V14.01,2013-05-26 00:53:00,
2013-05-25 20:54:00,63.7,34.8,29.94,East,90,0.2,0.0,34,0.00,,---,82.22,VWS V14.01,2013-05-26 00:54:00,
2013-05-25 20:55:00,63.0,34.2,29.94,East,90,0.2,0.0,34,0.00,,---,82.22,VWS V14.01,2013-05-26 00:55:00,
2013-05-25 20:56:00,62.8,34.0,29.94,East,90,0.2,0.0,34,0.00,,---,82.22,VWS V14.01,2013-05-26 00:56:00,
2013-05-25 20:57:00,63.5,34.7,29.94,East,90,0.2,0.0,34,0.00,,---,82.22,VWS V14.01,2013-05-26 00:57:00,
2013-05-25 20:58:00,62.6,33.9,29.94,East,90,0.2,0.0,34,0.00,,---,82.22,VWS V14.01,2013-05-26 00:58:00,
2013-05-25 20:59:00,63.3,34.5,29.94,East,90,0.2,0.0,34,0.00,,---,82.22,VWS V14.01,2013-05-26 00:59:00,
2013-05-25 21:00:00,62.4,33.7,29.94,East,90,0.2,0.0,34,0.00,,---,82.22,VWS V14.01,2013-05-26 01:00:00,
2013-05-25 21:01:00,63.1,34.3,29.94,East,90,0.2,0.0,34,0.00,,---,82.22,VWS V14.01,2013-05-26 01:01:00,
2013-05-25 21:02:00,62.4,33.7,29.94,East,90,0.2,0.0,34,0.00,,---,82.22,VWS V14.01,2013-05-26 01:02:00,
2013-05-25 21:03:00,62.2,34.3,29.94,East,90,0.2,0.0,35,0.00,,---,82.22,VWS V14.01,2013-05-26 01:03:00,
2013-05-25 21:04:00,62.8,34.0,29.94,East,90,0.2,0.0,34,0.00,,---,82.22,VWS V14.01,2013-05-26 01:04:00,
2013-05-25 21:05:00,62.8,34.0,29.94,East,90,0.2,0.0,34,0.00,,---,82.22,VWS V14.01,2013-05-26 01:05:00,
2013-05-25 21:06:00,62.6,33.9,29.94,East,90,0.2,0.0,34,0.00,,---,82.22,VWS V14.01,2013-05-26 01:06:00,
2013-05-25 21:07:00,62.6,33.9,29.94,East,90,0.2,0.0,34,0.00,,---,82.22,VWS V14.01,2013-05-26 01:07:00,
2013-05-25 21:08:00,62.4,33.7,29.94,East,90,0.2,0.0,34,0.00,,---,82.22,VWS V14.01,2013-05-26 01:08:00,
2013-05-25 21:09:00,61.7,33.8,29.94,East,90,0.2,0.0,35,0.00,,---,82.22,VWS V14.01,2013-05-26 01:09:00,
2013-05-25 21:10:00,61.5,33.6,29.94,East,90,0.2,0.0,35,0.00,,---,82.22,VWS V14.01,2013-05-26 01:10:00,
2013-05-25 21:11:00,61.5,33.6,29.94,East,90,0.2,0.0,35,0.00,,---,82.22,VWS V14.01,2013-05-26 01:11:00,
2013-05-25 21:12:00,61.3,33.5,29.94,East,90,0.2,0.0,35,0.00,,---,82.22,VWS V14.01,2013-05-26 01:12:00,
2013-05-25 21:13:00,62.1,34.1,29.94,East,90,0.2,0.0,35,0.00,,---,82.22,VWS V14.01,2013-05-26 01:13:00,
2013-05-25 21:14:00,61.9,34.0,29.94,East,90,0.2,0.0,35,0.00,,---,82.22,VWS V14.01,2013-05-26 01:14:00,
2013-05-25 21:15:00,61.9,34.0,29.94,East,90,0.2,0.0,35,0.00,,---,82.22,VWS V14.01,2013-05-26 01:15:00,
2013-05-25 21:16:00,61.0,33.2,29.94,ESE,112,0.2,1.3,35,0.00,,---,82.22,VWS V14.01,2013-05-26 01:16:00,
2013-05-25 21:17:00,61.7,33.8,29.94,East,90,0.2,0.0,35,0.00,,---,82.22,VWS V14.01,2013-05-26 01:17:00,
2013-05-25 21:18:00,60.8,33.0,29.94,ESE,112,0.2,2.2,35,0.00,,---,82.22,VWS V14.01,2013-05-26 01:18:00,
2013-05-25 21:19:00,61.5,33.6,29.94,East,90,0.2,0.0,35,0.00,,---,82.22,VWS V14.01,2013-05-26 01:19:00,
2013-05-25 21:20:00,60.6,32.8,29.94,ESE,112,0.2,0.0,35,0.00,,---,82.22,VWS V14.01,2013-05-26 01:20:00,
2013-05-25 21:21:00,61.3,33.5,29.94,ESE,112,0.2,2.2,35,0.00,,---,82.22,VWS V14.01,2013-05-26 01:21:00,
2013-05-25 21:22:00,61.2,33.3,29.94,ESE,112,0.2,2.2,35,0.00,,---,82.22,VWS V14.01,2013-05-26 01:22:00,
2013-05-25 21:23:00,60.4,32.7,29.94,East,90,0.2,0.0,35,0.00,,---,82.22,VWS V14.01,2013-05-26 01:23:00,
2013-05-25 21:24:00,60.4,32.7,29.94,ESE,112,0.0,2.0,35,0.00,,---,82.22,VWS V14.01,2013-05-26 01:24:00,
2013-05-25 21:25:00,60.8,33.0,29.94,ESE,112,0.2,1.3,35,0.00,,---,82.22,VWS V14.01,2013-05-26 01:25:00,
2013-05-25 21:26:00,60.8,33.0,29.94,ESE,112,0.2,2.2,35,0.00,,---,82.22,VWS V14.01,2013-05-26 01:26:00,
2013-05-25 21:27:00,60.6,32.8,29.94,ESE,112,0.2,2.2,35,0.00,,---,82.22,VWS V14.01,2013-05-26 01:27:00,
2013-05-25 21:28:00,60.6,32.8,29.94,ESE,112,0.2,0.0,35,0.00,,---,82.22,VWS V14.01,2013-05-26 01:28:00,
2013-05-25 21:29:00,60.3,33.2,29.94,ESE,112,0.0,1.3,36,0.00,,---,82.22,VWS V14.01,2013-05-26 01:29:00,
2013-05-25 21:30:00,60.1,33.1,29.94,ESE,112,0.0,2.0,36,0.00,,---,82.22,VWS V14.01,2013-05-26 01:30:00,
2013-05-25 21:31:00,60.1,33.1,29.94,ESE,112,0.0,0.0,36,0.00,,---,82.22,VWS V14.01,2013-05-26 01:31:00,
2013-05-25 21:32:00,60.4,32.7,29.94,ESE,112,0.0,2.0,35,0.00,,---,82.22,VWS V14.01,2013-05-26 01:32:00,
2013-05-25 21:33:00,60.4,32.7,29.94,ESE,112,0.0,2.0,35,0.00,,---,82.22,VWS V14.01,2013-05-26 01:33:00,
2013-05-25 21:34:00,59.9,32.9,29.94,ESE,112,0.0,0.0,36,0.00,,---,82.22,VWS V14.01,2013-05-26 01:34:00,
2013-05-25 21:35:00,59.9,32.9,29.94,ESE,112,0.0,0.0,36,0.00,,---,82.22,VWS V14.01,2013-05-26 01:35:00,
2013-05-25 21:36:00,59.9,32.9,29.94,ESE,112,0.0,0.0,36,0.00,,---,82.22,VWS V14.01,2013-05-26 01:36:00,
2013-05-25 21:37:00,60.3,33.2,29.94,ESE,112,0.0,1.3,36,0.00,,---,82.22,VWS V14.01,2013-05-26 01:37:00,
2013-05-25 21:38:00,59.7,32.7,29.94,ESE,112,0.0,0.0,36,0.00,,---,82.22,VWS V14.01,2013-05-26 01:38:00,
2013-05-25 21:39:00,60.1,33.1,29.94,ESE,112,0.0,0.0,36,0.00,,---,82.22,VWS V14.01,2013-05-26 01:39:00,
2013-05-25 21:40:00,59.7,32.7,29.94,ESE,112,0.0,0.0,36,0.00,,---,82.22,VWS V14.01,2013-05-26 01:40:00,
2013-05-25 21:41:00,59.5,32.6,29.94,ESE,112,0.0,0.0,36,0.00,,---,82.22,VWS V14.01,2013-05-26 01:41:00,
2013-05-25 21:42:00,59.5,33.3,29.94,ESE,112,0.0,0.0,37,0.00,,---,82.22,VWS V14.01,2013-05-26 01:42:00,
2013-05-25 21:43:00,59.9,32.9,29.94,ESE,112,0.0,0.0,36,0.00,,---,82.22,VWS V14.01,2013-05-26 01:43:00,
2013-05-25 21:44:00,59.4,33.1,29.94,ESE,112,0.0,0.0,37,0.00,,---,82.22,VWS V14.01,2013-05-26 01:44:00,
2013-05-25 21:45:00,59.4,33.1,29.94,ESE,112,0.0,0.0,37,0.00,,---,82.22,VWS V14.01,2013-05-26 01:45:00,
2013-05-25 21:46:00,59.4,33.1,29.94,ESE,112,0.0,0.0,37,0.00,,---,82.22,VWS V14.01,2013-05-26 01:46:00,
2013-05-25 21:47:00,59.7,32.7,29.94,ESE,112,0.0,0.0,36,0.00,,---,82.22,VWS V14.01,2013-05-26 01:47:00,
2013-05-25 21:48:00,59.7,33.4,29.94,ESE,112,0.0,0.0,37,0.00,,---,82.22,VWS V14.01,2013-05-26 01:48:00,
2013-05-25 21:49:00,59.5,32.6,29.94,ESE,112,0.0,0.0,36,0.00,,---,82.22,VWS V14.01,2013-05-26 01:49:00,
2013-05-25 21:50:00,59.2,33.6,29.94,ESE,112,0.0,0.0,38,0.00,,---,82.22,VWS V14.01,2013-05-26 01:50:00,
2013-05-25 21:51:00,59.0,33.5,29.94,ESE,112,0.0,0.0,38,0.00,,---,82.22,VWS V14.01,2013-05-26 01:51:00,
2013-05-25 21:52:00,59.0,33.5,29.94,ESE,112,0.0,0.0,38,0.00,,---,82.22,VWS V14.01,2013-05-26 01:52:00,
2013-05-25 21:53:00,59.0,33.5,29.94,ESE,112,0.0,0.0,38,0.00,,---,82.22,VWS V14.01,2013-05-26 01:53:00,
2013-05-25 21:54:00,58.8,33.9,29.94,ESE,112,0.0,0.0,39,0.00,,---,82.22,VWS V14.01,2013-05-26 01:54:00,
2013-05-25 21:55:00,59.4,33.8,29.94,ESE,112,0.0,0.0,38,0.00,,---,82.22,VWS V14.01,2013-05-26 01:55:00,
2013-05-25 21:56:00,59.2,33.6,29.94,ESE,112,0.0,0.0,38,0.00,,---,82.22,VWS V14.01,2013-05-26 01:56:00,
2013-05-25 21:57:00,59.2,33.6,29.94,ESE,112,0.0,0.0,38,0.00,,---,82.22,VWS V14.01,2013-05-26 01:57:00,
2013-05-25 21:58:00,58.8,33.9,29.94,ESE,112,0.0,0.0,39,0.00,,---,82.22,VWS V14.01,2013-05-26 01:58:00,
2013-05-25 21:59:00,58.6,33.8,29.94,ESE,112,0.0,0.0,39,0.00,,---,82.22,VWS V14.01,2013-05-26 01:59:00,
2013-05-25 22:00:00,59.0,33.5,29.94,ESE,112,0.0,0.0,38,0.00,,---,82.22,VWS V14.01,2013-05-26 02:00:00,
2013-05-25 22:01:00,59.0,33.5,29.94,ESE,112,0.0,0.0,38,0.00,,---,82.22,VWS V14.01,2013-05-26 02:01:00,
2013-05-25 22:02:00,58.8,33.9,29.94,ESE,112,0.0,0.0,39,0.00,,---,82.22,VWS V14.01,2013-05-26 02:02:00,
2013-05-25 22:03:00,58.3,33.5,29.94,ESE,112,0.0,0.0,39,0.00,,---,82.22,VWS V14.01,2013-05-26 02:03:00,
2013-05-25 22:04:00,58.3,33.5,29.94,ESE,112,0.0,0.0,39,0.00,,---,82.22,VWS V14.01,2013-05-26 02:04:00,
2013-05-25 22:05:00,58.3,33.5,29.94,East,90,0.0,0.0,39,0.00,,---,82.22,VWS V14.01,2013-05-26 02:05:00,
2013-05-25 22:06:00,58.1,33.3,29.94,East,90,0.0,0.0,39,0.00,,---,82.22,VWS V14.01,2013-05-26 02:06:00,
2013-05-25 22:07:00,58.6,33.8,29.94,ESE,112,0.0,0.0,39,0.00,,---,82.22,VWS V14.01,2013-05-26 02:07:00,
2013-05-25 22:08:00,58.5,33.6,29.94,ESE,112,0.0,0.0,39,0.00,,---,82.22,VWS V14.01,2013-05-26 02:08:00,
2013-05-25 22:09:00,58.5,33.6,29.94,ESE,112,0.0,0.0,39,0.00,,---,82.22,VWS V14.01,2013-05-26 02:09:00,
2013-05-25 22:10:00,57.9,33.1,29.94,ENE,68,0.0,0.0,39,0.00,,---,82.22,VWS V14.01,2013-05-26 02:10:00,
2013-05-25 22:11:00,57.9,33.1,29.94,ENE,68,0.0,0.0,39,0.00,,---,82.22,VWS V14.01,2013-05-26 02:11:00,
2013-05-25 22:12:00,58.3,33.5,29.94,ESE,112,0.0,0.0,39,0.00,,---,82.22,VWS V14.01,2013-05-26 02:12:00,
2013-05-25 22:13:00,57.9,33.1,29.94,ENE,68,0.0,0.0,39,0.00,,---,82.22,VWS V14.01,2013-05-26 02:13:00,
2013-05-25 22:14:00,58.1,33.3,29.94,East,90,0.0,0.0,39,0.00,,---,82.22,VWS V14.01,2013-05-26 02:14:00,
2013-05-25 22:15:00,57.7,33.6,29.94,ENE,68,0.0,0.0,40,0.00,,---,82.22,VWS V14.01,2013-05-26 02:15:00,
2013-05-25 22:16:00,57.7,33.6,29.94,NW,315,0.0,0.0,40,0.00,,---,82.22,VWS V14.01,2013-05-26 02:16:00,
2013-05-25 22:17:00,57.6,33.4,29.94,NW,315,0.0,0.0,40,0.00,,---,82.22,VWS V14.01,2013-05-26 02:17:00,
2013-05-25 22:18:00,57.6,33.4,29.94,NE,45,0.0,0.0,40,0.00,,---,82.22,VWS V14.01,2013-05-26 02:18:00,
2013-05-25 22:19:00,57.9,33.1,29.94,ENE,68,0.0,0.0,39,0.00,,---,82.22,VWS V14.01,2013-05-26 02:19:00,
2013-05-25 22:20:00,57.9,33.1,29.94,ENE,68,0.0,0.0,39,0.00,,---,82.22,VWS V14.01,2013-05-26 02:20:00,
2013-05-25 22:21:00,57.4,33.9,29.94,NE,45,0.0,0.0,41,0.00,,---,82.22,VWS V14.01,2013-05-26 02:21:00,
2013-05-25 22:22:00,57.4,33.9,29.94,NE,45,0.0,0.0,41,0.00,,---,82.22,VWS V14.01,2013-05-26 02:22:00,
2013-05-25 22:23:00,57.4,33.9,29.94,NE,45,0.0,0.0,41,0.00,,---,82.22,VWS V14.01,2013-05-26 02:23:00,
2013-05-25 22:24:00,57.2,33.7,29.94,NE,45,0.0,0.0,41,0.00,,---,82.22,VWS V14.01,2013-05-26 02:24:00,
2013-05-25 22:25:00,57.6,33.4,29.94,NW,315,0.0,0.0,40,0.00,,---,82.22,VWS V14.01,2013-05-26 02:25:00,
2013-05-25 22:26:00,57.6,33.4,29.94,NE,45,0.0,0.0,40,0.00,,---,82.22,VWS V14.01,2013-05-26 02:26:00,
2013-05-25 22:27:00,57.2,33.7,29.94,NE,45,0.0,0.0,41,0.00,,---,82.22,VWS V14.01,2013-05-26 02:27:00,
2013-05-25 22:28:00,57.6,34.1,29.94,NE,45,0.0,0.0,41,0.00,,---,82.22,VWS V14.01,2013-05-26 02:28:00,
2013-05-25 22:29:00,57.2,34.9,29.94,NE,45,0.0,2.2,43,0.00,,---,82.22,VWS V14.01,2013-05-26 02:29:00,
2013-05-25 22:30:00,57.4,33.9,29.94,NE,45,0.0,0.0,41,0.00,,---,82.22,VWS V14.01,2013-05-26 02:30:00,
2013-05-25 22:31:00,57.0,35.9,29.94,NE,45,0.0,1.6,45,0.00,,---,82.22,VWS V14.01,2013-05-26 02:31:00,
2013-05-25 22:32:00,57.2,33.7,29.94,NE,45,0.0,0.0,41,0.00,,---,82.22,VWS V14.01,2013-05-26 02:32:00,
2013-05-25 22:33:00,57.0,36.5,29.94,NE,45,0.0,0.9,46,0.00,,---,82.22,VWS V14.01,2013-05-26 02:33:00,
2013-05-25 22:34:00,57.0,36.5,29.94,NE,45,0.0,0.0,46,0.00,,---,82.22,VWS V14.01,2013-05-26 02:34:00,
2013-05-25 22:35:00,56.8,36.3,29.94,NE,45,0.0,0.0,46,0.00,,---,82.22,VWS V14.01,2013-05-26 02:35:00,
2013-05-25 22:36:00,57.2,34.3,29.94,NE,45,0.0,1.1,42,0.00,,---,82.22,VWS V14.01,2013-05-26 02:36:00,
2013-05-25 22:37:00,57.2,34.9,29.94,NE,45,0.0,2.2,43,0.00,,---,82.22,VWS V14.01,2013-05-26 02:37:00,
2013-05-25 22:38:00,56.8,36.8,29.94,NE,45,0.0,2.0,47,0.00,,---,82.22,VWS V14.01,2013-05-26 02:38:00,
2013-05-25 22:39:00,57.0,35.9,29.94,NE,45,0.0,1.6,45,0.00,,---,82.22,VWS V14.01,2013-05-26 02:39:00,
2013-05-25 22:40:00,56.7,36.7,29.94,NE,45,0.0,1.6,47,0.00,,---,82.22,VWS V14.01,2013-05-26 02:40:00,
2013-05-25 22:41:00,57.0,36.5,29.94,NE,45,0.0,0.9,46,0.00,,---,82.22,VWS V14.01,2013-05-26 02:41:00,
2013-05-25 22:42:00,56.5,37.0,29.94,NE,45,0.0,0.9,48,0.00,,---,82.22,VWS V14.01,2013-05-26 02:42:00,
2013-05-25 22:43:00,56.5,37.0,29.94,NE,45,0.0,0.0,48,0.00,,---,82.22,VWS V14.01,2013-05-26 02:43:00,
2013-05-25 22:44:00,56.8,36.3,29.94,NE,45,0.0,0.0,46,0.00,,---,82.22,VWS V14.01,2013-05-26 02:44:00,
2013-05-25 22:45:00,56.8,36.8,29.94,NE,45,0.0,2.0,47,0.00,,---,82.22,VWS V14.01,2013-05-26 02:45:00,
2013-05-25 22:46:00,56.8,36.8,29.94,NE,45,0.0,2.0,47,0.00,,---,82.22,VWS V14.01,2013-05-26 02:46:00,
2013-05-25 22:47:00,56.3,36.3,29.94,NE,45,0.0,0.0,47,0.00,,---,82.22,VWS V14.01,2013-05-26 02:47:00,
2013-05-25 22:48:00,56.1,36.2,29.94,NE,45,0.0,0.0,47,0.00,,---,82.22,VWS V14.01,2013-05-26 02:48:00,
2013-05-25 22:49:00,56.1,36.2,29.94,NE,45,0.0,0.0,47,0.00,,---,82.22,VWS V14.01,2013-05-26 02:49:00,
2013-05-25 22:50:00,56.5,37.0,29.94,NE,45,0.0,0.9,48,0.00,,---,82.22,VWS V14.01,2013-05-26 02:50:00,
2013-05-25 22:51:00,55.9,36.0,29.94,NE,45,0.0,0.0,47,0.00,,---,82.22,VWS V14.01,2013-05-26 02:51:00,
2013-05-25 22:52:00,55.9,36.0,29.94,NE,45,0.0,0.0,47,0.00,,---,82.22,VWS V14.01,2013-05-26 02:52:00,
2013-05-25 22:53:00,56.5,36.5,29.94,NE,45,0.0,0.0,47,0.00,,---,82.22,VWS V14.01,2013-05-26 02:53:00,
2013-05-25 22:54:00,55.9,36.0,29.94,NE,45,0.0,0.0,47,0.00,,---,82.22,VWS V14.01,2013-05-26 02:54:00,
2013-05-25 22:55:00,55.9,36.5,29.94,NE,45,0.0,0.0,48,0.00,,---,82.22,VWS V14.01,2013-05-26 02:55:00,
2013-05-25 22:56:00,56.1,36.2,29.94,NE,45,0.0,0.0,47,0.00,,---,82.22,VWS V14.01,2013-05-26 02:56:00,
2013-05-25 22:57:00,55.8,36.4,29.94,NE,45,0.0,0.0,48,0.00,,---,82.22,VWS V14.01,2013-05-26 02:57:00,
2013-05-25 22:58:00,56.1,36.7,29.94,NE,45,0.0,0.0,48,0.00,,---,82.22,VWS V14.01,2013-05-26 02:58:00,
2013-05-25 22:59:00,55.9,36.0,29.94,NE,45,0.0,0.0,47,0.00,,---,82.22,VWS V14.01,2013-05-26 02:59:00,
2013-05-25 23:00:00,55.8,36.9,29.94,NE,45,0.0,1.1,49,0.00,,---,82.22,VWS V14.01,2013-05-26 03:00:00,
2013-05-25 23:01:00,55.9,36.0,29.94,NE,45,0.0,0.0,47,0.00,,---,82.22,VWS V14.01,2013-05-26 03:01:00,
2013-05-25 23:02:00,55.6,37.2,29.94,NE,45,0.0,1.6,50,0.00,,---,82.22,VWS V14.01,2013-05-26 03:02:00,
2013-05-25 23:03:00,55.6,37.2,29.94,NE,45,0.0,1.3,50,0.00,,---,82.22,VWS V14.01,2013-05-26 03:03:00,
2013-05-25 23:04:00,55.6,37.2,29.94,NE,45,0.0,1.3,50,0.00,,---,82.22,VWS V14.01,2013-05-26 03:04:00,
2013-05-25 23:05:00,55.6,37.2,29.94,NE,45,0.0,1.1,50,0.00,,---,82.22,VWS V14.01,2013-05-26 03:05:00,
2013-05-25 23:06:00,55.6,37.2,29.94,NE,45,0.0,0.0,50,0.00,,---,82.22,VWS V14.01,2013-05-26 03:06:00,
2013-05-25 23:07:00,55.8,36.9,29.94,NE,45,0.0,0.0,49,0.00,,---,82.22,VWS V14.01,2013-05-26 03:07:00,
2013-05-25 23:08:00,55.8,36.9,29.94,NE,45,0.0,1.1,49,0.00,,---,82.22,VWS V14.01,2013-05-26 03:08:00,
2013-05-25 23:09:00,55.6,36.7,29.94,NE,45,0.0,1.6,49,0.00,,---,82.22,VWS V14.01,2013-05-26 03:09:00,
2013-05-25 23:10:00,55.4,37.1,29.94,NE,45,0.0,0.0,50,0.00,,---,82.22,VWS V14.01,2013-05-26 03:10:00,
2013-05-25 23:11:00,55.6,37.2,29.94,NE,45,0.0,1.3,50,0.00,,---,82.22,VWS V14.01,2013-05-26 03:11:00,
2013-05-25 23:12:00,55.4,37.1,29.94,NE,45,0.0,0.0,50,0.00,,---,82.22,VWS V14.01,2013-05-26 03:12:00,
2013-05-25 23:13:00,55.2,36.9,29.94,NE,45,0.0,0.0,50,0.00,,---,82.22,VWS V14.01,2013-05-26 03:13:00,
2013-05-25 23:14:00,55.2,36.9,29.94,NE,45,0.0,0.0,50,0.00,,---,82.22,VWS V14.01,2013-05-26 03:14:00,
2013-05-25 23:15:00,55.6,37.2,29.94,NE,45,0.0,0.0,50,0.00,,---,82.22,VWS V14.01,2013-05-26 03:15:00,
2013-05-25 23:16:00,55.2,37.4,29.94,NE,45,0.0,0.0,51,0.00,,---,82.22,VWS V14.01,2013-05-26 03:16:00,
2013-05-25 23:17:00,55.6,37.8,29.94,NE,45,0.0,0.0,51,0.00,,---,82.22,VWS V14.01,2013-05-26 03:17:00,
2013-05-25 23:18:00,55.0,37.3,29.94,NE,45,0.0,0.0,51,0.00,,---,82.22,VWS V14.01,2013-05-26 03:18:00,
2013-05-25 23:19:00,55.0,37.3,29.94,NE,45,0.0,0.0,51,0.00,,---,82.22,VWS V14.01,2013-05-26 03:19:00,
2013-05-25 23:20:00,55.0,37.3,29.94,NE,45,0.0,0.0,51,0.00,,---,82.22,VWS V14.01,2013-05-26 03:20:00,
2013-05-25 23:21:00,55.2,36.9,29.94,NE,45,0.0,0.0,50,0.00,,---,82.22,VWS V14.01,2013-05-26 03:21:00,
2013-05-25 23:22:00,55.2,36.9,29.94,NE,45,0.0,0.0,50,0.00,,---,82.22,VWS V14.01,2013-05-26 03:22:00,
2013-05-25 23:23:00,54.9,37.6,29.94,NE,45,0.0,0.0,52,0.00,,---,82.22,VWS V14.01,2013-05-26 03:23:00,
2013-05-25 23:24:00,55.2,37.4,29.94,NE,45,0.0,0.0,51,0.00,,---,82.22,VWS V14.01,2013-05-26 03:24:00,
2013-05-25 23:25:00,54.9,38.1,29.94,NE,45,0.0,0.0,53,0.00,,---,82.22,VWS V14.01,2013-05-26 03:25:00,
2013-05-25 23:26:00,54.9,38.1,29.94,NE,45,0.0,0.0,53,0.00,,---,82.22,VWS V14.01,2013-05-26 03:26:00,
2013-05-25 23:27:00,54.9,38.1,29.94,NE,45,0.0,0.0,53,0.00,,---,82.22,VWS V14.01,2013-05-26 03:27:00,
2013-05-25 23:28:00,55.0,37.3,29.94,NE,45,0.0,0.0,51,0.00,,---,82.22,VWS V14.01,2013-05-26 03:28:00,
2013-05-25 23:29:00,54.9,37.6,29.94,NE,45,0.0,0.0,52,0.00,,---,82.22,VWS V14.01,2013-05-26 03:29:00,
2013-05-25 23:30:00,54.7,38.4,29.94,NE,45,0.0,0.0,54,0.00,,---,82.22,VWS V14.01,2013-05-26 03:30:00,
2013-05-25 23:31:00,54.9,37.6,29.94,NE,45,0.0,0.0,52,0.00,,---,82.22,VWS V14.01,2013-05-26 03:31:00,
2013-05-25 23:32:00,54.7,38.4,29.94,NE,45,0.0,0.0,54,0.00,,---,82.22,VWS V14.01,2013-05-26 03:32:00,
2013-05-25 23:33:00,54.9,38.1,29.94,NE,45,0.0,0.0,53,0.00,,---,82.22,VWS V14.01,2013-05-26 03:33:00,
2013-05-25 23:34:00,54.9,38.1,29.94,NE,45,0.0,0.0,53,0.00,,---,82.22,VWS V14.01,2013-05-26 03:34:00,
2013-05-25 23:35:00,54.5,38.2,29.94,NE,45,0.0,0.0,54,0.00,,---,82.22,VWS V14.01,2013-05-26 03:35:00,
2013-05-25 23:36:00,54.5,38.7,29.94,NE,45,0.0,0.0,55,0.00,,---,82.22,VWS V14.01,2013-05-26 03:36:00,
2013-05-25 23:37:00,54.5,38.7,29.94,NE,45,0.0,0.0,55,0.00,,---,82.22,VWS V14.01,2013-05-26 03:37:00,
2013-05-25 23:38:00,54.7,38.4,29.94,NE,45,0.0,0.0,54,0.00,,---,82.22,VWS V14.01,2013-05-26 03:38:00,
2013-05-25 23:39:00,54.7,38.4,29.94,NE,45,0.0,0.0,54,0.00,,---,82.22,VWS V14.01,2013-05-26 03:39:00,
2013-05-25 23:40:00,54.7,38.4,29.94,NE,45,0.0,0.0,54,0.00,,---,82.22,VWS V14.01,2013-05-26 03:40:00,
2013-05-25 23:41:00,54.5,38.2,29.94,NE,45,0.0,0.0,54,0.00,,---,82.22,VWS V14.01,2013-05-26 03:41:00,
2013-05-25 23:42:00,54.5,39.1,29.94,NE,45,0.0,0.0,56,0.00,,---,82.22,VWS V14.01,2013-05-26 03:42:00,
2013-05-25 23:43:00,54.5,38.2,29.94,NE,45,0.0,0.0,54,0.00,,---,82.22,VWS V14.01,2013-05-26 03:43:00,
2013-05-25 23:44:00,54.3,38.5,29.94,NE,45,0.0,0.0,55,0.00,,---,82.22,VWS V14.01,2013-05-26 03:44:00,
2013-05-25 23:45:00,54.5,38.7,29.94,NE,45,0.0,0.0,55,0.00,,---,82.22,VWS V14.01,2013-05-26 03:45:00,
2013-05-25 23:46:00,54.3,38.5,29.94,NE,45,0.0,0.0,55,0.00,,---,82.22,VWS V14.01,2013-05-26 03:46:00,
2013-05-25 23:47:00,54.5,38.7,29.94,NE,45,0.0,0.0,55,0.00,,---,82.22,VWS V14.01,2013-05-26 03:47:00,
2013-05-25 23:48:00,54.5,38.7,29.94,NE,45,0.0,0.0,55,0.00,,---,82.22,VWS V14.01,2013-05-26 03:48:00,
2013-05-25 23:49:00,54.5,39.1,29.94,NE,45,0.0,0.0,56,0.00,,---,82.22,VWS V14.01,2013-05-26 03:49:00,
2013-05-25 23:50:00,54.3,38.0,29.94,NE,45,0.0,0.0,54,0.00,,---,82.22,VWS V14.01,2013-05-26 03:50:00,
2013-05-25 23:51:00,54.3,39.0,29.94,NE,45,0.0,0.0,56,0.00,,---,82.22,VWS V14.01,2013-05-26 03:51:00,
2013-05-25 23:52:00,54.3,38.5,29.94,NE,45,0.0,0.0,55,0.00,,---,82.22,VWS V14.01,2013-05-26 03:52:00,
2013-05-25 23:53:00,54.3,38.5,29.94,NE,45,0.0,0.0,55,0.00,,---,82.22,VWS V14.01,2013-05-26 03:53:00,
2013-05-25 23:54:00,54.3,38.0,29.94,NE,45,0.0,0.0,54,0.00,,---,0.00,VWS V14.01,2013-05-26 03:54:00,
2013-05-25 23:55:00,54.3,38.0,29.94,NE,45,0.0,0.0,54,0.00,,---,0.00,VWS V14.01,2013-05-26 03:55:00,
2013-05-25 23:56:00,54.3,38.5,29.94,NE,45,0.0,0.0,55,0.00,,---,0.00,VWS V14.01,2013-05-26 03:56:00,
2013-05-25 23:57:00,54.3,38.5,29.94,NE,45,0.0,0.0,55,0.00,,---,0.00,VWS V14.01,2013-05-26 03:57:00,
2013-05-25 23:58:00,54.3,38.0,29.94,NE,45,0.0,0.0,54,0.00,,---,82.22,VWS V14.01,2013-05-26 03:58:00,
2013-05-25 23:59:00,54.3,38.0,29.94,NE,45,0.0,0.0,54,0.00,,---,82.22,VWS V14.01,2013-05-26 03:59:00,